Provisional Data: Little Muncy Creek near Moreland, PA


Please select a monitoring station.
Please select start date.
Please select start date.

Toggle Unit: C/F Toggle Unit: C/F
Sample Time Temperature (C) Temperature (F) Specific Conductivity (mS/cm) pH   Turbidity (NTU+) DO (mg/L)
3/7/2021 12:00:00 AM 2.06 35.708 0.099 6.95 6.02 13.28
3/7/2021 12:15:00 AM 2.02 35.636 0.1 6.94 6.26 13.29
3/7/2021 12:30:00 AM 1.98 35.564 0.1 6.94 6.05 13.3
3/7/2021 12:45:00 AM 1.95 35.51 0.1 6.95 6.03 13.32
3/7/2021 1:00:00 AM 1.91 35.438 0.1 6.94 6.19 13.34
3/7/2021 1:15:00 AM 1.86 35.348 0.1 6.93 6.2 13.35
3/7/2021 1:30:00 AM 1.81 35.258 0.1 6.94 6.07 13.37
3/7/2021 1:45:00 AM 1.76 35.168 0.1 6.94 6.02 13.4
3/7/2021 2:00:00 AM 1.72 35.096 0.1 6.94 6.05 13.41
3/7/2021 2:15:00 AM 1.67 35.006 0.1 6.93 5.94 13.43
3/7/2021 2:30:00 AM 1.63 34.934 0.1 6.93 5.96 13.45
3/7/2021 2:45:00 AM 1.58 34.844 0.1 6.93 6.04 13.46
3/7/2021 3:00:00 AM 1.54 34.772 0.1 6.93 6.03 13.48
3/7/2021 3:15:00 AM 1.5 34.7 0.1 6.94 6.06 13.5
3/7/2021 3:30:00 AM 1.45 34.61 0.1 6.93 5.97 13.52
3/7/2021 3:45:00 AM 1.41 34.538 0.1 6.94 6.04 13.53
3/7/2021 4:00:00 AM 1.36 34.448 0.1 6.93 6.02 13.54
3/7/2021 4:15:00 AM 1.32 34.376 0.1 6.93 6.15 13.56
3/7/2021 4:30:00 AM 1.27 34.286 0.1 6.93 6.15 13.58
3/7/2021 4:45:00 AM 1.23 34.214 0.1 6.93 6.13 13.6
3/7/2021 5:00:00 AM 1.18 34.124 0.1 6.93 6.06 13.62
3/7/2021 5:15:00 AM 1.13 34.034 0.1 6.92 6.05 13.64
3/7/2021 5:30:00 AM 1.09 33.962 0.1 6.93 6.09 13.67
3/7/2021 5:45:00 AM 1.04 33.872 0.1 6.92 6.02 13.69
3/7/2021 6:00:00 AM 0.99 33.782 0.1 6.93 5.95 13.71
3/7/2021 6:15:00 AM 0.93 33.674 0.1 6.93 5.98 13.73
3/7/2021 6:30:00 AM 0.88 33.584 0.1 6.92 5.98 13.75
3/7/2021 6:45:00 AM 0.83 33.494 0.1 6.93 6.02 13.79
3/7/2021 7:00:00 AM 0.78 33.404 0.1 6.93 5.92 13.83
3/7/2021 7:15:00 AM 0.74 33.332 0.1 6.94 5.97 13.89
3/7/2021 7:30:00 AM 0.7 33.26 0.1 6.94 6.2 13.95
3/7/2021 7:45:00 AM 0.68 33.224 0.1 6.96 6 14.01
3/7/2021 8:00:00 AM 0.67 33.206 0.1 6.97 5.94 14.07
3/7/2021 8:15:00 AM 0.67 33.206 0.1 6.99 6.11 14.13
3/7/2021 8:30:00 AM 0.68 33.224 0.1 7 5.99 14.19
3/7/2021 8:45:00 AM 0.71 33.278 0.1 7.02 5.83 14.24
3/7/2021 9:00:00 AM 0.75 33.35 0.1 7.04 5.98 14.28
3/7/2021 9:15:00 AM 0.8 33.44 0.1 7.05 5.86 14.32
3/7/2021 9:30:00 AM 0.88 33.584 0.1 7.08 5.91 14.36
3/7/2021 9:45:00 AM 0.94 33.692 0.1 7.1 5.9 14.38
3/7/2021 10:00:00 AM 1.02 33.836 0.1 7.1 5.9 14.4
3/7/2021 10:15:00 AM 1.13 34.034 0.1 7.13 5.92 14.42
3/7/2021 10:30:00 AM 1.25 34.25 0.1 7.14 5.95 14.41
3/7/2021 10:45:00 AM 1.38 34.484 0.099 7.16 5.94 14.4
3/7/2021 11:00:00 AM 1.52 34.736 0.099 7.17 5.95 14.39
3/7/2021 11:15:00 AM 1.68 35.024 0.099 7.18 5.99 14.36
3/7/2021 11:30:00 AM 1.87 35.366 0.099 7.2 5.9 14.34
3/7/2021 11:45:00 AM 2.05 35.69 0.099 7.21 5.71 14.32
3/7/2021 12:00:00 PM 2.24 36.032 0.099 7.21 6.07 14.28
3/7/2021 12:15:00 PM 2.41 36.338 0.099 7.21 5.96 14.23
3/7/2021 12:30:00 PM 2.59 36.662 0.099 7.22 5.88 14.19
3/7/2021 12:45:00 PM 2.76 36.968 0.099 7.23 5.87 14.15
3/7/2021 1:00:00 PM 2.92 37.256 0.099 7.23 5.86 14.1
3/7/2021 1:15:00 PM 3.08 37.544 0.098 7.23 5.88 14.04
3/7/2021 1:30:00 PM 3.22 37.796 0.098 7.23 5.98 13.98
3/7/2021 1:45:00 PM 3.36 38.048 0.098 7.24 5.9 13.93
3/7/2021 2:00:00 PM 3.47 38.246 0.098 7.24 6.04 13.89
3/7/2021 2:15:00 PM 3.58 38.444 0.098 7.24 5.83 13.85
3/7/2021 2:30:00 PM 3.66 38.588 0.098 7.24 5.82 13.8
3/7/2021 2:45:00 PM 3.74 38.732 0.098 7.24 5.88 13.74
3/7/2021 3:00:00 PM 3.81 38.858 0.098 7.24 5.89 13.69
3/7/2021 3:15:00 PM 3.86 38.948 0.098 7.24 5.83 13.64
3/7/2021 3:30:00 PM 3.91 39.038 0.098 7.25 5.93 13.6
3/7/2021 3:45:00 PM 3.95 39.11 0.098 7.24 5.81 13.56
3/7/2021 4:00:00 PM 3.98 39.164 0.098 7.23 5.87 13.51
3/7/2021 4:15:00 PM 3.99 39.182 0.098 7.23 5.83 13.47
3/7/2021 4:30:00 PM 3.99 39.182 0.098 7.21 5.86 13.42
3/7/2021 4:45:00 PM 3.98 39.164 0.098 7.21 5.78 13.38
3/7/2021 5:00:00 PM 3.98 39.164 0.098 7.2 5.78 13.33
3/7/2021 5:15:00 PM 3.97 39.146 0.098 7.18 5.87 13.29
3/7/2021 5:30:00 PM 3.94 39.092 0.098 7.17 5.86 13.25
3/7/2021 5:45:00 PM 3.91 39.038 0.098 7.16 5.86 13.21
3/7/2021 6:00:00 PM 3.86 38.948 0.098 7.13 5.83 13.17
3/7/2021 6:15:00 PM 3.8 38.84 0.099 7.11 5.86 13.13
3/7/2021 6:30:00 PM 3.72 38.696 0.099 7.09 5.91 13.1
3/7/2021 6:45:00 PM 3.64 38.552 0.099 7.07 5.88 13.07
3/7/2021 7:00:00 PM 3.56 38.408 0.099 7.05 5.9 13.05
3/7/2021 7:15:00 PM 3.46 38.228 0.099 7.02 5.84 13.03
3/7/2021 7:30:00 PM 3.37 38.066 0.099 7.03 5.96 13.03
3/7/2021 7:45:00 PM 3.27 37.886 0.099 7 6.15 13.03
3/7/2021 8:00:00 PM 3.17 37.706 0.099 6.99 6.13 13.04
3/7/2021 8:15:00 PM 3.08 37.544 0.099 6.98 6.02 13.05
3/7/2021 8:30:00 PM 2.97 37.346 0.099 6.97 6.13 13.07
3/7/2021 8:45:00 PM 2.88 37.184 0.099 6.96 6.22 13.08
3/7/2021 9:00:00 PM 2.78 37.004 0.1 6.95 6.06 13.1
3/7/2021 9:15:00 PM 2.68 36.824 0.1 6.95 5.98 13.13
3/7/2021 9:30:00 PM 2.58 36.644 0.1 6.95 6.08 13.16
3/7/2021 9:45:00 PM 2.49 36.482 0.1 6.94 6.11 13.19
3/7/2021 10:00:00 PM 2.4 36.32 0.1 6.93 6.04 13.22
3/7/2021 10:15:00 PM 2.31 36.158 0.1 6.93 5.98 13.24
3/7/2021 10:30:00 PM 2.23 36.014 0.1 6.94 6.09 13.27
3/7/2021 10:45:00 PM 2.15 35.87 0.1 6.93 5.93 13.29
3/7/2021 11:00:00 PM 2.06 35.708 0.1 6.93 5.93 13.31
3/7/2021 11:15:00 PM 1.98 35.564 0.1 6.92 6.11 13.33
3/7/2021 11:30:00 PM 1.9 35.42 0.1 6.93 6.01 13.36
3/7/2021 11:45:00 PM 1.82 35.276 0.1 6.93 6.06 13.39
3/8/2021 12:00:00 AM 1.75 35.15 0.101 6.92 6.1 13.42
3/8/2021 12:15:00 AM 1.67 35.006 0.101 6.93 6.09 13.45
3/8/2021 12:30:00 AM 1.6 34.88 0.101 6.92 6.08 13.48
3/8/2021 12:45:00 AM 1.53 34.754 0.101 6.93 6.06 13.52
3/8/2021 1:00:00 AM 1.46 34.628 0.101 6.92 6.15 13.55
3/8/2021 1:15:00 AM 1.39 34.502 0.101 6.93 6.09 13.57
3/8/2021 1:30:00 AM 1.32 34.376 0.101 6.92 6.02 13.6
3/8/2021 1:45:00 AM 1.25 34.25 0.101 6.93 6.04 13.62
3/8/2021 2:00:00 AM 1.19 34.142 0.101 6.94 5.94 13.64
3/8/2021 2:15:00 AM 1.12 34.016 0.101 6.93 5.9 13.67
3/8/2021 2:30:00 AM 1.06 33.908 0.101 6.93 6.12 13.7
3/8/2021 2:45:00 AM 0.99 33.782 0.101 6.94 6.06 13.73
3/8/2021 3:00:00 AM 0.92 33.656 0.101 6.93 6.02 13.76
3/8/2021 3:15:00 AM 0.85 33.53 0.101 6.93 6.05 13.79
3/8/2021 3:30:00 AM 0.78 33.404 0.101 6.93 6.13 13.81
3/8/2021 3:45:00 AM 0.72 33.296 0.101 6.93 6.03 13.84
3/8/2021 4:00:00 AM 0.66 33.188 0.101 6.94 6.02 13.87
3/8/2021 4:15:00 AM 0.59 33.062 0.101 6.93 5.92 13.9
3/8/2021 4:30:00 AM 0.53 32.954 0.101 6.94 6 13.92
3/8/2021 4:45:00 AM 0.47 32.846 0.101 6.94 5.96 13.95
3/8/2021 5:00:00 AM 0.41 32.738 0.101 6.94 6.05 13.97
3/8/2021 5:15:00 AM 0.35 32.63 0.101 6.93 5.99 14
3/8/2021 5:30:00 AM 0.29 32.522 0.101 6.94 5.91 14.02
3/8/2021 5:45:00 AM 0.23 32.414 0.101 6.94 5.95 14.05
3/8/2021 6:00:00 AM 0.18 32.324 0.101 6.93 5.96 14.08
3/8/2021 6:15:00 AM 0.12 32.216 0.101 6.93 6.01 14.12
3/8/2021 6:30:00 AM 0.07 32.126 0.101 6.94 5.98 14.15
3/8/2021 6:45:00 AM 0.02 32.036 0.101 6.94 6 14.19
3/8/2021 7:00:00 AM -0.02 31.964 0.101 6.95 6.04 14.25
3/8/2021 7:15:00 AM -0.06 31.892 0.101 6.95 6.02 14.31
3/8/2021 7:30:00 AM -0.07 31.874 0.101 6.98 5.98 14.38
3/8/2021 7:45:00 AM -0.05 31.91 0.102 6.98 6.05 14.44
3/8/2021 8:00:00 AM -0.03 31.946 0.102 7 6.17 14.5
3/8/2021 8:15:00 AM -0.01 31.982 0.102 7.02 6.18 14.55
3/8/2021 8:30:00 AM 0.01 32.018 0.102 7.04 6.01 14.61
3/8/2021 8:45:00 AM 0.03 32.054 0.102 7.04 6.11 14.65
3/8/2021 9:00:00 AM 0.07 32.126 0.102 7.06 5.92 14.69
3/8/2021 9:15:00 AM 0.11 32.198 0.102 7.08 5.97 14.72
3/8/2021 9:30:00 AM 0.19 32.342 0.102 7.1 6.11 14.74
3/8/2021 9:45:00 AM 0.29 32.522 0.102 7.12 6.06 14.75
3/8/2021 10:00:00 AM 0.39 32.702 0.102 7.14 5.87 14.76
3/8/2021 10:15:00 AM 0.51 32.918 0.102 7.16 5.95 14.75
3/8/2021 10:30:00 AM 0.64 33.152 0.102 7.18 5.94 14.75
3/8/2021 10:45:00 AM 0.78 33.404 0.102 7.19 6.01 14.74
3/8/2021 11:00:00 AM 0.95 33.71 0.102 7.2 6.16 14.74
3/8/2021 11:15:00 AM 1.12 34.016 0.102 7.21 5.96 14.73
3/8/2021 11:30:00 AM 1.29 34.322 0.102 7.22 6 14.7
3/8/2021 11:45:00 AM 1.47 34.646 0.101 7.22 5.95 14.65
3/8/2021 12:00:00 PM 1.65 34.97 0.101 7.23 6.13 14.6
3/8/2021 12:15:00 PM 1.82 35.276 0.101 7.24 6 14.56
3/8/2021 12:30:00 PM 1.98 35.564 0.101 7.24 6.05 14.53
3/8/2021 12:45:00 PM 2.13 35.834 0.101 7.25 5.99 14.49
3/8/2021 1:00:00 PM 2.29 36.122 0.101 7.26 6.06 14.45
3/8/2021 1:15:00 PM 2.48 36.464 0.1 7.27 5.99 14.39
3/8/2021 1:30:00 PM 2.52 36.536 0.1 7.24 5.96 14.33
3/8/2021 1:45:00 PM 2.58 36.644 0.1 7.26 5.97 14.29
3/8/2021 2:00:00 PM 2.65 36.77 0.1 7.26 5.96 14.25
3/8/2021 2:15:00 PM 2.74 36.932 0.1 7.27 5.94 14.21
3/8/2021 2:30:00 PM 2.87 37.166 0.099 7.29 6.04 14.17
3/8/2021 2:45:00 PM 3.04 37.472 0.099 7.3 6.05 14.12
3/8/2021 3:00:00 PM 3.09 37.562 0.099 7.29 6.19 14.07
3/8/2021 3:15:00 PM 3.12 37.616 0.099 7.29 6.1 14.02
3/8/2021 3:30:00 PM 3.14 37.652 0.099 7.29 6.01 13.98
3/8/2021 3:45:00 PM 3.18 37.724 0.099 7.29 6.05 13.95
3/8/2021 4:00:00 PM 3.23 37.814 0.099 7.29 6.08 13.91
3/8/2021 4:15:00 PM 3.26 37.868 0.099 7.29 6.06 13.87
3/8/2021 4:30:00 PM 3.29 37.922 0.099 7.29 5.99 13.84
3/8/2021 4:45:00 PM 3.31 37.958 0.099 7.28 6.03 13.8
3/8/2021 5:00:00 PM 3.31 37.958 0.099 7.27 6.09 13.76
3/8/2021 5:15:00 PM 3.32 37.976 0.099 7.26 6.05 13.72
3/8/2021 5:30:00 PM 3.32 37.976 0.099 7.24 6.2 13.67
3/8/2021 5:45:00 PM 3.3 37.94 0.099 7.21 5.93 13.61
3/8/2021 6:00:00 PM 3.27 37.886 0.099 7.2 5.92 13.53
3/8/2021 6:15:00 PM 3.24 37.832 0.099 7.17 5.88 13.46
3/8/2021 6:30:00 PM 3.21 37.778 0.099 7.15 6.24 13.4
3/8/2021 6:45:00 PM 3.16 37.688 0.1 7.13 6.11 13.35
3/8/2021 7:00:00 PM 3.11 37.598 0.1 7.11 6.22 13.31
3/8/2021 7:15:00 PM 3.06 37.508 0.1 7.08 6.2 13.28
3/8/2021 7:30:00 PM 2.99 37.382 0.1 7.07 6.22 13.26
3/8/2021 7:45:00 PM 2.93 37.274 0.1 7.06 6.41 13.24
3/8/2021 8:00:00 PM 2.86 37.148 0.1 7.05 6.19 13.23
3/8/2021 8:15:00 PM 2.8 37.04 0.1 7.03 6.29 13.23
3/8/2021 8:30:00 PM 2.74 36.932 0.1 7.01 6.28 13.23
3/8/2021 8:45:00 PM 2.68 36.824 0.101 7 6.33 13.23
3/8/2021 9:00:00 PM 2.62 36.716 0.101 7 6.36 13.23
3/8/2021 9:15:00 PM 2.56 36.608 0.101 7 6.34 13.24
3/8/2021 9:30:00 PM 2.51 36.518 0.101 7 6.19 13.24
3/8/2021 9:45:00 PM 2.46 36.428 0.101 6.99 6.34 13.25
3/8/2021 10:00:00 PM 2.41 36.338 0.101 6.98 6.3 13.26
3/8/2021 10:15:00 PM 2.38 36.284 0.101 6.98 6.21 13.26
3/8/2021 10:30:00 PM 2.35 36.23 0.101 6.98 6.34 13.26
3/8/2021 10:45:00 PM 2.33 36.194 0.101 6.98 6.32 13.27
3/8/2021 11:00:00 PM 2.3 36.14 0.101 6.98 6.15 13.27
3/8/2021 11:15:00 PM 2.28 36.104 0.101 6.97 6.4 13.27
3/8/2021 11:30:00 PM 2.25 36.05 0.101 6.97 6.31 13.28
3/8/2021 11:45:00 PM 2.23 36.014 0.101 6.96 6.19 13.28
3/9/2021 12:00:00 AM 2.21 35.978 0.101 6.97 6.16 13.28
3/9/2021 12:15:00 AM 2.19 35.942 0.101 6.97 6.21 13.28
3/9/2021 12:30:00 AM 2.17 35.906 0.101 6.98 6.16 13.29
3/9/2021 12:45:00 AM 2.15 35.87 0.101 6.97 6.18 13.29
3/9/2021 1:00:00 AM 2.14 35.852 0.101 6.97 6.19 13.3
3/9/2021 1:15:00 AM 2.13 35.834 0.101 6.97 6.27 13.3
3/9/2021 1:30:00 AM 2.11 35.798 0.101 6.97 6.12 13.3
3/9/2021 1:45:00 AM 2.1 35.78 0.101 6.97 6.15 13.31
3/9/2021 2:00:00 AM 2.09 35.762 0.101 6.98 6.07 13.31
3/9/2021 2:15:00 AM 2.07 35.726 0.101 6.97 6.07 13.31
3/9/2021 2:30:00 AM 2.05 35.69 0.101 6.97 6.11 13.32
3/9/2021 2:45:00 AM 2.03 35.654 0.101 6.97 6.06 13.32
3/9/2021 3:00:00 AM 2 35.6 0.101 6.97 6.12 13.33
3/9/2021 3:15:00 AM 1.97 35.546 0.101 6.97 6.06 13.34
3/9/2021 3:30:00 AM 1.94 35.492 0.101 6.97 6.2 13.35
3/9/2021 3:45:00 AM 1.91 35.438 0.102 6.96 6.2 13.35
3/9/2021 4:00:00 AM 1.87 35.366 0.102 6.97 6.21 13.37
3/9/2021 4:15:00 AM 1.84 35.312 0.102 6.96 6.12 13.38
3/9/2021 4:30:00 AM 1.81 35.258 0.102 6.96 6.28 13.39
3/9/2021 4:45:00 AM 1.77 35.186 0.102 6.96 6.18 13.41
3/9/2021 5:00:00 AM 1.74 35.132 0.102 6.96 6.04 13.42
3/9/2021 5:15:00 AM 1.71 35.078 0.102 6.96 6.14 13.43
3/9/2021 5:30:00 AM 1.67 35.006 0.102 6.95 6.14 13.44
3/9/2021 5:45:00 AM 1.64 34.952 0.102 6.96 6.18 13.46
3/9/2021 6:00:00 AM 1.61 34.898 0.102 6.97 6.17 13.47
3/9/2021 6:15:00 AM 1.58 34.844 0.102 6.96 6.18 13.48
3/9/2021 6:30:00 AM 1.54 34.772 0.102 6.95 6.11 13.5
3/9/2021 6:45:00 AM 1.52 34.736 0.102 6.96 6.2 13.54
3/9/2021 7:00:00 AM 1.49 34.682 0.102 6.97 6.12 13.59
3/9/2021 7:15:00 AM 1.48 34.664 0.102 6.99 6.08 13.65
3/9/2021 7:30:00 AM 1.47 34.646 0.102 6.99 6.13 13.71
3/9/2021 7:45:00 AM 1.47 34.646 0.102 7 6.08 13.78
3/9/2021 8:00:00 AM 1.49 34.682 0.102 7.03 6.1 13.85
3/9/2021 8:15:00 AM 1.52 34.736 0.102 7.05 6.03 13.91
3/9/2021 8:30:00 AM 1.56 34.808 0.102 7.07 6.11 13.96
3/9/2021 8:45:00 AM 1.61 34.898 0.102 7.09 6.15 14.02
3/9/2021 9:00:00 AM 1.68 35.024 0.102 7.12 6.13 14.06
3/9/2021 9:15:00 AM 1.77 35.186 0.101 7.14 6 14.1
3/9/2021 9:30:00 AM 1.87 35.366 0.101 7.16 6 14.13
3/9/2021 9:45:00 AM 1.99 35.582 0.101 7.18 6.11 14.14
3/9/2021 10:00:00 AM 2.11 35.798 0.101 7.2 6.04 14.15
3/9/2021 10:15:00 AM 2.24 36.032 0.101 7.22 6.06 14.15
3/9/2021 10:30:00 AM 2.4 36.32 0.101 7.23 6.04 14.16
3/9/2021 10:45:00 AM 2.57 36.626 0.101 7.25 6 14.15
3/9/2021 11:00:00 AM 2.75 36.95 0.101 7.26 6.03 14.14
3/9/2021 11:15:00 AM 2.96 37.328 0.101 7.28 5.97 14.11
3/9/2021 11:30:00 AM 3.17 37.706 0.1 7.3 5.99 14.07
3/9/2021 11:45:00 AM 3.39 38.102 0.1 7.31 6.04 14.06
3/9/2021 12:00:00 PM 3.59 38.462 0.1 7.31 6.05 14.02
3/9/2021 12:15:00 PM 3.8 38.84 0.1 7.33 6.11 13.98
3/9/2021 12:30:00 PM 4.01 39.218 0.1 7.34 6.05 13.94
3/9/2021 12:45:00 PM 4.19 39.542 0.1 7.34 6.06 13.88
3/9/2021 1:00:00 PM 4.38 39.884 0.1 7.36 6.26 13.82
3/9/2021 1:15:00 PM 4.58 40.244 0.1 7.37 6.2 13.77
3/9/2021 1:30:00 PM 4.76 40.568 0.1 7.37 6.2 13.72
3/9/2021 1:45:00 PM 4.92 40.856 0.1 7.38 6.22 13.65
3/9/2021 2:00:00 PM 5.1 41.18 0.1 7.38 6.35 13.59
3/9/2021 2:15:00 PM 5.26 41.468 0.1 7.39 6.81 13.52
3/9/2021 2:30:00 PM 5.4 41.72 0.1 7.39 6.87 13.44
3/9/2021 2:45:00 PM 5.54 41.972 0.1 7.4 7.11 13.36
3/9/2021 3:00:00 PM 5.67 42.206 0.101 7.4 7.38 13.3
3/9/2021 3:15:00 PM 5.81 42.458 0.101 7.4 8.01 13.22
3/9/2021 3:30:00 PM 5.91 42.638 0.102 7.4 8.81 13.14
3/9/2021 3:45:00 PM 5.99 42.782 0.102 7.39 9.45 13.08
3/9/2021 4:00:00 PM 6.06 42.908 0.102 7.38 9.83 13.01
3/9/2021 4:15:00 PM 6.09 42.962 0.103 7.36 10.37 12.94
3/9/2021 4:30:00 PM 6.12 43.016 0.103 7.34 11.1 12.87
3/9/2021 4:45:00 PM 6.13 43.034 0.103 7.31 11.58 12.79
3/9/2021 5:00:00 PM 6.12 43.016 0.103 7.28 11.99 12.71
3/9/2021 5:15:00 PM 6.1 42.98 0.102 7.25 12.09 12.65
3/9/2021 5:30:00 PM 6.07 42.926 0.102 7.23 12.15 12.59
3/9/2021 5:45:00 PM 6.03 42.854 0.102 7.2 11.96 12.54
3/9/2021 6:00:00 PM 5.97 42.746 0.102 7.17 11.89 12.49
3/9/2021 6:15:00 PM 5.91 42.638 0.101 7.14 11.51 12.44
3/9/2021 6:30:00 PM 5.84 42.512 0.101 7.11 11.41 12.4
3/9/2021 6:45:00 PM 5.77 42.386 0.101 7.09 10.96 12.36
3/9/2021 7:00:00 PM 5.69 42.242 0.101 7.07 10.51 12.34
3/9/2021 7:15:00 PM 5.61 42.098 0.1 7.04 10.53 12.32
3/9/2021 7:30:00 PM 5.53 41.954 0.1 7.02 10.12 12.31
3/9/2021 7:45:00 PM 5.43 41.774 0.1 7 10.44 12.3
3/9/2021 8:00:00 PM 5.34 41.612 0.1 6.99 10.08 12.3
3/9/2021 8:15:00 PM 5.24 41.432 0.099 6.98 10.3 12.32
3/9/2021 8:30:00 PM 5.14 41.252 0.099 6.98 10.04 12.34
3/9/2021 8:45:00 PM 5.03 41.054 0.099 6.96 10.4 12.36
3/9/2021 9:00:00 PM 4.93 40.874 0.099 6.95 10.04 12.37
3/9/2021 9:15:00 PM 4.83 40.694 0.099 6.94 10.18 12.39
3/9/2021 9:30:00 PM 4.73 40.514 0.099 6.94 9.76 12.41
3/9/2021 9:45:00 PM 4.63 40.334 0.098 6.93 9.87 12.44
3/9/2021 10:00:00 PM 4.54 40.172 0.098 6.93 9.78 12.46
3/9/2021 10:15:00 PM 4.45 40.01 0.098 6.93 9.54 12.49
3/9/2021 10:30:00 PM 4.37 39.866 0.098 6.93 9.43 12.52
3/9/2021 10:45:00 PM 4.29 39.722 0.098 6.93 9.55 12.54
3/9/2021 11:00:00 PM 4.21 39.578 0.098 6.93 9.43 12.56
3/9/2021 11:15:00 PM 4.14 39.452 0.099 6.93 9.04 12.58
3/9/2021 11:30:00 PM 4.08 39.344 0.099 6.92 9.14 12.61
3/9/2021 11:45:00 PM 4 39.2 0.099 6.93 8.96 12.65
3/10/2021 12:00:00 AM 3.94 39.092 0.099 6.93 8.86 12.67
3/10/2021 12:15:00 AM 3.87 38.966 0.099 6.92 8.76 12.7
3/10/2021 12:30:00 AM 3.8 38.84 0.099 6.93 8.68 12.73
3/10/2021 12:45:00 AM 3.74 38.732 0.1 6.93 8.84 12.75
3/10/2021 1:00:00 AM 3.67 38.606 0.1 6.92 8.71 12.77
3/10/2021 1:15:00 AM 3.61 38.498 0.1 6.93 8.72 12.78
3/10/2021 1:30:00 AM 3.55 38.39 0.1 6.93 8.81 12.8
3/10/2021 1:45:00 AM 3.48 38.264 0.1 6.93 8.98 12.83
3/10/2021 2:00:00 AM 3.42 38.156 0.1 6.93 9.18 12.85
3/10/2021 2:15:00 AM 3.36 38.048 0.1 6.92 9.31 12.87
3/10/2021 2:30:00 AM 3.3 37.94 0.1 6.93 9.38 12.9
3/10/2021 2:45:00 AM 3.23 37.814 0.1 6.94 9.42 12.92
3/10/2021 3:00:00 AM 3.18 37.724 0.1 6.93 9.26 12.94
3/10/2021 3:15:00 AM 3.12 37.616 0.1 6.94 9.2 12.96
3/10/2021 3:30:00 AM 3.06 37.508 0.1 6.93 9.06 12.98
3/10/2021 3:45:00 AM 3.01 37.418 0.1 6.94 8.96 13
3/10/2021 4:00:00 AM 2.95 37.31 0.1 6.93 8.93 13.02
3/10/2021 4:15:00 AM 2.89 37.202 0.1 6.94 8.62 13.05
3/10/2021 4:30:00 AM 2.84 37.112 0.1 6.93 8.55 13.07
3/10/2021 4:45:00 AM 2.79 37.022 0.1 6.93 8.47 13.09
3/10/2021 5:00:00 AM 2.74 36.932 0.1 6.93 8.45 13.12
3/10/2021 5:15:00 AM 2.69 36.842 0.1 6.94 8.29 13.14
3/10/2021 5:30:00 AM 2.64 36.752 0.1 6.93 8.23 13.16
3/10/2021 5:45:00 AM 2.59 36.662 0.1 6.93 8.17 13.19
3/10/2021 6:00:00 AM 2.55 36.59 0.1 6.93 8.06 13.2
3/10/2021 6:15:00 AM 2.51 36.518 0.1 6.94 7.91 13.22
3/10/2021 6:30:00 AM 2.46 36.428 0.1 6.93 7.83 13.24
3/10/2021 6:45:00 AM 2.42 36.356 0.1 6.94 7.71 13.28
3/10/2021 7:00:00 AM 2.39 36.302 0.1 6.95 7.61 13.32
3/10/2021 7:15:00 AM 2.36 36.248 0.099 6.95 7.49 13.37
3/10/2021 7:30:00 AM 2.34 36.212 0.099 6.96 7.58 13.43
3/10/2021 7:45:00 AM 2.34 36.212 0.099 6.99 7.37 13.5
3/10/2021 8:00:00 AM 2.34 36.212 0.099 7 7.38 13.57
3/10/2021 8:15:00 AM 2.36 36.248 0.099 7.02 7.44 13.63
3/10/2021 8:30:00 AM 2.39 36.302 0.099 7.03 7.25 13.69
3/10/2021 8:45:00 AM 2.44 36.392 0.099 7.06 7.23 13.74
3/10/2021 9:00:00 AM 2.51 36.518 0.099 7.09 7.24 13.78
3/10/2021 9:15:00 AM 2.59 36.662 0.099 7.11 7.08 13.82
3/10/2021 9:30:00 AM 2.68 36.824 0.099 7.12 7.11 13.85
3/10/2021 9:45:00 AM 2.8 37.04 0.099 7.14 6.98 13.87
3/10/2021 10:00:00 AM 2.92 37.256 0.099 7.17 6.93 13.87
3/10/2021 10:15:00 AM 3.06 37.508 0.099 7.17 6.87 13.87
3/10/2021 10:30:00 AM 3.21 37.778 0.099 7.19 7 13.86
3/10/2021 10:45:00 AM 3.38 38.084 0.098 7.21 6.88 13.86
3/10/2021 11:00:00 AM 3.56 38.408 0.098 7.24 6.85 13.88
3/10/2021 11:15:00 AM 3.76 38.768 0.098 7.25 6.9 13.85
3/10/2021 11:30:00 AM 3.97 39.146 0.098 7.27 6.84 13.82
3/10/2021 11:45:00 AM 4.19 39.542 0.098 7.28 6.86 13.79
3/10/2021 12:00:00 PM 4.41 39.938 0.098 7.29 6.93 13.73
3/10/2021 12:15:00 PM 4.63 40.334 0.098 7.31 6.89 13.68
3/10/2021 12:30:00 PM 4.85 40.73 0.098 7.31 7.02 13.64
3/10/2021 12:45:00 PM 5.08 41.144 0.098 7.33 6.89 13.57
3/10/2021 1:00:00 PM 5.3 41.54 0.097 7.34 6.96 13.51
3/10/2021 1:15:00 PM 5.5 41.9 0.097 7.34 7.08 13.44
3/10/2021 1:30:00 PM 5.7 42.26 0.097 7.35 7.07 13.37
3/10/2021 1:45:00 PM 5.88 42.584 0.098 7.36 7.3 13.3
3/10/2021 2:00:00 PM 6.06 42.908 0.098 7.35 7.33 13.23
3/10/2021 2:15:00 PM 6.22 43.196 0.098 7.36 7.35 13.16
3/10/2021 2:30:00 PM 6.38 43.484 0.098 7.37 7.64 13.08
3/10/2021 2:45:00 PM 6.51 43.718 0.098 7.36 7.84 13.01
3/10/2021 3:00:00 PM 6.65 43.97 0.098 7.36 7.94 12.93
3/10/2021 3:15:00 PM 6.78 44.204 0.098 7.36 8.08 12.85
3/10/2021 3:30:00 PM 6.87 44.366 0.098 7.34 8.53 12.78
3/10/2021 3:45:00 PM 6.96 44.528 0.098 7.35 8.91 12.71
3/10/2021 4:00:00 PM 7.01 44.618 0.098 7.34 9.37 12.65
3/10/2021 4:15:00 PM 7.04 44.672 0.098 7.31 9.68 12.59
3/10/2021 4:30:00 PM 7.06 44.708 0.098 7.29 10.3 12.53
3/10/2021 4:45:00 PM 7.06 44.708 0.098 7.27 11.05 12.47
3/10/2021 5:00:00 PM 7.06 44.708 0.098 7.24 11.8 12.43
3/10/2021 5:15:00 PM 7.04 44.672 0.097 7.22 12.09 12.38
3/10/2021 5:30:00 PM 7.01 44.618 0.097 7.19 12.38 12.33
3/10/2021 5:45:00 PM 6.96 44.528 0.097 7.17 12.45 12.28
3/10/2021 6:00:00 PM 6.9 44.42 0.097 7.13 12.37 12.23
3/10/2021 6:15:00 PM 6.83 44.294 0.097 7.1 12.71 12.17
3/10/2021 6:30:00 PM 6.75 44.15 0.096 7.06 12.67 12.13
3/10/2021 6:45:00 PM 6.66 43.988 0.096 7.03 12.85 12.09
3/10/2021 7:00:00 PM 6.58 43.844 0.096 7 12.64 12.08
3/10/2021 7:15:00 PM 6.49 43.682 0.096 6.98 12.63 12.06
3/10/2021 7:30:00 PM 6.4 43.52 0.095 6.96 13.31 12.05
3/10/2021 7:45:00 PM 6.31 43.358 0.095 6.95 12.34 12.05
3/10/2021 8:00:00 PM 6.23 43.214 0.095 6.92 12.57 12.04
3/10/2021 8:15:00 PM 6.14 43.052 0.095 6.91 12.37 12.04
3/10/2021 8:30:00 PM 6.06 42.908 0.095 6.89 12.8 12.04
3/10/2021 8:45:00 PM 5.98 42.764 0.095 6.89 12.45 12.05
3/10/2021 9:00:00 PM 5.9 42.62 0.095 6.89 12.15 12.06
3/10/2021 9:15:00 PM 5.82 42.476 0.095 6.88 11.5 12.07
3/10/2021 9:30:00 PM 5.74 42.332 0.095 6.89 11.47 12.09
3/10/2021 9:45:00 PM 5.66 42.188 0.095 6.87 11.03 12.1
3/10/2021 10:00:00 PM 5.58 42.044 0.095 6.88 13.92 12.13
3/10/2021 10:15:00 PM 5.51 41.918 0.095 6.88 11.27 12.14
3/10/2021 10:30:00 PM 5.43 41.774 0.095 6.88 11.05 12.17
3/10/2021 10:45:00 PM 5.36 41.648 0.095 6.89 10.95 12.19
3/10/2021 11:00:00 PM 5.29 41.522 0.095 6.89 10.88 12.22
3/10/2021 11:15:00 PM 5.22 41.396 0.095 6.87 10.84 12.25
3/10/2021 11:30:00 PM 5.15 41.27 0.095 6.87 10.36 12.27
3/10/2021 11:45:00 PM 5.09 41.162 0.095 6.87 10.41 12.29
3/11/2021 12:00:00 AM 5.02 41.036 0.095 6.89 10.89 12.31
3/11/2021 12:15:00 AM 4.96 40.928 0.094 6.89 10.89 12.33
3/11/2021 12:30:00 AM 4.91 40.838 0.094 6.89 10.94 12.35
3/11/2021 12:45:00 AM 4.85 40.73 0.094 6.89 11.27 12.37
3/11/2021 1:00:00 AM 4.8 40.64 0.094 6.89 10.74 12.39
3/11/2021 1:15:00 AM 4.74 40.532 0.094 6.89 10.34 12.41
3/11/2021 1:30:00 AM 4.68 40.424 0.094 6.89 10.58 12.43
3/11/2021 1:45:00 AM 4.62 40.316 0.093 6.9 10.68 12.45
3/11/2021 2:00:00 AM 4.56 40.208 0.093 6.89 10.14 12.46
3/11/2021 2:15:00 AM 4.51 40.118 0.093 6.89 9.87 12.48
3/11/2021 2:30:00 AM 4.46 40.028 0.093 6.89 9.63 12.49
3/11/2021 2:45:00 AM 4.41 39.938 0.093 6.88 9.35 12.51
3/11/2021 3:00:00 AM 4.37 39.866 0.093 6.88 9.46 12.52
3/11/2021 3:15:00 AM 4.33 39.794 0.093 6.89 9.28 12.53
3/11/2021 3:30:00 AM 4.3 39.74 0.093 6.88 8.56 12.55
3/11/2021 3:45:00 AM 4.26 39.668 0.093 6.89 8.59 12.56
3/11/2021 4:00:00 AM 4.24 39.632 0.093 6.9 8.51 12.57
3/11/2021 4:15:00 AM 4.21 39.578 0.093 6.89 8.33 12.58
3/11/2021 4:30:00 AM 4.19 39.542 0.093 6.89 8.26 12.6
3/11/2021 4:45:00 AM 4.16 39.488 0.093 6.89 8.41 12.61
3/11/2021 5:00:00 AM 4.14 39.452 0.093 6.9 7.85 12.61
3/11/2021 5:15:00 AM 4.13 39.434 0.093 6.9 8.06 12.62
3/11/2021 5:30:00 AM 4.11 39.398 0.092 6.9 7.92 12.63
3/11/2021 5:45:00 AM 4.09 39.362 0.093 6.9 8.01 12.64
3/11/2021 6:00:00 AM 4.07 39.326 0.092 6.89 7.88 12.65
3/11/2021 6:15:00 AM 4.05 39.29 0.092 6.89 8.03 12.65
3/11/2021 6:30:00 AM 4.03 39.254 0.092 6.88 7.56 12.66
3/11/2021 6:45:00 AM 4.03 39.254 0.092 6.89 7.51 12.67
3/11/2021 7:00:00 AM 4.02 39.236 0.092 6.89 8.06 12.7
3/11/2021 7:15:00 AM 4.03 39.254 0.092 6.9 7.5 12.75
3/11/2021 7:30:00 AM 4.04 39.272 0.092 6.92 7.46 12.8
3/11/2021 7:45:00 AM 4.07 39.326 0.092 6.94 7.54 12.85
3/11/2021 8:00:00 AM 4.09 39.362 0.092 6.95 6.89 12.9
3/11/2021 8:15:00 AM 4.12 39.416 0.092 6.97 6.82 12.95
3/11/2021 8:30:00 AM 4.18 39.524 0.092 7.01 6.82 13
3/11/2021 8:45:00 AM 4.23 39.614 0.092 7.02 6.6 13.04
3/11/2021 9:00:00 AM 4.3 39.74 0.092 7.04 7.25 13.08
3/11/2021 9:15:00 AM 4.39 39.902 0.092 7.07 6.86 13.11
3/11/2021 9:30:00 AM 4.49 40.082 0.091 7.08 6.94 13.12
3/11/2021 9:45:00 AM 4.61 40.298 0.091 7.1 7.05 13.13
3/11/2021 10:00:00 AM 4.74 40.532 0.091 7.13 7.08 13.15
3/11/2021 10:15:00 AM 4.88 40.784 0.091 7.15 6.73 13.16
3/11/2021 10:30:00 AM 5.03 41.054 0.091 7.17 6.78 13.15
3/11/2021 10:45:00 AM 5.2 41.36 0.091 7.19 6.98 13.13
3/11/2021 11:00:00 AM 5.37 41.666 0.091 7.21 6.37 13.12
3/11/2021 11:15:00 AM 5.57 42.026 0.091 7.22 6.88 13.09
3/11/2021 11:30:00 AM 5.77 42.386 0.09 7.24 6.61 13.06
3/11/2021 11:45:00 AM 6 42.8 0.09 7.26 6.87 13.03
3/11/2021 12:00:00 PM 6.17 43.106 0.09 7.25 6.72 12.98
3/11/2021 12:15:00 PM 6.3 43.34 0.09 7.26 7.24 12.92
3/11/2021 12:30:00 PM 6.44 43.592 0.09 7.27 7.15 12.89
3/11/2021 12:45:00 PM 6.62 43.916 0.09 7.29 7.51 12.83
3/11/2021 1:00:00 PM 6.75 44.15 0.09 7.29 7.52 12.78
3/11/2021 1:15:00 PM 6.84 44.312 0.09 7.28 8.02 12.72
3/11/2021 1:30:00 PM 7.01 44.618 0.09 7.3 7.9 12.67
3/11/2021 1:45:00 PM 7.14 44.852 0.09 7.31 7.87 12.62
3/11/2021 2:00:00 PM 7.21 44.978 0.09 7.29 7.95 12.54
3/11/2021 2:15:00 PM 7.27 45.086 0.09 7.27 8.78 12.45
3/11/2021 2:30:00 PM 7.33 45.194 0.089 7.26 8.49 12.4
3/11/2021 2:45:00 PM 7.38 45.284 0.089 7.25 8.46 12.37
3/11/2021 3:00:00 PM 7.47 45.446 0.089 7.26 8.61 12.36
3/11/2021 3:15:00 PM 7.49 45.482 0.089 7.25 9.15 12.32
3/11/2021 3:30:00 PM 7.52 45.536 0.089 7.23 9.22 12.28
3/11/2021 3:45:00 PM 7.59 45.662 0.088 7.24 9.82 12.24
3/11/2021 4:00:00 PM 7.58 45.644 0.088 7.2 11.28 12.19
3/11/2021 4:15:00 PM 7.55 45.59 0.088 7.16 11.43 12.12
3/11/2021 4:30:00 PM 7.51 45.518 0.088 7.12 11.97 12.05
3/11/2021 4:45:00 PM 7.49 45.482 0.087 7.1 12.08 12
3/11/2021 5:00:00 PM 7.46 45.428 0.087 7.07 11.99 11.95
3/11/2021 5:15:00 PM 7.45 45.41 0.087 7.05 12.54 11.9
3/11/2021 5:30:00 PM 7.44 45.392 0.085 7.02 16.22 11.85
3/11/2021 5:45:00 PM 7.42 45.356 0.087 7 13.21 11.81
3/11/2021 6:00:00 PM 7.4 45.32 0.087 6.98 14.15 11.77
3/11/2021 6:15:00 PM 7.37 45.266 0.087 6.95 14.09 11.73
3/11/2021 6:30:00 PM 7.34 45.212 0.087 6.94 13.92 11.7
3/11/2021 6:45:00 PM 7.3 45.14 0.087 6.91 14.44 11.68
3/11/2021 7:00:00 PM 7.26 45.068 0.086 6.89 15.87 11.67
3/11/2021 7:15:00 PM 7.21 44.978 0.086 6.88 15.7 11.66
3/11/2021 7:30:00 PM 7.15 44.87 0.086 6.86 15.94 11.66
3/11/2021 7:45:00 PM 7.09 44.762 0.086 6.85 16.44 11.67
3/11/2021 8:00:00 PM 7.04 44.672 0.086 6.84 16.56 11.67
3/11/2021 8:15:00 PM 6.99 44.582 0.086 6.84 16.48 11.68
3/11/2021 8:30:00 PM 6.92 44.456 0.086 6.83 16.56 11.69
3/11/2021 8:45:00 PM 6.86 44.348 0.086 6.82 17.15 11.71
3/11/2021 9:00:00 PM 6.79 44.222 0.086 6.82 18 11.72
3/11/2021 9:15:00 PM 6.71 44.078 0.086 6.81 17.24 11.75
3/11/2021 9:30:00 PM 6.64 43.952 0.084 6.82 16.32 11.77
3/11/2021 9:45:00 PM 6.56 43.808 0.085 6.81 17.43 11.79
3/11/2021 10:00:00 PM 6.49 43.682 0.085 6.79 14.74 11.82
3/11/2021 10:15:00 PM 6.42 43.556 0.085 6.79 17.24 11.84
3/11/2021 10:30:00 PM 6.35 43.43 0.085 6.79 16.89 11.86
3/11/2021 10:45:00 PM 6.28 43.304 0.085 6.79 17.72 11.88
3/11/2021 11:00:00 PM 6.22 43.196 0.085 6.79 16.86 11.9
3/11/2021 11:15:00 PM 6.16 43.088 0.085 6.79 16.56 11.93
3/11/2021 11:30:00 PM 6.1 42.98 0.085 6.8 16.45 11.95
3/11/2021 11:45:00 PM 6.05 42.89 0.084 6.79 16.47 11.96
3/12/2021 12:00:00 AM 6 42.8 0.084 6.78 16.69 11.97
3/12/2021 12:15:00 AM 5.95 42.71 0.084 6.78 15.98 11.99
3/12/2021 12:30:00 AM 5.91 42.638 0.084 6.78 16.89 12
3/12/2021 12:45:00 AM 5.88 42.584 0.084 6.79 15.93 12.01
3/12/2021 1:00:00 AM 5.85 42.53 0.084 6.8 15.85 12.02
3/12/2021 1:15:00 AM 5.83 42.494 0.084 6.8 15.68 12.03
3/12/2021 1:30:00 AM 5.81 42.458 0.084 6.8 16.56 12.04
3/12/2021 1:45:00 AM 5.79 42.422 0.084 6.8 15.87 12.05
3/12/2021 2:00:00 AM 5.77 42.386 0.084 6.8 15.26 12.05
3/12/2021 2:15:00 AM 5.76 42.368 0.084 6.79 15.01 12.05
3/12/2021 2:30:00 AM 5.75 42.35 0.084 6.8 14.63 12.06
3/12/2021 2:45:00 AM 5.74 42.332 0.083 6.81 14.63 12.06
3/12/2021 3:00:00 AM 5.74 42.332 0.083 6.81 15 12.06
3/12/2021 3:15:00 AM 5.73 42.314 0.083 6.8 15.06 12.07
3/12/2021 3:30:00 AM 5.73 42.314 0.083 6.8 15.79 12.07
3/12/2021 3:45:00 AM 5.72 42.296 0.083 6.79 14.5 12.06
3/12/2021 4:00:00 AM 5.72 42.296 0.083 6.8 14.35 12.07
3/12/2021 4:15:00 AM 5.72 42.296 0.083 6.8 13.64 12.06
3/12/2021 4:30:00 AM 5.73 42.314 0.083 6.81 13.76 12.07
3/12/2021 4:45:00 AM 5.74 42.332 0.083 6.82 13.86 12.06
3/12/2021 5:00:00 AM 5.75 42.35 0.083 6.8 13.96 12.06
3/12/2021 5:15:00 AM 5.77 42.386 0.082 6.8 13.65 12.06
3/12/2021 5:30:00 AM 5.78 42.404 0.082 6.82 13.41 12.06
3/12/2021 5:45:00 AM 5.77 42.386 0.082 6.81 13.67 12.06
3/12/2021 6:00:00 AM 5.76 42.368 0.082 6.81 13.49 12.06
3/12/2021 6:15:00 AM 5.74 42.332 0.082 6.8 13.43 12.07
3/12/2021 6:30:00 AM 5.72 42.296 0.082 6.8 13.46 12.08
3/12/2021 6:45:00 AM 5.69 42.242 0.081 6.79 12.97 12.09
3/12/2021 7:00:00 AM 5.68 42.224 0.081 6.8 13.12 12.11
3/12/2021 7:15:00 AM 5.66 42.188 0.081 6.8 12.93 12.14
3/12/2021 7:30:00 AM 5.65 42.17 0.081 6.8 13.14 12.17
3/12/2021 7:45:00 AM 5.65 42.17 0.081 6.82 12.69 12.2
3/12/2021 8:00:00 AM 5.66 42.188 0.081 6.83 12.46 12.24
3/12/2021 8:15:00 AM 5.67 42.206 0.081 6.84 12.53 12.28
3/12/2021 8:30:00 AM 5.69 42.242 0.08 6.86 12.12 12.31
3/12/2021 8:45:00 AM 5.71 42.278 0.08 6.87 11.69 12.35
3/12/2021 9:00:00 AM 5.74 42.332 0.08 6.89 11.83 12.39
3/12/2021 9:15:00 AM 5.78 42.404 0.08 6.91 11.5 12.42
3/12/2021 9:30:00 AM 5.83 42.494 0.08 6.93 11.49 12.46
3/12/2021 9:45:00 AM 5.9 42.62 0.08 6.94 11.63 12.49
3/12/2021 10:00:00 AM 5.99 42.782 0.08 6.97 11.18 12.52
3/12/2021 10:15:00 AM 6.09 42.962 0.079 6.99 10.84 12.55
3/12/2021 10:30:00 AM 6.2 43.16 0.079 7.02 10.57 12.56
3/12/2021 10:45:00 AM 6.33 43.394 0.079 7.04 10.13 12.57
3/12/2021 11:00:00 AM 6.46 43.628 0.079 7.05 10.4 12.57
3/12/2021 11:15:00 AM 6.6 43.88 0.079 7.07 10.22 12.57
3/12/2021 11:30:00 AM 6.75 44.15 0.079 7.09 10.09 12.55
3/12/2021 11:45:00 AM 6.9 44.42 0.079 7.11 9.81 12.53
3/12/2021 12:00:00 PM 7.06 44.708 0.079 7.13 9.98 12.5
3/12/2021 12:15:00 PM 7.21 44.978 0.078 7.14 9.81 12.48
3/12/2021 12:30:00 PM 7.37 45.266 0.078 7.14 9.91 12.45
3/12/2021 12:45:00 PM 7.52 45.536 0.078 7.15 9.7 12.42
3/12/2021 1:00:00 PM 7.66 45.788 0.078 7.15 9.91 12.38
3/12/2021 1:15:00 PM 7.79 46.022 0.078 7.16 9.97 12.34
3/12/2021 1:30:00 PM 7.93 46.274 0.078 7.16 9.86 12.3
3/12/2021 1:45:00 PM 8.06 46.508 0.078 7.17 9.89 12.25
3/12/2021 2:00:00 PM 8.18 46.724 0.078 7.17 10.01 12.2
3/12/2021 2:15:00 PM 8.28 46.904 0.078 7.17 9.5 12.16
3/12/2021 2:30:00 PM 8.37 47.066 0.078 7.18 9.53 12.11
3/12/2021 2:45:00 PM 8.45 47.21 0.078 7.18 9.3 12.07
3/12/2021 3:00:00 PM 8.52 47.336 0.078 7.15 9.7 12.03
3/12/2021 3:15:00 PM 8.58 47.444 0.078 7.17 13330.88 11.99
3/12/2021 3:30:00 PM 8.61 47.498 0.078 7.15 10.25 11.96
3/12/2021 3:45:00 PM 8.62 47.516 0.078 7.15 9.52 11.92
3/12/2021 4:00:00 PM 8.62 47.516 0.078 7.12 11.73 11.88
3/12/2021 4:15:00 PM 8.59 47.462 0.078 7.1 12.87 11.83
3/12/2021 4:30:00 PM 8.56 47.408 0.078 7.07 11.71 11.8
3/12/2021 4:45:00 PM 8.52 47.336 0.078 7.05 10.79 11.77
3/12/2021 5:00:00 PM 8.46 47.228 0.078 7.03 10.68 11.74
3/12/2021 5:15:00 PM 8.39 47.102 0.078 7 10.6 11.7
3/12/2021 5:30:00 PM 8.31 46.958 0.078 6.97 10.31 11.67
3/12/2021 5:45:00 PM 8.22 46.796 0.078 6.94 10.63 11.64
3/12/2021 6:00:00 PM 8.14 46.652 0.078 6.92 10.9 11.61
3/12/2021 6:15:00 PM 8.04 46.472 0.078 6.89 10.82 11.58
3/12/2021 6:30:00 PM 7.94 46.292 0.078 6.86 10.7 11.56
3/12/2021 6:45:00 PM 7.84 46.112 0.078 6.85 10.77 11.54
3/12/2021 7:00:00 PM 7.74 45.932 0.078 6.83 10.97 11.54
3/12/2021 7:15:00 PM 7.64 45.752 0.078 6.81 10.99 11.54
3/12/2021 7:30:00 PM 7.54 45.572 0.078 6.8 11.91 11.54
3/12/2021 7:45:00 PM 7.45 45.41 0.078 6.8 11.54 11.55
3/12/2021 8:00:00 PM 7.36 45.248 0.078 6.79 11.19 11.56
3/12/2021 8:15:00 PM 7.27 45.086 0.079 6.78 11.03 11.58
3/12/2021 8:30:00 PM 7.18 44.924 0.079 6.77 10.83 11.59
3/12/2021 8:45:00 PM 7.09 44.762 0.079 6.78 10.15 11.61
3/12/2021 9:00:00 PM 7 44.6 0.079 6.77 10.38 11.64
3/12/2021 9:15:00 PM 6.92 44.456 0.079 6.78 10.28 11.66
3/12/2021 9:30:00 PM 6.84 44.312 0.079 6.78 10.36 11.69
3/12/2021 9:45:00 PM 6.76 44.168 0.079 6.78 9.93 11.71
3/12/2021 10:00:00 PM 6.68 44.024 0.079 6.78 9.94 11.74
3/12/2021 10:15:00 PM 6.61 43.898 0.079 6.78 9.96 11.77
3/12/2021 10:30:00 PM 6.54 43.772 0.079 6.79 9.91 11.79
3/12/2021 10:45:00 PM 6.46 43.628 0.079 6.77 9.73 11.82
3/12/2021 11:00:00 PM 6.39 43.502 0.079 6.78 9.65 11.85
3/12/2021 11:15:00 PM 6.32 43.376 0.079 6.77 9.87 11.88
3/12/2021 11:30:00 PM 6.24 43.232 0.079 6.77 10 11.9
3/12/2021 11:45:00 PM 6.17 43.106 0.079 6.77 9.57 11.92
3/13/2021 12:00:00 AM 6.09 42.962 0.079 6.77 9.33 11.95
3/13/2021 12:15:00 AM 6.01 42.818 0.079 6.78 9.76 11.97
3/13/2021 12:30:00 AM 5.93 42.674 0.079 6.78 9.14 11.99
3/13/2021 12:45:00 AM 5.85 42.53 0.079 6.78 9.68 12.02
3/13/2021 1:00:00 AM 5.77 42.386 0.079 6.77 9.17 12.04
3/13/2021 1:15:00 AM 5.69 42.242 0.079 6.77 8.78 12.07
3/13/2021 1:30:00 AM 5.61 42.098 0.079 6.77 8.81 12.09
3/13/2021 1:45:00 AM 5.52 41.936 0.079 6.77 8.89 12.12
3/13/2021 2:00:00 AM 5.44 41.792 0.079 6.76 9.04 12.15
3/13/2021 2:15:00 AM 5.35 41.63 0.079 6.77 8.8 12.18
3/13/2021 2:30:00 AM 5.27 41.486 0.079 6.77 8.75 12.22
3/13/2021 2:45:00 AM 5.19 41.342 0.079 6.76 8.65 12.24
3/13/2021 3:00:00 AM 5.11 41.198 0.079 6.78 8.59 12.27
3/13/2021 3:15:00 AM 5.02 41.036 0.079 6.77 8.48 12.29
3/13/2021 3:30:00 AM 4.95 40.91 0.079 6.78 8.65 12.32
3/13/2021 3:45:00 AM 4.88 40.784 0.079 6.78 8.22 12.35
3/13/2021 4:00:00 AM 4.8 40.64 0.079 6.77 8.24 12.38
3/13/2021 4:15:00 AM 4.73 40.514 0.079 6.78 8.39 12.4
3/13/2021 4:30:00 AM 4.65 40.37 0.079 6.78 8.15 12.43
3/13/2021 4:45:00 AM 4.57 40.226 0.079 6.78 8.34 12.45
3/13/2021 5:00:00 AM 4.49 40.082 0.079 6.78 8.09 12.48
3/13/2021 5:15:00 AM 4.39 39.902 0.079 6.78 8.13 12.51
3/13/2021 5:30:00 AM 4.32 39.776 0.079 6.77 7.81 12.54
3/13/2021 5:45:00 AM 4.24 39.632 0.079 6.78 8.15 12.57
3/13/2021 6:00:00 AM 4.16 39.488 0.079 6.78 8.28 12.6
3/13/2021 6:15:00 AM 4.09 39.362 0.079 6.78 7.67 12.63
3/13/2021 6:30:00 AM 4.02 39.236 0.079 6.78 7.72 12.67
3/13/2021 6:45:00 AM 3.95 39.11 0.079 6.78 7.98 12.71
3/13/2021 7:00:00 AM 3.89 39.002 0.079 6.8 7.64 12.75
3/13/2021 7:15:00 AM 3.83 38.894 0.079 6.8 7.72 12.81
3/13/2021 7:30:00 AM 3.78 38.804 0.079 6.82 7.45 12.87
3/13/2021 7:45:00 AM 3.75 38.75 0.079 6.82 7.24 12.93
3/13/2021 8:00:00 AM 3.72 38.696 0.078 6.84 7.43 13
3/13/2021 8:15:00 AM 3.69 38.642 0.078 6.86 7.89 13.06
3/13/2021 8:30:00 AM 3.67 38.606 0.078 6.88 7.17 13.12
3/13/2021 8:45:00 AM 3.66 38.588 0.078 6.89 6.86 13.17
3/13/2021 9:00:00 AM 3.66 38.588 0.078 6.91 7 13.22
3/13/2021 9:15:00 AM 3.67 38.606 0.078 6.93 7.01 13.27
3/13/2021 9:30:00 AM 3.71 38.678 0.078 6.96 6.83 13.31
3/13/2021 9:45:00 AM 3.76 38.768 0.078 6.99 6.67 13.34
3/13/2021 10:00:00 AM 3.83 38.894 0.078 7.01 7.03 13.37
3/13/2021 10:15:00 AM 3.92 39.056 0.078 7.03 6.55 13.39
3/13/2021 10:30:00 AM 4.03 39.254 0.078 7.06 6.6 13.39
3/13/2021 10:45:00 AM 4.14 39.452 0.078 7.08 6.77 13.39
3/13/2021 11:00:00 AM 4.27 39.686 0.078 7.11 6.42 13.39
3/13/2021 11:15:00 AM 4.41 39.938 0.078 7.13 6.23 13.38
3/13/2021 11:30:00 AM 4.56 40.208 0.078 7.13 6.3 13.37
3/13/2021 11:45:00 AM 4.72 40.496 0.078 7.16 6.44 13.35
3/13/2021 12:00:00 PM 4.88 40.784 0.078 7.16 6.16 13.31
3/13/2021 12:15:00 PM 5.04 41.072 0.078 7.17 6.28 13.28
3/13/2021 12:30:00 PM 5.2 41.36 0.077 7.18 6.35 13.25
3/13/2021 12:45:00 PM 5.36 41.648 0.077 7.2 6.47 13.2
3/13/2021 1:00:00 PM 5.49 41.882 0.077 7.2 6.18 13.15
3/13/2021 1:15:00 PM 5.64 42.152 0.077 7.21 6.28 13.11
3/13/2021 1:30:00 PM 5.78 42.404 0.077 7.21 6 13.06
3/13/2021 1:45:00 PM 5.91 42.638 0.077 7.21 6.25 13.01
3/13/2021 2:00:00 PM 6.03 42.854 0.077 7.22 6.12 12.97
3/13/2021 2:15:00 PM 6.14 43.052 0.077 7.23 6.14 12.93
3/13/2021 2:30:00 PM 6.23 43.214 0.077 7.22 6.13 12.89
3/13/2021 2:45:00 PM 6.32 43.376 0.077 7.23 6 12.83
3/13/2021 3:00:00 PM 6.39 43.502 0.077 7.22 6.22 12.79
3/13/2021 3:15:00 PM 6.46 43.628 0.077 7.22 6.07 12.75
3/13/2021 3:30:00 PM 6.5 43.7 0.077 7.21 6.22 12.71
3/13/2021 3:45:00 PM 6.54 43.772 0.077 7.21 6.48 12.67
3/13/2021 4:00:00 PM 6.55 43.79 0.077 7.19 5.96 12.63
3/13/2021 4:15:00 PM 6.55 43.79 0.077 7.18 6.17 12.59
3/13/2021 4:30:00 PM 6.54 43.772 0.077 7.17 6.44 12.55
3/13/2021 4:45:00 PM 6.52 43.736 0.077 7.15 6.46 12.51
3/13/2021 5:00:00 PM 6.49 43.682 0.078 7.13 6.15 12.48
3/13/2021 5:15:00 PM 6.45 43.61 0.078 7.1 6.25 12.45
3/13/2021 5:30:00 PM 6.4 43.52 0.078 7.08 6.13 12.41
3/13/2021 5:45:00 PM 6.33 43.394 0.078 7.06 6.26 12.37
3/13/2021 6:00:00 PM 6.26 43.268 0.078 7.03 6.15 12.33
3/13/2021 6:15:00 PM 6.19 43.142 0.078 7.01 6.22 12.29
3/13/2021 6:30:00 PM 6.12 43.016 0.078 6.99 6.37 12.25
3/13/2021 6:45:00 PM 6.04 42.872 0.078 6.96 6.44 12.22
3/13/2021 7:00:00 PM 5.96 42.728 0.078 6.93 6.41 12.18
3/13/2021 7:15:00 PM 5.87 42.566 0.079 6.91 6.48 12.16
3/13/2021 7:30:00 PM 5.79 42.422 0.079 6.89 6.56 12.14
3/13/2021 7:45:00 PM 5.71 42.278 0.079 6.88 6.56 12.13
3/13/2021 8:00:00 PM 5.62 42.116 0.079 6.86 6.51 12.13
3/13/2021 8:15:00 PM 5.54 41.972 0.079 6.85 6.48 12.14
3/13/2021 8:30:00 PM 5.46 41.828 0.079 6.84 6.5 12.15
3/13/2021 8:45:00 PM 5.37 41.666 0.079 6.83 6.55 12.16
3/13/2021 9:00:00 PM 5.3 41.54 0.079 6.83 6.7 12.17
3/13/2021 9:15:00 PM 5.22 41.396 0.079 6.83 6.76 12.19
3/13/2021 9:30:00 PM 5.14 41.252 0.08 6.82 6.44 12.2
3/13/2021 9:45:00 PM 5.07 41.126 0.08 6.82 6.58 12.22
3/13/2021 10:00:00 PM 5 41 0.08 6.82 6.7 12.24
3/13/2021 10:15:00 PM 4.92 40.856 0.08 6.81 6.77 12.26
3/13/2021 10:30:00 PM 4.85 40.73 0.08 6.82 6.34 12.29
3/13/2021 10:45:00 PM 4.78 40.604 0.08 6.82 6.46 12.31
3/13/2021 11:00:00 PM 4.7 40.46 0.08 6.81 6.52 12.33
3/13/2021 11:15:00 PM 4.63 40.334 0.08 6.81 6.5 12.35
3/13/2021 11:30:00 PM 4.56 40.208 0.08 6.81 6.58 12.37
3/13/2021 11:45:00 PM 4.5 40.1 0.08 6.81 6.53 12.39
3/14/2021 12:00:00 AM 4.44 39.992 0.08 6.82 6.44 12.41
3/14/2021 12:15:00 AM 4.38 39.884 0.08 6.82 6.36 12.44
3/14/2021 12:30:00 AM 4.34 39.812 0.08 6.82 6.43 12.45
3/14/2021 12:45:00 AM 4.3 39.74 0.08 6.83 6.37 12.47
3/14/2021 1:00:00 AM 4.25 39.65 0.08 6.83 6.44 12.49
3/14/2021 1:15:00 AM 4.21 39.578 0.08 6.84 6.32 12.51
3/14/2021 1:30:00 AM 4.16 39.488 0.081 6.84 6.21 12.53
3/14/2021 1:45:00 AM 4.11 39.398 0.08 6.84 6.25 12.54
3/14/2021 3:00:00 AM 3.91 39.038 0.081 6.84 6.18 12.61
3/14/2021 3:15:00 AM 3.87 38.966 0.081 6.83 5.99 12.63
3/14/2021 3:30:00 AM 3.83 38.894 0.081 6.84 6.13 12.64
3/14/2021 3:45:00 AM 3.79 38.822 0.081 6.84 5.99 12.65
3/14/2021 4:00:00 AM 3.75 38.75 0.081 6.84 5.94 12.66
3/14/2021 4:15:00 AM 3.7 38.66 0.081 6.84 6.15 12.68
3/14/2021 4:30:00 AM 3.66 38.588 0.081 6.84 6.06 12.69
3/14/2021 4:45:00 AM 3.61 38.498 0.081 6.84 5.85 12.7
3/14/2021 5:00:00 AM 3.57 38.426 0.081 6.84 5.91 12.71
3/14/2021 5:15:00 AM 3.53 38.354 0.081 6.84 5.65 12.72
3/14/2021 5:30:00 AM 3.49 38.282 0.081 6.84 5.7 12.73
3/14/2021 5:45:00 AM 3.45 38.21 0.081 6.84 5.68 12.73
3/14/2021 6:00:00 AM 3.41 38.138 0.081 6.84 5.65 12.74
3/14/2021 6:15:00 AM 3.37 38.066 0.081 6.84 5.63 12.75
3/14/2021 6:30:00 AM 3.34 38.012 0.081 6.85 5.74 12.78
3/14/2021 6:45:00 AM 3.3 37.94 0.081 6.85 5.88 12.81
3/14/2021 7:00:00 AM 3.28 37.904 0.081 6.86 5.57 12.85
3/14/2021 7:15:00 AM 3.26 37.868 0.081 6.87 5.63 12.9
3/14/2021 7:30:00 AM 3.25 37.85 0.081 6.88 5.52 12.96
3/14/2021 7:45:00 AM 3.23 37.814 0.081 6.9 5.61 13.02
3/14/2021 8:00:00 AM 3.23 37.814 0.081 6.91 5.44 13.08
3/14/2021 8:15:00 AM 3.24 37.832 0.081 6.93 5.56 13.14
3/14/2021 8:30:00 AM 3.27 37.886 0.081 6.95 5.41 13.19
3/14/2021 8:45:00 AM 3.31 37.958 0.081 6.98 5.43 13.24
3/14/2021 9:00:00 AM 3.37 38.066 0.081 7 5.45 13.28
3/14/2021 9:15:00 AM 3.44 38.192 0.081 7.02 5.42 13.31
3/14/2021 9:30:00 AM 3.52 38.336 0.081 7.05 5.34 13.34
3/14/2021 9:45:00 AM 3.61 38.498 0.081 7.07 5.24 13.36
3/14/2021 10:00:00 AM 3.72 38.696 0.08 7.1 5.39 13.38
3/14/2021 10:15:00 AM 3.85 38.93 0.08 7.12 5.46 13.4
3/14/2021 10:30:00 AM 4 39.2 0.08 7.14 5.28 13.4
3/14/2021 10:45:00 AM 4.11 39.398 0.08 7.15 5.19 13.38
3/14/2021 11:00:00 AM 4.28 39.704 0.08 7.18 5.35 13.36
3/14/2021 11:15:00 AM 4.49 40.082 0.08 7.21 5.1 13.34
3/14/2021 11:30:00 AM 4.7 40.46 0.08 7.23 5.15 13.33
3/14/2021 11:45:00 AM 4.89 40.802 0.08 7.23 5.18 13.29
3/14/2021 12:00:00 PM 5.01 41.018 0.08 7.24 5.39 13.24
3/14/2021 12:15:00 PM 5.17 41.306 0.08 7.25 5.19 13.2
3/14/2021 12:30:00 PM 5.3 41.54 0.08 7.24 5.05 13.16
3/14/2021 12:45:00 PM 5.45 41.81 0.08 7.27 5.2 13.11
3/14/2021 1:00:00 PM 5.73 42.314 0.079 7.3 5.05 13.08
3/14/2021 1:15:00 PM 5.93 42.674 0.079 7.31 5.17 13.03
3/14/2021 1:30:00 PM 6.1 42.98 0.079 7.31 5.12 12.99
3/14/2021 1:45:00 PM 6.3 43.34 0.079 7.33 5.22 12.94
3/14/2021 2:00:00 PM 6.45 43.61 0.079 7.34 5.07 12.88
3/14/2021 2:15:00 PM 6.5 43.7 0.079 7.31 5.22 12.81
3/14/2021 2:30:00 PM 6.59 43.862 0.079 7.32 5.32 12.77
3/14/2021 2:45:00 PM 6.69 44.042 0.079 7.33 5.15 12.72
3/14/2021 3:00:00 PM 6.72 44.096 0.079 7.32 5.31 12.69
3/14/2021 3:15:00 PM 6.71 44.078 0.079 7.31 5.26 12.66
3/14/2021 3:30:00 PM 6.7 44.06 0.079 7.29 5.35 12.63
3/14/2021 3:45:00 PM 6.67 44.006 0.079 7.27 5.43 12.6
3/14/2021 4:00:00 PM 6.65 43.97 0.079 7.27 5.38 12.59
3/14/2021 4:15:00 PM 6.62 43.916 0.08 7.26 5.4 12.56
3/14/2021 4:30:00 PM 6.58 43.844 0.08 7.24 5.51 12.54
3/14/2021 4:45:00 PM 6.55 43.79 0.08 7.22 5.57 12.5
3/14/2021 5:00:00 PM 6.52 43.736 0.08 7.2 5.64 12.46
3/14/2021 5:15:00 PM 6.49 43.682 0.08 7.19 5.38 12.42
3/14/2021 5:30:00 PM 6.44 43.592 0.08 7.16 5.5 12.38
3/14/2021 5:45:00 PM 6.38 43.484 0.08 7.14 5.51 12.34
3/14/2021 6:00:00 PM 6.3 43.34 0.08 7.1 5.54 12.3
3/14/2021 6:15:00 PM 6.21 43.178 0.08 7.08 5.64 12.26
3/14/2021 6:30:00 PM 6.13 43.034 0.08 7.06 5.8 12.22
3/14/2021 6:45:00 PM 6.03 42.854 0.08 7.02 6.47 12.19
3/14/2021 7:00:00 PM 5.92 42.656 0.081 7.01 5.92 12.17
3/14/2021 7:15:00 PM 5.8 42.44 0.081 6.97 5.82 12.16
3/14/2021 7:30:00 PM 5.68 42.224 0.081 6.94 5.75 12.15
3/14/2021 7:45:00 PM 5.55 41.99 0.081 6.92 5.81 12.16
3/14/2021 8:00:00 PM 5.44 41.792 0.081 6.9 5.74 12.17
3/14/2021 8:15:00 PM 5.33 41.594 0.081 6.89 5.73 12.19
3/14/2021 8:30:00 PM 5.22 41.396 0.081 6.88 5.86 12.21
3/14/2021 8:45:00 PM 5.12 41.216 0.082 6.88 5.96 12.23
3/14/2021 9:00:00 PM 5.01 41.018 0.082 6.87 5.83 12.25
3/14/2021 9:15:00 PM 4.91 40.838 0.082 6.86 5.83 12.28
3/14/2021 9:30:00 PM 4.81 40.658 0.082 6.86 5.79 12.31
3/14/2021 9:45:00 PM 4.71 40.478 0.082 6.84 6 12.33
3/14/2021 10:00:00 PM 4.6 40.28 0.082 6.84 5.93 12.35
3/14/2021 10:15:00 PM 4.51 40.118 0.082 6.86 5.89 12.38
3/14/2021 10:30:00 PM 4.41 39.938 0.082 6.85 5.87 12.42
3/14/2021 10:45:00 PM 4.31 39.758 0.082 6.85 5.8 12.46
3/14/2021 11:00:00 PM 4.2 39.56 0.083 6.85 6 12.5
3/14/2021 11:15:00 PM 4.1 39.38 0.083 6.83 5.91 12.53
3/14/2021 11:30:00 PM 4.01 39.218 0.083 6.84 5.69 12.56
3/14/2021 11:45:00 PM 3.9 39.02 0.083 6.83 5.57 12.6
3/15/2021 12:00:00 AM 3.8 38.84 0.083 6.85 5.57 12.64
3/15/2021 12:15:00 AM 3.7 38.66 0.083 6.84 5.73 12.68
3/15/2021 12:30:00 AM 3.6 38.48 0.083 6.84 5.49 12.71
3/15/2021 12:45:00 AM 3.51 38.318 0.083 6.85 5.6 12.75
3/15/2021 1:00:00 AM 3.42 38.156 0.083 6.83 5.79 12.77
3/15/2021 1:15:00 AM 3.32 37.976 0.083 6.84 5.54 12.8
3/15/2021 1:30:00 AM 3.24 37.832 0.083 6.85 5.53 12.83
3/15/2021 1:45:00 AM 3.16 37.688 0.083 6.84 5.84 12.86
3/15/2021 2:00:00 AM 3.06 37.508 0.083 6.85 5.72 12.91
3/15/2021 2:15:00 AM 2.97 37.346 0.083 6.85 5.54 12.94
3/15/2021 2:30:00 AM 2.89 37.202 0.083 6.86 5.64 12.98
3/15/2021 2:45:00 AM 2.8 37.04 0.083 6.85 5.44 13.01
3/15/2021 3:00:00 AM 2.71 36.878 0.083 6.85 5.45 13.04
3/15/2021 3:15:00 AM 2.63 36.734 0.083 6.85 5.74 13.07
3/15/2021 3:30:00 AM 2.54 36.572 0.083 6.86 5.39 13.1
3/15/2021 3:45:00 AM 2.47 36.446 0.083 6.86 5.7 13.14
3/15/2021 4:00:00 AM 2.39 36.302 0.084 6.86 5.74 13.17
3/15/2021 4:15:00 AM 2.33 36.194 0.084 6.86 5.78 13.2
3/15/2021 4:30:00 AM 2.26 36.068 0.084 6.87 5.78 13.22
3/15/2021 4:45:00 AM 2.19 35.942 0.084 6.87 5.62 13.25
3/15/2021 5:00:00 AM 2.12 35.816 0.084 6.86 5.73 13.27
3/15/2021 5:15:00 AM 2.05 35.69 0.084 6.86 5.63 13.29
3/15/2021 5:30:00 AM 1.99 35.582 0.084 6.87 5.5 13.32
3/15/2021 5:45:00 AM 1.93 35.474 0.084 6.87 5.37 13.35
3/15/2021 6:00:00 AM 1.87 35.366 0.084 6.87 5.4 13.38
3/15/2021 6:15:00 AM 1.8 35.24 0.084 6.87 5.44 13.41
3/15/2021 6:30:00 AM 1.74 35.132 0.084 6.87 5.49 13.45
3/15/2021 6:45:00 AM 1.69 35.042 0.084 6.88 5.33 13.51
3/15/2021 7:00:00 AM 1.64 34.952 0.084 6.88 5.23 13.57
3/15/2021 7:15:00 AM 1.59 34.862 0.084 6.9 5.34 13.64
3/15/2021 7:30:00 AM 1.55 34.79 0.084 6.92 5.26 13.71
3/15/2021 7:45:00 AM 1.52 34.736 0.084 6.93 5.22 13.78
3/15/2021 8:00:00 AM 1.5 34.7 0.084 6.94 5.33 13.86
3/15/2021 8:15:00 AM 1.49 34.682 0.084 6.95 5.2 13.92
3/15/2021 8:30:00 AM 1.49 34.682 0.084 6.98 5.12 13.99
3/15/2021 8:45:00 AM 1.5 34.7 0.084 6.99 5.22 14.04
3/15/2021 9:00:00 AM 1.52 34.736 0.083 7.01 5.19 14.1
3/15/2021 9:15:00 AM 1.56 34.808 0.083 7.04 5.14 14.14
3/15/2021 9:30:00 AM 1.62 34.916 0.083 7.06 5.19 14.18
3/15/2021 9:45:00 AM 1.67 35.006 0.083 7.08 5.26 14.21
3/15/2021 10:00:00 AM 1.75 35.15 0.083 7.1 5.33 14.23
3/15/2021 10:15:00 AM 1.84 35.312 0.083 7.13 5.1 14.25
3/15/2021 10:30:00 AM 1.96 35.528 0.083 7.15 5.15 14.26
3/15/2021 10:45:00 AM 2.1 35.78 0.084 7.16 5.08 14.26
3/15/2021 11:00:00 AM 2.25 36.05 0.083 7.18 4.89 14.26
3/15/2021 11:15:00 AM 2.4 36.32 0.083 7.2 4.86 14.24
3/15/2021 11:30:00 AM 2.58 36.644 0.083 7.21 4.9 14.22
3/15/2021 11:45:00 AM 2.76 36.968 0.083 7.22 4.85 14.2
3/15/2021 12:00:00 PM 2.95 37.31 0.083 7.24 5.05 14.16
3/15/2021 12:15:00 PM 3.15 37.67 0.083 7.25 4.71 14.11
3/15/2021 12:30:00 PM 3.34 38.012 0.083 7.26 4.7 14.06
3/15/2021 12:45:00 PM 3.51 38.318 0.083 7.27 4.79 14.03
3/15/2021 1:00:00 PM 3.67 38.606 0.083 7.28 4.66 13.99
3/15/2021 1:15:00 PM 3.81 38.858 0.082 7.28 4.72 13.95
3/15/2021 2:30:00 PM 3.95 39.11 0.082 7.28 4.67 13.9
3/15/2021 2:45:00 PM 4.07 39.326 0.082 7.29 4.93 13.83
3/15/2021 3:00:00 PM 4.18 39.524 0.082 7.3 5.03 13.78
3/15/2021 3:15:00 PM 4.28 39.704 0.082 7.3 4.79 13.73
3/15/2021 3:30:00 PM 4.34 39.812 0.082 7.29 4.69 13.68
3/15/2021 3:45:00 PM 4.4 39.92 0.082 7.29 5.12 13.63
3/15/2021 4:00:00 PM 4.5 40.1 0.082 7.32 4.91 13.58
3/15/2021 4:15:00 PM 4.57 40.226 0.082 7.32 5.22 13.53
3/15/2021 4:30:00 PM 4.63 40.334 0.082 7.32 5.04 13.49
3/15/2021 4:45:00 PM 4.66 40.388 0.082 7.31 5.02 13.45
3/15/2021 5:00:00 PM 4.68 40.424 0.082 7.31 5.15 13.41
3/15/2021 5:15:00 PM 4.68 40.424 0.082 7.28 5.36 13.36
3/15/2021 5:30:00 PM 4.66 40.388 0.082 7.28 5.39 13.31
3/15/2021 5:45:00 PM 4.64 40.352 0.082 7.26 5.22 13.27
3/15/2021 6:00:00 PM 4.62 40.316 0.082 7.24 5.32 13.23
3/15/2021 6:15:00 PM 4.6 40.28 0.082 7.22 5.47 13.19
3/15/2021 6:30:00 PM 4.56 40.208 0.082 7.19 5.26 13.15
3/15/2021 6:45:00 PM 4.5 40.1 0.082 7.18 5.52 13.11
3/15/2021 7:00:00 PM 4.43 39.974 0.083 7.14 5.27 13.07
3/15/2021 7:15:00 PM 4.34 39.812 0.083 7.13 5.3 13.03
3/15/2021 7:30:00 PM 4.25 39.65 0.083 7.09 5.39 13
3/15/2021 7:45:00 PM 4.16 39.488 0.083 7.05 5.33 12.97
3/15/2021 8:00:00 PM 4.06 39.308 0.083 7.04 5.18 12.96
3/15/2021 8:15:00 PM 3.96 39.128 0.083 7.01 5.34 12.94
3/15/2021 8:30:00 PM 3.86 38.948 0.083 6.99 7.77 12.93
3/15/2021 8:45:00 PM 3.76 38.768 0.083 6.97 5.24 12.91
3/15/2021 9:00:00 PM 3.66 38.588 0.083 6.96 5.47 12.91
3/15/2021 9:15:00 PM 3.57 38.426 0.084 6.95 5.05 12.91
3/15/2021 9:30:00 PM 3.48 38.264 0.084 6.94 5.39 12.91
3/15/2021 9:45:00 PM 3.39 38.102 0.084 6.93 5.41 12.92
3/15/2021 10:00:00 PM 3.29 37.922 0.084 6.92 5.37 12.93
3/15/2021 10:15:00 PM 3.21 37.778 0.084 6.93 5.41 12.94
3/15/2021 10:30:00 PM 3.13 37.634 0.084 6.92 5.61 12.95
3/15/2021 10:45:00 PM 3.06 37.508 0.084 6.92 5.08 12.97
3/15/2021 11:00:00 PM 2.99 37.382 0.084 6.91 5.41 12.98
3/15/2021 11:15:00 PM 2.93 37.274 0.084 6.91 5.46 13
3/15/2021 11:30:00 PM 2.88 37.184 0.085 6.9 5.51 13.02
3/15/2021 11:45:00 PM 2.82 37.076 0.085 6.91 5.36 13.04
3/16/2021 12:00:00 AM 2.78 37.004 0.085 6.91 5.57 13.05
3/16/2021 12:15:00 AM 2.74 36.932 0.085 6.9 5.52 13.07
3/16/2021 12:30:00 AM 2.69 36.842 0.085 6.91 5.39 13.09
3/16/2021 12:45:00 AM 2.66 36.788 0.085 6.9 5.3 13.11
3/16/2021 1:00:00 AM 2.62 36.716 0.085 6.9 5.45 13.12
3/16/2021 1:15:00 AM 2.59 36.662 0.085 6.91 5.36 13.13
3/16/2021 1:30:00 AM 2.55 36.59 0.085 6.9 5.42 13.14
3/16/2021 1:45:00 AM 2.53 36.554 0.085 6.91 5.3 13.15
3/16/2021 2:00:00 AM 2.49 36.482 0.085 6.9 5.28 13.16
3/16/2021 2:15:00 AM 2.47 36.446 0.085 6.91 5.34 13.17
3/16/2021 2:30:00 AM 2.44 36.392 0.085 6.89 5.37 13.18
3/16/2021 2:45:00 AM 2.4 36.32 0.085 6.9 5.42 13.19
3/16/2021 3:00:00 AM 2.37 36.266 0.085 6.92 5.54 13.2
3/16/2021 3:15:00 AM 2.34 36.212 0.085 6.92 5.23 13.22
3/16/2021 3:30:00 AM 2.32 36.176 0.085 6.92 5.5 13.22
3/16/2021 3:45:00 AM 2.29 36.122 0.085 6.91 5.54 13.23
3/16/2021 4:00:00 AM 2.26 36.068 0.085 6.92 5.35 13.25
3/16/2021 4:15:00 AM 2.24 36.032 0.085 6.92 5.5 13.25
3/16/2021 4:30:00 AM 2.21 35.978 0.086 6.91 5.45 13.26
3/16/2021 4:45:00 AM 2.19 35.942 0.086 6.91 5.51 13.27
3/16/2021 5:00:00 AM 2.16 35.888 0.086 6.92 5.59 13.28
3/16/2021 5:15:00 AM 2.13 35.834 0.086 6.92 5.45 13.29
3/16/2021 5:30:00 AM 2.11 35.798 0.086 6.9 5.36 13.3
3/16/2021 5:45:00 AM 2.09 35.762 0.086 6.91 5.37 13.3
3/16/2021 6:00:00 AM 2.05 35.69 0.086 6.9 5.36 13.31
3/16/2021 6:15:00 AM 2.03 35.654 0.086 6.92 5.2 13.32
3/16/2021 6:30:00 AM 2.01 35.618 0.086 6.91 5.38 13.33
3/16/2021 6:45:00 AM 1.99 35.582 0.086 6.91 5.08 13.33
3/16/2021 7:00:00 AM 1.96 35.528 0.086 6.91 5.36 13.34
3/16/2021 7:15:00 AM 1.94 35.492 0.086 6.91 5.05 13.35
3/16/2021 7:30:00 AM 1.93 35.474 0.086 6.92 5.5 13.36
3/16/2021 7:45:00 AM 1.92 35.456 0.086 6.91 5.29 13.39
3/16/2021 8:00:00 AM 1.92 35.456 0.086 6.93 5.28 13.44
3/16/2021 8:15:00 AM 1.91 35.438 0.086 6.94 5.36 13.47
3/16/2021 8:30:00 AM 1.91 35.438 0.086 6.95 5.26 13.54
3/16/2021 8:45:00 AM 1.91 35.438 0.086 6.97 5.23 13.6
3/16/2021 9:00:00 AM 1.92 35.456 0.086 6.98 5.13 13.65
3/16/2021 9:15:00 AM 1.93 35.474 0.086 7 5.33 13.71
3/16/2021 9:30:00 AM 1.94 35.492 0.086 7.01 5.2 13.76
3/16/2021 9:45:00 AM 1.93 35.474 0.085 7.03 5.21 13.81
3/16/2021 10:00:00 AM 1.93 35.474 0.085 7.04 5.16 13.85
3/16/2021 10:15:00 AM 1.92 35.456 0.085 7.04 5.07 13.89
3/16/2021 10:30:00 AM 1.9 35.42 0.085 7.06 5.11 13.9
3/16/2021 10:45:00 AM 1.86 35.348 0.085 7.06 5.15 13.92
3/16/2021 11:00:00 AM 1.87 35.366 0.085 7.07 5.18 13.95
3/16/2021 11:15:00 AM 1.88 35.384 0.085 7.09 5.28 13.98
3/16/2021 11:30:00 AM 1.9 35.42 0.085 7.11 5.25 14.01
3/16/2021 11:45:00 AM 1.93 35.474 0.085 7.13 5.18 14.05
3/16/2021 12:00:00 PM 1.96 35.528 0.085 7.15 5.12 14.07
3/16/2021 12:15:00 PM 1.98 35.564 0.085 7.16 5.23 14.1
3/16/2021 12:30:00 PM 2 35.6 0.085 7.17 5.35 14.11
3/16/2021 12:45:00 PM 2.03 35.654 0.085 7.18 4.97 14.12
3/16/2021 1:00:00 PM 2.04 35.672 0.085 7.18 5.22 14.12
3/16/2021 1:15:00 PM 2.08 35.744 0.085 7.21 4.77 14.14
3/16/2021 1:30:00 PM 2.13 35.834 0.084 7.23 5.19 14.15
3/16/2021 1:45:00 PM 2.18 35.924 0.084 7.24 5.14 14.16
3/16/2021 2:00:00 PM 2.23 36.014 0.084 7.25 5.12 14.16
3/16/2021 2:15:00 PM 2.28 36.104 0.084 7.27 5.1 14.17
3/16/2021 2:30:00 PM 2.3 36.14 0.084 7.27 5.16 14.16
3/16/2021 2:45:00 PM 2.33 36.194 0.084 7.28 5.03 14.14
3/16/2021 3:00:00 PM 2.35 36.23 0.084 7.27 4.93 14.13
3/16/2021 3:15:00 PM 2.37 36.266 0.084 7.28 4.73 14.11
3/16/2021 3:30:00 PM 2.4 36.32 0.084 7.28 4.7 14.09
3/16/2021 3:45:00 PM 2.41 36.338 0.084 7.27 4.75 14.06
3/16/2021 4:00:00 PM 2.43 36.374 0.084 7.28 4.61 14.05
3/16/2021 4:15:00 PM 2.45 36.41 0.084 7.28 4.92 14.03
3/16/2021 4:30:00 PM 2.47 36.446 0.084 7.28 4.8 14
3/16/2021 4:45:00 PM 2.48 36.464 0.084 7.27 4.58 13.97
3/16/2021 5:00:00 PM 2.5 36.5 0.084 7.25 4.71 13.95
3/16/2021 5:15:00 PM 2.53 36.554 0.084 7.26 4.71 13.94
3/16/2021 5:30:00 PM 2.55 36.59 0.084 7.27 4.65 13.93
3/16/2021 5:45:00 PM 2.57 36.626 0.084 7.27 4.73 13.92
3/16/2021 6:00:00 PM 2.58 36.644 0.084 7.26 4.66 13.89
3/16/2021 6:15:00 PM 2.6 36.68 0.084 7.25 4.74 13.84
3/16/2021 6:30:00 PM 2.61 36.698 0.084 7.24 4.71 13.8
3/16/2021 6:45:00 PM 2.62 36.716 0.084 7.22 4.89 13.74
3/16/2021 7:00:00 PM 2.63 36.734 0.084 7.21 4.85 13.67
3/16/2021 7:15:00 PM 2.63 36.734 0.084 7.17 4.64 13.6
3/16/2021 7:30:00 PM 2.63 36.734 0.084 7.16 4.87 13.54
3/16/2021 7:45:00 PM 2.64 36.752 0.084 7.13 4.84 13.48
3/16/2021 8:00:00 PM 2.64 36.752 0.085 7.11 5.01 13.43
3/16/2021 8:15:00 PM 2.65 36.77 0.085 7.1 4.88 13.38
3/16/2021 8:30:00 PM 2.65 36.77 0.085 7.09 4.98 13.34
3/16/2021 8:45:00 PM 2.65 36.77 0.085 7.07 4.78 13.3
3/16/2021 9:00:00 PM 2.65 36.77 0.085 7.05 4.78 13.27
3/16/2021 9:15:00 PM 2.65 36.77 0.085 7.04 4.77 13.24
3/16/2021 9:30:00 PM 2.65 36.77 0.085 7.03 4.84 13.22
3/16/2021 9:45:00 PM 2.65 36.77 0.085 7.01 4.87 13.2
3/16/2021 10:00:00 PM 2.65 36.77 0.085 7.02 4.88 13.18
3/16/2021 10:15:00 PM 2.65 36.77 0.085 7.01 4.79 13.16
3/16/2021 10:30:00 PM 2.65 36.77 0.085 7 4.65 13.14
3/16/2021 10:45:00 PM 2.66 36.788 0.085 7 4.76 13.13
3/16/2021 11:00:00 PM 2.66 36.788 0.085 6.99 5.08 13.12
3/16/2021 11:15:00 PM 2.66 36.788 0.085 6.98 4.95 13.11
3/16/2021 11:30:00 PM 2.66 36.788 0.086 6.98 4.88 13.1
3/16/2021 11:45:00 PM 2.67 36.806 0.086 6.97 4.87 13.09
3/17/2021 12:00:00 AM 2.67 36.806 0.086 6.96 4.58 13.08
3/17/2021 12:15:00 AM 2.67 36.806 0.086 6.96 4.68 13.07
3/17/2021 12:30:00 AM 2.67 36.806 0.086 6.96 4.71 13.07
3/17/2021 12:45:00 AM 2.67 36.806 0.086 6.95 4.92 13.07
3/17/2021 1:00:00 AM 2.67 36.806 0.086 6.96 4.74 13.06
3/17/2021 1:15:00 AM 2.68 36.824 0.086 6.96 4.79 13.06
3/17/2021 1:30:00 AM 2.68 36.824 0.086 6.95 5.11 13.05
3/17/2021 1:45:00 AM 2.68 36.824 0.086 6.95 4.8 13.05
3/17/2021 2:00:00 AM 2.68 36.824 0.086 6.95 4.71 13.05
3/17/2021 2:15:00 AM 2.68 36.824 0.086 6.96 4.76 13.05
3/17/2021 2:30:00 AM 2.69 36.842 0.086 6.95 4.85 13.04
3/17/2021 2:45:00 AM 2.69 36.842 0.086 6.95 4.86 13.04
3/17/2021 3:00:00 AM 2.69 36.842 0.086 6.95 4.86 13.04
3/17/2021 3:15:00 AM 2.7 36.86 0.086 6.96 4.89 13.04
3/17/2021 3:30:00 AM 2.7 36.86 0.086 6.95 4.89 13.03
3/17/2021 3:45:00 AM 2.7 36.86 0.086 6.96 4.87 13.03
3/17/2021 4:00:00 AM 2.71 36.878 0.086 6.95 5.01 13.03
3/17/2021 4:15:00 AM 2.71 36.878 0.087 6.95 4.74 13.03
3/17/2021 4:30:00 AM 2.71 36.878 0.087 6.95 4.61 13.03
3/17/2021 4:45:00 AM 2.71 36.878 0.087 6.95 4.75 13.02
3/17/2021 5:00:00 AM 2.71 36.878 0.087 6.95 4.78 13.02
3/17/2021 5:15:00 AM 2.71 36.878 0.087 6.95 4.85 13.02
3/17/2021 5:30:00 AM 2.71 36.878 0.087 6.95 4.96 13.02
3/17/2021 5:45:00 AM 2.71 36.878 0.087 6.94 4.72 13.02
3/17/2021 6:00:00 AM 2.72 36.896 0.087 6.95 4.82 13.02
3/17/2021 6:15:00 AM 2.72 36.896 0.087 6.95 4.77 13.02
3/17/2021 6:30:00 AM 2.72 36.896 0.087 6.94 4.72 13.02
3/17/2021 6:45:00 AM 2.73 36.914 0.087 6.95 4.75 13.02
3/17/2021 7:00:00 AM 2.73 36.914 0.087 6.94 4.73 13.02
3/17/2021 7:15:00 AM 2.73 36.914 0.087 6.95 4.75 13.02
3/17/2021 7:30:00 AM 2.73 36.914 0.087 6.95 4.68 13.03
3/17/2021 7:45:00 AM 2.74 36.932 0.087 6.96 4.77 13.05
3/17/2021 8:00:00 AM 2.75 36.95 0.087 6.96 4.68 13.08
3/17/2021 8:15:00 AM 2.76 36.968 0.087 6.97 4.59 13.12
3/17/2021 8:30:00 AM 2.77 36.986 0.087 6.98 4.89 13.17
3/17/2021 8:45:00 AM 2.78 37.004 0.087 7 4.5 13.22
3/17/2021 9:00:00 AM 2.8 37.04 0.087 7.02 4.78 13.28
3/17/2021 9:15:00 AM 2.82 37.076 0.087 7.03 4.85 13.34
3/17/2021 9:30:00 AM 2.85 37.13 0.087 7.05 4.74 13.4
3/17/2021 9:45:00 AM 2.88 37.184 0.087 7.08 4.51 13.46
3/17/2021 10:00:00 AM 2.91 37.238 0.087 7.09 4.58 13.52
3/17/2021 10:15:00 AM 2.95 37.31 0.087 7.11 4.88 13.57
3/17/2021 10:30:00 AM 2.98 37.364 0.087 7.13 4.87 13.62
3/17/2021 10:45:00 AM 3.02 37.436 0.086 7.15 4.53 13.66
3/17/2021 11:00:00 AM 3.07 37.526 0.086 7.18 4.47 13.69
3/17/2021 11:15:00 AM 3.11 37.598 0.086 7.19 4.44 13.72
3/17/2021 11:30:00 AM 3.15 37.67 0.086 7.21 5.04 13.74
3/17/2021 11:45:00 AM 3.21 37.778 0.086 7.23 4.75 13.76
3/17/2021 12:00:00 PM 3.26 37.868 0.086 7.26 4.79 13.78
3/17/2021 12:15:00 PM 3.31 37.958 0.086 7.28 4.93 13.79
3/17/2021 12:30:00 PM 3.36 38.048 0.086 7.29 4.85 13.8
3/17/2021 12:45:00 PM 3.42 38.156 0.086 7.32 4.95 13.81
3/17/2021 1:00:00 PM 3.47 38.246 0.086 7.33 4.68 13.81
3/17/2021 1:15:00 PM 3.53 38.354 0.086 7.35 4.7 13.81
3/17/2021 1:30:00 PM 3.58 38.444 0.086 7.36 4.75 13.81
3/17/2021 1:45:00 PM 3.64 38.552 0.086 7.38 4.59 13.81
3/17/2021 2:00:00 PM 3.69 38.642 0.085 7.4 4.54 13.8
3/17/2021 2:15:00 PM 3.75 38.75 0.085 7.41 4.75 13.8
3/17/2021 2:30:00 PM 3.82 38.876 0.085 7.42 4.74 13.79
3/17/2021 2:45:00 PM 3.88 38.984 0.085 7.44 5.1 13.78
3/17/2021 3:00:00 PM 3.94 39.092 0.085 7.45 4.67 13.77
3/17/2021 3:15:00 PM 4 39.2 0.085 7.46 4.63 13.74
3/17/2021 3:30:00 PM 4.07 39.326 0.085 7.47 5.01 13.72
3/17/2021 3:45:00 PM 4.14 39.452 0.085 7.49 4.87 13.7
3/17/2021 4:00:00 PM 4.19 39.542 0.085 7.49 4.95 13.68
3/17/2021 4:15:00 PM 4.27 39.686 0.085 7.5 4.99 13.66
3/17/2021 4:30:00 PM 4.34 39.812 0.085 7.5 5.07 13.65
3/17/2021 4:45:00 PM 4.4 39.92 0.085 7.52 4.79 13.62
3/17/2021 5:00:00 PM 4.45 40.01 0.085 7.52 4.91 13.6
3/17/2021 5:15:00 PM 4.5 40.1 0.084 7.53 4.72 13.57
3/17/2021 5:30:00 PM 4.54 40.172 0.084 7.51 4.99 13.53
3/17/2021 5:45:00 PM 4.57 40.226 0.084 7.49 5.08 13.48
3/17/2021 6:00:00 PM 4.6 40.28 0.084 7.48 5.07 13.41
3/17/2021 6:15:00 PM 4.61 40.298 0.084 7.44 5.27 13.34
3/17/2021 6:30:00 PM 4.63 40.334 0.085 7.4 4.9 13.26
3/17/2021 6:45:00 PM 4.64 40.352 0.085 7.38 4.93 13.17
3/17/2021 7:00:00 PM 4.65 40.37 0.085 7.33 5 13.09
3/17/2021 7:15:00 PM 4.65 40.37 0.085 7.29 5.19 12.99
3/17/2021 7:30:00 PM 4.66 40.388 0.085 7.26 5.08 12.91
3/17/2021 7:45:00 PM 4.65 40.37 0.085 7.23 5.18 12.84
3/17/2021 8:00:00 PM 4.65 40.37 0.085 7.19 4.93 12.77
3/17/2021 8:15:00 PM 4.64 40.352 0.085 7.18 5.23 12.71
3/17/2021 8:30:00 PM 4.64 40.352 0.085 7.15 4.98 12.66
3/17/2021 8:45:00 PM 4.63 40.334 0.085 7.14 5.16 12.62
3/17/2021 9:00:00 PM 4.62 40.316 0.085 7.12 5 12.58
3/17/2021 9:15:00 PM 4.61 40.298 0.086 7.09 5.21 12.54
3/17/2021 9:30:00 PM 4.61 40.298 0.086 7.07 5.49 12.51
3/17/2021 9:45:00 PM 4.6 40.28 0.086 7.06 5.17 12.49
3/17/2021 10:00:00 PM 4.6 40.28 0.086 7.06 5.09 12.46
3/17/2021 10:15:00 PM 4.59 40.262 0.086 7.05 5.23 12.45
3/17/2021 10:30:00 PM 4.59 40.262 0.086 7.04 5 12.43
3/17/2021 10:45:00 PM 4.59 40.262 0.086 7.02 5.2 12.41
3/17/2021 11:00:00 PM 4.58 40.244 0.086 7.01 5.22 12.4
3/17/2021 11:15:00 PM 4.58 40.244 0.086 7.01 5.13 12.39
3/17/2021 11:30:00 PM 4.57 40.226 0.086 7.01 5.19 12.38
3/17/2021 11:45:00 PM 4.57 40.226 0.086 6.99 5.36 12.37
3/18/2021 12:00:00 AM 4.56 40.208 0.086 7 4.66 12.37
3/18/2021 12:15:00 AM 4.56 40.208 0.087 7 4.55 12.36
3/18/2021 12:30:00 AM 4.55 40.19 0.087 6.98 4.64 12.36
3/18/2021 12:45:00 AM 4.54 40.172 0.087 6.98 4.76 12.36
3/18/2021 1:00:00 AM 4.54 40.172 0.087 6.99 4.96 12.35
3/18/2021 1:15:00 AM 4.53 40.154 0.087 6.97 4.79 12.35
3/18/2021 1:30:00 AM 4.52 40.136 0.087 6.98 4.65 12.34
3/18/2021 1:45:00 AM 4.52 40.136 0.087 6.97 4.65 12.35
3/18/2021 2:00:00 AM 4.51 40.118 0.087 6.97 4.63 12.35
3/18/2021 2:15:00 AM 4.5 40.1 0.087 6.96 4.67 12.34
3/18/2021 2:30:00 AM 4.5 40.1 0.087 6.98 4.69 12.34
3/18/2021 2:45:00 AM 4.49 40.082 0.087 6.97 4.51 12.34
3/18/2021 3:00:00 AM 4.49 40.082 0.087 6.98 4.66 12.34
3/18/2021 3:15:00 AM 4.49 40.082 0.088 6.96 5.01 12.34
3/18/2021 3:30:00 AM 4.48 40.064 0.088 6.97 4.75 12.34
3/18/2021 3:45:00 AM 4.48 40.064 0.088 6.97 4.63 12.34
3/18/2021 4:00:00 AM 4.48 40.064 0.088 6.96 4.66 12.34
3/18/2021 4:15:00 AM 4.47 40.046 0.088 6.96 4.7 12.34
3/18/2021 4:30:00 AM 4.47 40.046 0.088 6.96 4.76 12.34
3/18/2021 4:45:00 AM 4.47 40.046 0.088 6.95 4.79 12.34
3/18/2021 5:00:00 AM 4.46 40.028 0.088 6.95 4.64 12.33
3/18/2021 5:15:00 AM 4.46 40.028 0.088 6.96 4.64 12.33
3/18/2021 5:30:00 AM 4.45 40.01 0.088 6.96 4.69 12.33
3/18/2021 5:45:00 AM 4.45 40.01 0.088 6.97 4.69 12.33
3/18/2021 6:00:00 AM 4.45 40.01 0.088 6.96 4.73 12.33
3/18/2021 6:15:00 AM 4.45 40.01 0.088 6.96 4.7 12.33
3/18/2021 6:30:00 AM 4.45 40.01 0.088 6.95 4.68 12.33
3/18/2021 6:45:00 AM 4.45 40.01 0.088 6.97 5.17 12.33
3/18/2021 7:00:00 AM 4.44 39.992 0.088 6.96 5.41 12.33
3/18/2021 7:15:00 AM 4.44 39.992 0.088 6.96 5.21 12.33
3/18/2021 7:30:00 AM 4.44 39.992 0.088 6.97 5.17 12.33
3/18/2021 7:45:00 AM 4.44 39.992 0.088 6.97 5.32 12.34
3/18/2021 8:00:00 AM 4.44 39.992 0.088 6.97 5.03 12.35
3/18/2021 8:15:00 AM 4.44 39.992 0.088 6.97 5.5 12.38
3/18/2021 8:30:00 AM 4.44 39.992 0.088 6.97 4.88 12.41
3/18/2021 8:45:00 AM 4.45 40.01 0.088 6.98 4.84 12.44
3/18/2021 9:00:00 AM 4.46 40.028 0.088 7 5.4 12.48
3/18/2021 9:15:00 AM 4.46 40.028 0.087 7 4.93 12.52
3/18/2021 9:30:00 AM 4.47 40.046 0.087 7.02 4.87 12.56
3/18/2021 9:45:00 AM 4.48 40.064 0.087 7.03 4.99 12.6
3/18/2021 10:00:00 AM 4.49 40.082 0.087 7.04 4.99 12.63
3/18/2021 10:15:00 AM 4.5 40.1 0.087 7.04 5.21 12.66
3/18/2021 10:30:00 AM 4.52 40.136 0.087 7.07 5.36 12.69
3/18/2021 10:45:00 AM 4.54 40.172 0.087 7.08 6.28 12.73
3/18/2021 11:00:00 AM 4.56 40.208 0.087 7.09 5.63 12.78
3/18/2021 11:15:00 AM 4.58 40.244 0.086 7.11 6.37 12.82
3/18/2021 11:30:00 AM 4.61 40.298 0.087 7.13 6.54 12.87
3/18/2021 11:45:00 AM 4.64 40.352 0.087 7.15 6.94 12.91
3/18/2021 12:00:00 PM 4.67 40.406 0.087 7.16 7.13 12.94
3/18/2021 12:15:00 PM 4.7 40.46 0.088 7.18 8.83 12.97
3/18/2021 12:30:00 PM 4.74 40.532 0.088 7.2 10.61 12.99
3/18/2021 12:45:00 PM 4.78 40.604 0.089 7.22 12.93 12.99
3/18/2021 1:00:00 PM 4.82 40.676 0.09 7.22 15.16 12.98
3/18/2021 1:15:00 PM 4.86 40.748 0.091 7.24 17.11 12.97
3/18/2021 1:30:00 PM 4.91 40.838 0.094 7.25 17.58 12.95
3/18/2021 1:45:00 PM 4.96 40.928 0.096 7.26 19.16 12.93
3/18/2021 2:00:00 PM 5 41 0.099 7.26 23.12 12.89
3/18/2021 2:15:00 PM 5.05 41.09 0.1 7.25 41.71 12.87
3/18/2021 2:30:00 PM 5.09 41.162 0.1 7.25 25.73 12.83
3/18/2021 2:45:00 PM 5.13 41.234 0.1 7.24 32.23 12.8
3/18/2021 3:00:00 PM 5.16 41.288 0.099 7.22 29.09 12.75
3/18/2021 3:15:00 PM 5.2 41.36 0.099 7.23 31.59 12.71
3/18/2021 3:30:00 PM 5.24 41.432 0.098 7.2 30.64 12.68
3/18/2021 3:45:00 PM 5.27 41.486 0.097 7.17 32.23 12.64
3/18/2021 4:00:00 PM 5.29 41.522 0.095 7.17 28.32 12.6
3/18/2021 4:15:00 PM 5.32 41.576 0.094 7.16 30.55 12.56
3/18/2021 4:30:00 PM 5.34 41.612 0.093 7.15 26.63 12.53
3/18/2021 4:45:00 PM 5.36 41.648 0.093 7.15 22.27 12.49
3/18/2021 5:00:00 PM 5.37 41.666 0.092 7.14 114.86 12.45
3/18/2021 5:15:00 PM 5.37 41.666 0.092 7.1 34.15 12.4
3/18/2021 5:30:00 PM 5.38 41.684 0.092 7.04 29.01 12.37
3/18/2021 5:45:00 PM 5.38 41.684 0.092 7.03 26.67 12.34
3/18/2021 6:00:00 PM 5.38 41.684 0.092 7.04 23.91 12.31
3/18/2021 6:15:00 PM 5.37 41.666 0.092 7.02 25.27 12.28
3/18/2021 6:30:00 PM 5.37 41.666 0.093 6.99 28.27 12.26
3/18/2021 6:45:00 PM 5.35 41.63 0.093 6.99 34.72 12.23
3/18/2021 7:00:00 PM 5.34 41.612 0.093 6.98 24.96 12.21
3/18/2021 7:15:00 PM 5.31 41.558 0.093 6.97 26.04 12.2
3/18/2021 7:30:00 PM 5.29 41.522 0.093 6.96 23.63 12.18
3/18/2021 7:45:00 PM 5.27 41.486 0.094 6.95 23.62 12.17
3/18/2021 8:00:00 PM 5.24 41.432 0.094 6.94 25.84 12.16
3/18/2021 8:15:00 PM 5.22 41.396 0.094 6.92 25.49 12.16
3/18/2021 8:30:00 PM 5.19 41.342 0.094 6.94 22.21 12.15
3/18/2021 8:45:00 PM 5.17 41.306 0.094 6.91 24.35 12.15
3/18/2021 9:00:00 PM 5.15 41.27 0.093 6.92 23.14 12.15
3/18/2021 9:15:00 PM 5.12 41.216 0.093 6.88 26.53 12.16
3/18/2021 9:30:00 PM 5.1 41.18 0.093 6.87 21.53 12.16
3/18/2021 9:45:00 PM 5.07 41.126 0.093 6.88 20.04 12.17
3/18/2021 10:00:00 PM 5.05 41.09 0.093 6.88 19.08 12.18
3/18/2021 10:15:00 PM 5.03 41.054 0.093 6.87 18.14 12.18
3/18/2021 10:30:00 PM 5 41 0.092 6.82 17.57 12.19
3/18/2021 10:45:00 PM 4.98 40.964 0.092 6.86 15.75 12.2
3/18/2021 11:00:00 PM 4.95 40.91 0.092 6.84 15.46 12.2
3/18/2021 11:15:00 PM 4.91 40.838 0.092 6.85 16.46 12.21
3/18/2021 11:30:00 PM 4.88 40.784 0.092 6.85 16.31 12.22
3/18/2021 11:45:00 PM 4.84 40.712 0.091 6.85 14.78 12.23
3/19/2021 12:00:00 AM 4.81 40.658 0.091 6.85 3831.11 12.24
3/19/2021 12:15:00 AM 4.77 40.586 0.091 6.84 91.61 12.26
3/19/2021 12:30:00 AM 4.73 40.514 0.091 6.84 15.63 12.27
3/19/2021 12:45:00 AM 4.68 40.424 0.091 6.84 14.67 12.29
3/19/2021 1:00:00 AM 4.65 40.37 0.091 6.85 14.24 12.3
3/19/2021 1:15:00 AM 4.61 40.298 0.091 6.83 51.27 12.32
3/19/2021 1:30:00 AM 4.57 40.226 0.091 6.85 200.55 12.33
3/19/2021 1:45:00 AM 4.53 40.154 0.091 6.84 13.81 12.35
3/19/2021 2:00:00 AM 4.47 40.046 0.09 6.82 13.62 12.37
3/19/2021 2:15:00 AM 4.42 39.956 0.09 6.83 13.29 12.38
3/19/2021 2:30:00 AM 4.36 39.848 0.09 6.82 13.01 12.4
3/19/2021 2:45:00 AM 4.3 39.74 0.09 6.77 20.73 12.42
3/19/2021 3:00:00 AM 4.24 39.632 0.09 6.78 376.35 12.44
3/19/2021 3:15:00 AM 4.17 39.506 0.09 6.77 72.85 12.46
3/19/2021 3:30:00 AM 4.12 39.416 0.09 6.75 212.84 12.49
3/19/2021 3:45:00 AM 4.06 39.308 0.09 6.75 12.08 12.51
3/19/2021 4:00:00 AM 4 39.2 0.09 6.76 151.13 12.54
3/19/2021 4:15:00 AM 3.93 39.074 0.09 6.76 11 12.57
3/19/2021 4:30:00 AM 3.86 38.948 0.09 6.76 393.82 12.59
3/19/2021 4:45:00 AM 3.79 38.822 0.09 6.76 839.13 12.61
3/19/2021 5:00:00 AM 3.73 38.714 0.09 6.76 951.26 12.63
3/19/2021 5:15:00 AM 3.67 38.606 0.09 6.76 9.85 12.65
3/19/2021 5:30:00 AM 3.6 38.48 0.09 6.75 9.7 12.67
3/19/2021 5:45:00 AM 3.54 38.372 0.09 6.75 9.39 12.69
3/19/2021 6:00:00 AM 3.48 38.264 0.09 6.79 9.54 12.72
3/19/2021 6:15:00 AM 3.4 38.12 0.09 6.77 9.12 12.74
3/19/2021 6:30:00 AM 3.33 37.994 0.09 6.74 9.16 12.77
3/19/2021 6:45:00 AM 3.25 37.85 0.09 6.77 8.72 12.8
3/19/2021 7:00:00 AM 3.17 37.706 0.09 6.74 8.5 12.83
3/19/2021 7:15:00 AM 3.09 37.562 0.09 6.75 8.6 12.86
3/19/2021 7:30:00 AM 3.02 37.436 0.09 6.74 8.58 12.89
3/19/2021 7:45:00 AM 2.95 37.31 0.09 6.76 8.36 12.94
3/19/2021 8:00:00 AM 2.88 37.184 0.09 6.77 8.29 13
3/19/2021 8:15:00 AM 2.83 37.094 0.09 6.82 8.1 13.08
3/19/2021 8:30:00 AM 2.8 37.04 0.09 6.82 8.06 13.17
3/19/2021 8:45:00 AM 2.76 36.968 0.09 6.82 7.79 13.25
3/19/2021 9:00:00 AM 2.74 36.932 0.09 6.84 7.77 13.32
3/19/2021 9:15:00 AM 2.71 36.878 0.09 6.83 7.85 13.38
3/19/2021 9:30:00 AM 2.72 36.896 0.09 6.87 7.22 13.44
3/19/2021 9:45:00 AM 2.71 36.878 0.09 6.88 7.2 13.5
3/19/2021 10:00:00 AM 2.71 36.878 0.09 6.89 7.35 13.55
3/19/2021 10:15:00 AM 2.76 36.968 0.09 6.93 6.99 13.6
3/19/2021 10:30:00 AM 2.82 37.076 0.089 6.95 7.1 13.63
3/19/2021 10:45:00 AM 2.89 37.202 0.089 6.97 6.95 13.65
3/19/2021 11:00:00 AM 2.97 37.346 0.089 7 7.12 13.68
3/19/2021 11:15:00 AM 3.09 37.562 0.089 7.03 6.91 13.69
3/19/2021 11:30:00 AM 3.21 37.778 0.089 7.05 6.75 13.7
3/19/2021 11:45:00 AM 3.35 38.03 0.089 7.05 6.68 13.7
3/19/2021 12:00:00 PM 3.51 38.318 0.088 7.08 6.71 13.71
3/19/2021 12:15:00 PM 3.66 38.588 0.088 7.09 6.75 13.71
3/19/2021 12:30:00 PM 3.83 38.894 0.088 7.14 6.62 13.69
3/19/2021 12:45:00 PM 4 39.2 0.088 7.12 6.69 13.66
3/19/2021 1:00:00 PM 4.18 39.524 0.088 7.12 6.83 13.63
3/19/2021 1:15:00 PM 4.35 39.83 0.088 7.14 6.73 13.6
3/19/2021 1:30:00 PM 4.53 40.154 0.088 7.17 6.58 13.55
3/19/2021 1:45:00 PM 4.69 40.442 0.088 7.17 6.7 13.51
3/19/2021 2:00:00 PM 4.84 40.712 0.087 7.17 6.56 13.48
3/19/2021 2:15:00 PM 4.99 40.982 0.087 7.18 6.21 13.43
3/19/2021 2:30:00 PM 5.15 41.27 0.087 7.18 6.09 13.38
3/19/2021 2:45:00 PM 5.28 41.504 0.087 7.2 10.25 13.32
3/19/2021 3:00:00 PM 5.41 41.738 0.087 7.17 6.84 13.27
3/19/2021 3:15:00 PM 5.53 41.954 0.087 7.21 6.52 13.22
3/19/2021 3:30:00 PM 5.63 42.134 0.087 7.18 6.69 13.17
3/19/2021 3:45:00 PM 5.72 42.296 0.087 7.18 6.26 13.12
3/19/2021 4:00:00 PM 5.8 42.44 0.087 7.18 6.59 13.07
3/19/2021 4:15:00 PM 5.87 42.566 0.086 7.2 6.23 13.03
3/19/2021 4:30:00 PM 5.93 42.674 0.086 7.18 6.28 12.99
3/19/2021 4:45:00 PM 5.96 42.728 0.086 7.17 6.29 12.95
3/19/2021 5:00:00 PM 5.96 42.728 0.086 7.15 6.24 12.91
3/19/2021 5:15:00 PM 5.96 42.728 0.086 7.15 6.31 12.88
3/19/2021 5:30:00 PM 5.94 42.692 0.086 7.13 6.02 12.84
3/19/2021 5:45:00 PM 5.9 42.62 0.086 7.1 6.29 12.81
3/19/2021 6:00:00 PM 5.86 42.548 0.086 7.09 6.3 12.78
3/19/2021 6:15:00 PM 5.8 42.44 0.086 7.06 6.12 12.75
3/19/2021 6:30:00 PM 5.73 42.314 0.086 7.03 6.1 12.72
3/19/2021 6:45:00 PM 5.66 42.188 0.086 7.01 6.1 12.69
3/19/2021 7:00:00 PM 5.57 42.026 0.086 7.06 5.18 12.66
3/19/2021 7:15:00 PM 5.48 41.864 0.086 7.06 4.99 12.62
3/19/2021 7:30:00 PM 5.38 41.684 0.086 6.94 5.96 12.59
3/19/2021 7:45:00 PM 5.28 41.504 0.086 6.9 5.89 12.57
3/19/2021 8:00:00 PM 5.18 41.324 0.086 6.88 5.94 12.55
3/19/2021 8:15:00 PM 5.08 41.144 0.086 6.86 5.87 12.54
3/19/2021 8:30:00 PM 4.99 40.982 0.087 6.84 5.91 12.52
3/19/2021 8:45:00 PM 4.9 40.82 0.086 6.84 5.91 12.51
3/19/2021 9:00:00 PM 4.82 40.676 0.087 6.81 5.83 12.5
3/19/2021 9:15:00 PM 4.73 40.514 0.087 6.8 5.98 12.51
3/19/2021 9:30:00 PM 4.66 40.388 0.087 6.81 6.05 12.52
3/19/2021 9:45:00 PM 4.58 40.244 0.087 6.79 6.18 12.53
3/19/2021 10:00:00 PM 4.5 40.1 0.087 6.79 5.94 12.55
3/19/2021 10:15:00 PM 4.41 39.938 0.087 6.8 5.81 12.56
3/19/2021 10:30:00 PM 4.33 39.794 0.087 6.81 5.93 12.58
3/19/2021 10:45:00 PM 4.25 39.65 0.087 6.77 5.75 12.6
3/19/2021 11:00:00 PM 4.17 39.506 0.087 6.77 5.79 12.62
3/19/2021 11:15:00 PM 4.1 39.38 0.087 6.77 5.81 12.65
3/19/2021 11:30:00 PM 4.03 39.254 0.087 6.77 5.82 12.68
3/19/2021 11:45:00 PM 3.96 39.128 0.087 6.76 5.76 12.71
3/20/2021 12:00:00 AM 3.89 39.002 0.087 6.77 5.66 12.73
3/20/2021 12:15:00 AM 3.81 38.858 0.087 6.76 5.78 12.76
3/20/2021 12:30:00 AM 3.74 38.732 0.087 6.77 5.71 12.78
3/20/2021 12:45:00 AM 3.68 38.624 0.087 6.77 5.68 12.8
3/20/2021 1:00:00 AM 3.62 38.516 0.087 6.78 5.69 12.82
3/20/2021 1:15:00 AM 3.56 38.408 0.087 6.77 5.67 12.85
3/20/2021 1:30:00 AM 3.5 38.3 0.087 6.77 5.65 12.87
3/20/2021 1:45:00 AM 3.44 38.192 0.086 6.76 5.63 12.9
3/20/2021 2:00:00 AM 3.37 38.066 0.086 6.78 5.55 12.92
3/20/2021 2:15:00 AM 3.31 37.958 0.086 6.77 5.65 12.94
3/20/2021 2:30:00 AM 3.26 37.868 0.086 6.77 5.63 12.97
3/20/2021 2:45:00 AM 3.19 37.742 0.086 6.78 5.43 12.99
3/20/2021 3:00:00 AM 3.14 37.652 0.086 6.78 5.57 13.01
3/20/2021 3:15:00 AM 3.08 37.544 0.086 6.76 5.59 13.03
3/20/2021 3:30:00 AM 3.02 37.436 0.086 6.77 5.49 13.05
3/20/2021 3:45:00 AM 2.97 37.346 0.086 6.79 5.56 13.07
3/20/2021 4:00:00 AM 2.91 37.238 0.086 6.78 5.46 13.09
3/20/2021 4:15:00 AM 2.85 37.13 0.086 6.77 5.39 13.11
3/20/2021 4:30:00 AM 2.8 37.04 0.086 6.77 5.51 13.14
3/20/2021 4:45:00 AM 2.75 36.95 0.086 6.78 5.53 13.16
3/20/2021 5:00:00 AM 2.7 36.86 0.086 6.79 5.27 13.18
3/20/2021 5:15:00 AM 2.65 36.77 0.086 6.77 5.37 13.2
3/20/2021 5:30:00 AM 2.6 36.68 0.086 6.77 5.34 13.22
3/20/2021 5:45:00 AM 2.55 36.59 0.086 6.78 5.17 13.24
3/20/2021 6:00:00 AM 2.5 36.5 0.086 6.77 5.26 13.26
3/20/2021 6:15:00 AM 2.46 36.428 0.086 6.76 5.34 13.28
3/20/2021 6:30:00 AM 2.41 36.338 0.086 6.78 5.16 13.29
3/20/2021 6:45:00 AM 2.36 36.248 0.086 6.77 5.19 13.31
3/20/2021 7:00:00 AM 2.32 36.176 0.086 6.78 5.35 13.33
3/20/2021 7:15:00 AM 2.28 36.104 0.086 6.78 5.31 13.35
3/20/2021 7:30:00 AM 2.23 36.014 0.086 6.78 5.25 13.39
3/20/2021 7:45:00 AM 2.2 35.96 0.086 6.78 5.41 13.44
3/20/2021 8:00:00 AM 2.17 35.906 0.086 6.78 5.25 13.49
3/20/2021 8:15:00 AM 2.14 35.852 0.086 6.81 5.33 13.56
3/20/2021 8:30:00 AM 2.13 35.834 0.086 6.83 5.2 13.62
3/20/2021 8:45:00 AM 2.13 35.834 0.086 6.85 5.06 13.69
3/20/2021 9:00:00 AM 2.14 35.852 0.085 6.85 5.16 13.75
3/20/2021 9:15:00 AM 2.16 35.888 0.085 6.87 5.27 13.81
3/20/2021 9:30:00 AM 2.19 35.942 0.085 6.9 5.11 13.86
3/20/2021 9:45:00 AM 2.25 36.05 0.085 6.94 5.09 13.91
3/20/2021 10:00:00 AM 2.31 36.158 0.085 6.96 5.01 13.95
3/20/2021 10:15:00 AM 2.39 36.302 0.085 6.98 5.1 13.97
3/20/2021 10:30:00 AM 2.48 36.464 0.085 7.01 5.03 13.99
3/20/2021 10:45:00 AM 2.6 36.68 0.085 7.03 4.92 14.01
3/20/2021 11:00:00 AM 2.73 36.914 0.085 7.05 4.86 14.02
3/20/2021 11:15:00 AM 2.88 37.184 0.085 7.06 4.96 14.02
3/20/2021 11:30:00 AM 3.04 37.472 0.084 7.09 4.91 14.01
3/20/2021 11:45:00 AM 3.23 37.814 0.084 7.1 4.99 13.99
3/20/2021 12:00:00 PM 3.44 38.192 0.084 7.14 4.86 13.97
3/20/2021 12:15:00 PM 3.66 38.588 0.084 7.14 5.05 13.94
3/20/2021 12:30:00 PM 3.89 39.002 0.084 7.17 4.93 13.91
3/20/2021 12:45:00 PM 4.14 39.452 0.084 7.19 4.88 13.84
3/20/2021 1:00:00 PM 4.37 39.866 0.084 7.18 4.71 13.79
3/20/2021 1:15:00 PM 4.62 40.316 0.084 7.19 4.82 13.73
3/20/2021 1:30:00 PM 4.85 40.73 0.084 7.2 4.81 13.66
3/20/2021 1:45:00 PM 5.08 41.144 0.083 7.21 4.81 13.61
3/20/2021 2:00:00 PM 5.3 41.54 0.083 7.22 4.84 13.53
3/20/2021 2:15:00 PM 5.52 41.936 0.083 7.24 4.65 13.46
3/20/2021 2:30:00 PM 5.72 42.296 0.083 7.25 4.75 13.39
3/20/2021 2:45:00 PM 5.91 42.638 0.083 7.25 4.84 13.32
3/20/2021 3:00:00 PM 6.1 42.98 0.083 7.24 4.81 13.26
3/20/2021 3:15:00 PM 6.27 43.286 0.083 7.25 4.91 13.18
3/20/2021 3:30:00 PM 6.44 43.592 0.083 7.25 5.03 13.11
3/20/2021 3:45:00 PM 6.6 43.88 0.083 7.26 5.06 13.04
3/20/2021 4:00:00 PM 6.73 44.114 0.083 7.27 4.79 12.96
3/20/2021 4:15:00 PM 6.85 44.33 0.083 7.27 5.21 12.89
3/20/2021 4:30:00 PM 6.96 44.528 0.083 7.28 5.08 12.83
3/20/2021 4:45:00 PM 7.06 44.708 0.083 7.26 4.83 12.76
3/20/2021 5:00:00 PM 7.13 44.834 0.083 7.26 4.93 12.7
3/20/2021 5:15:00 PM 7.17 44.906 0.083 7.24 5 12.64
3/20/2021 5:30:00 PM 7.2 44.96 0.083 7.25 5.13 12.59
3/20/2021 5:45:00 PM 7.23 45.014 0.083 7.22 4.95 12.53
3/20/2021 6:00:00 PM 7.24 45.032 0.083 7.19 5.27 12.48
3/20/2021 6:15:00 PM 7.23 45.014 0.083 7.17 5.23 12.43
3/20/2021 6:30:00 PM 7.21 44.978 0.083 7.12 5.28 12.38
3/20/2021 6:45:00 PM 7.17 44.906 0.083 7.09 5.04 12.33
3/20/2021 7:00:00 PM 7.12 44.816 0.083 7.06 5.19 12.27
3/20/2021 7:15:00 PM 7.07 44.726 0.083 7.03 5.11 12.22
3/20/2021 7:30:00 PM 7 44.6 0.083 7 4.99 12.16
3/20/2021 7:45:00 PM 6.93 44.474 0.083 6.95 5.39 12.11
3/20/2021 8:00:00 PM 6.85 44.33 0.084 6.94 5.39 12.07
3/20/2021 8:15:00 PM 6.77 44.186 0.084 6.93 5.34 12.04
3/20/2021 8:30:00 PM 6.68 44.024 0.084 6.88 5.47 12.01
3/20/2021 8:45:00 PM 6.59 43.862 0.084 6.89 9.78 12.01
3/20/2021 9:00:00 PM 6.5 43.7 0.084 6.86 8.72 12
3/20/2021 9:15:00 PM 6.4 43.52 0.084 6.82 8.69 12
3/20/2021 9:30:00 PM 6.31 43.358 0.084 6.82 6.94 12
3/20/2021 9:45:00 PM 6.22 43.196 0.084 6.8 7.87 12
3/20/2021 10:00:00 PM 6.13 43.034 0.084 6.8 10.33 12.02
3/20/2021 10:15:00 PM 6.04 42.872 0.085 6.81 5.83 12.03
3/20/2021 10:30:00 PM 5.95 42.71 0.085 6.82 5.53 12.04
3/20/2021 10:45:00 PM 5.86 42.548 0.085 6.79 5.68 12.06
3/20/2021 11:00:00 PM 5.77 42.386 0.085 6.79 5.69 12.08
3/20/2021 11:15:00 PM 5.68 42.224 0.085 6.8 5.58 12.1
3/20/2021 11:30:00 PM 5.6 42.08 0.085 6.79 5.69 12.12
3/20/2021 11:45:00 PM 5.51 41.918 0.085 6.79 5.58 12.15
3/21/2021 12:00:00 AM 5.42 41.756 0.085 6.79 5.38 12.18
3/21/2021 12:15:00 AM 5.33 41.594 0.085 6.8 5.47 12.21
3/21/2021 12:30:00 AM 5.24 41.432 0.085 6.78 5.74 12.24
3/21/2021 12:45:00 AM 5.15 41.27 0.085 6.77 5.29 12.26
3/21/2021 1:00:00 AM 5.07 41.126 0.085 6.78 5.53 12.29
3/21/2021 1:15:00 AM 4.98 40.964 0.085 6.78 5.21 12.33
3/21/2021 1:30:00 AM 4.89 40.802 0.085 6.78 5.55 12.36
3/21/2021 1:45:00 AM 4.8 40.64 0.085 6.79 5.51 12.39
3/21/2021 2:00:00 AM 4.72 40.496 0.085 6.77 5.58 12.41
3/21/2021 2:15:00 AM 4.63 40.334 0.085 6.77 5.62 12.44
3/21/2021 2:30:00 AM 4.55 40.19 0.085 6.79 5.57 12.46
3/21/2021 2:45:00 AM 4.46 40.028 0.085 6.79 5.48 12.49
3/21/2021 3:00:00 AM 4.38 39.884 0.086 6.78 5.44 12.53
3/21/2021 3:15:00 AM 4.3 39.74 0.086 6.78 5.24 12.56
3/21/2021 3:30:00 AM 4.22 39.596 0.086 6.8 5.21 12.59
3/21/2021 3:45:00 AM 4.14 39.452 0.086 6.78 5.42 12.61
3/21/2021 4:00:00 AM 4.06 39.308 0.086 6.78 5.48 12.64
3/21/2021 4:15:00 AM 3.98 39.164 0.086 6.8 5.55 12.67
3/21/2021 4:30:00 AM 3.91 39.038 0.086 6.79 5.47 12.71
3/21/2021 4:45:00 AM 3.83 38.894 0.086 6.79 5.53 12.73
3/21/2021 5:00:00 AM 3.76 38.768 0.086 6.8 5.3 12.76
3/21/2021 5:15:00 AM 3.68 38.624 0.086 6.8 5.08 12.79
3/21/2021 5:30:00 AM 3.61 38.498 0.086 6.79 5.4 12.82
3/21/2021 5:45:00 AM 3.54 38.372 0.086 6.78 5.36 12.84
3/21/2021 6:00:00 AM 3.47 38.246 0.086 6.8 5.45 12.86
3/21/2021 6:15:00 AM 3.41 38.138 0.086 6.8 5.21 12.88
3/21/2021 6:30:00 AM 3.34 38.012 0.086 6.8 5.46 12.9
3/21/2021 6:45:00 AM 3.27 37.886 0.086 6.81 5.33 12.92
3/21/2021 7:00:00 AM 3.21 37.778 0.086 6.79 5.36 12.95
3/21/2021 7:15:00 AM 3.15 37.67 0.086 6.8 5.35 12.99
3/21/2021 7:30:00 AM 3.09 37.562 0.086 6.8 5.24 13.04
3/21/2021 7:45:00 AM 3.04 37.472 0.086 6.83 5.11 13.1
3/21/2021 8:00:00 AM 2.99 37.382 0.086 6.81 5.41 13.16
3/21/2021 8:15:00 AM 2.96 37.328 0.086 6.84 5.09 13.24
3/21/2021 8:30:00 AM 2.94 37.292 0.086 6.87 5.24 13.31
3/21/2021 8:45:00 AM 2.93 37.274 0.086 6.88 5.03 13.39
3/21/2021 9:00:00 AM 2.94 37.292 0.085 6.92 4.7 13.46
3/21/2021 9:15:00 AM 2.96 37.328 0.085 6.94 5.05 13.53
3/21/2021 9:30:00 AM 2.99 37.382 0.085 6.96 5.15 13.59
3/21/2021 9:45:00 AM 3.04 37.472 0.085 6.98 5.19 13.64
3/21/2021 10:00:00 AM 3.11 37.598 0.085 7.01 4.87 13.69
3/21/2021 10:15:00 AM 3.19 37.742 0.085 7.05 4.97 13.72
3/21/2021 10:30:00 AM 3.29 37.922 0.085 7.06 4.88 13.75
3/21/2021 10:45:00 AM 3.41 38.138 0.085 7.09 4.84 13.77
3/21/2021 11:00:00 AM 3.55 38.39 0.085 7.12 4.87 13.8
3/21/2021 11:15:00 AM 3.71 38.678 0.085 7.13 4.85 13.8
3/21/2021 11:30:00 AM 3.88 38.984 0.085 7.14 5.19 13.81
3/21/2021 11:45:00 AM 4.08 39.344 0.084 7.19 5 13.79
3/21/2021 12:00:00 PM 4.3 39.74 0.084 7.21 5.1 13.76
3/21/2021 12:15:00 PM 4.54 40.172 0.084 7.24 4.7 13.73
3/21/2021 12:30:00 PM 4.79 40.622 0.084 7.22 5.02 13.69
3/21/2021 12:45:00 PM 5.04 41.072 0.084 7.28 4.89 13.65
3/21/2021 1:00:00 PM 5.3 41.54 0.084 7.28 4.26 13.6
3/21/2021 1:15:00 PM 5.55 41.99 0.084 7.29 4.68 13.53
3/21/2021 1:30:00 PM 5.8 42.44 0.084 7.3 4.96 13.47
3/21/2021 1:45:00 PM 6.03 42.854 0.083 7.31 4.85 13.4
3/21/2021 2:00:00 PM 6.26 43.268 0.083 7.32 4.8 13.35
3/21/2021 2:15:00 PM 6.48 43.664 0.083 7.34 4.97 13.28
3/21/2021 2:30:00 PM 6.68 44.024 0.083 7.35 5.06 13.21
3/21/2021 2:45:00 PM 6.89 44.402 0.083 7.34 4.9 13.13
3/21/2021 3:00:00 PM 7.07 44.726 0.083 7.37 4.85 13.05
3/21/2021 3:15:00 PM 7.24 45.032 0.083 7.37 4.81 12.99
3/21/2021 3:30:00 PM 7.41 45.338 0.083 7.38 10.98 12.91
3/21/2021 3:45:00 PM 7.56 45.608 0.083 7.41 3.53 12.84
3/21/2021 4:00:00 PM 7.7 45.86 0.083 7.41 3.45 12.77
3/21/2021 4:15:00 PM 7.82 46.076 0.083 7.39 6.32 12.7
3/21/2021 4:30:00 PM 7.93 46.274 0.083 7.4 6.4 12.63
3/21/2021 4:45:00 PM 8.03 46.454 0.083 7.38 5.57 12.55
3/21/2021 5:00:00 PM 8.11 46.598 0.083 7.36 4.19 12.48
3/21/2021 5:15:00 PM 8.16 46.688 0.083 7.35 4.48 12.42
3/21/2021 5:30:00 PM 8.2 46.76 0.083 7.33 5.8 12.35
3/21/2021 5:45:00 PM 8.23 46.814 0.083 7.31 5.31 12.29
3/21/2021 6:00:00 PM 8.25 46.85 0.083 7.27 5.69 12.23
3/21/2021 6:15:00 PM 8.25 46.85 0.083 7.24 3.53 12.16
3/21/2021 6:30:00 PM 8.24 46.832 0.083 7.2 3.87 12.11
3/21/2021 6:45:00 PM 8.21 46.778 0.083 7.19 5.07 12.05
3/21/2021 7:00:00 PM 8.16 46.688 0.083 7.17 3.21 11.99
3/21/2021 7:15:00 PM 8.1 46.58 0.083 7.14 3.91 11.93
3/21/2021 7:30:00 PM 8.04 46.472 0.083 7.12 3.96 11.86
3/21/2021 7:45:00 PM 7.96 46.328 0.083 7.02 3.92 11.81
3/21/2021 8:00:00 PM 7.88 46.184 0.084 6.98 5.23 11.77
3/21/2021 8:15:00 PM 7.8 46.04 0.084 6.95 3.39 11.73
3/21/2021 8:30:00 PM 7.7 45.86 0.084 6.92 3.57 11.7
3/21/2021 8:45:00 PM 7.61 45.698 0.084 6.9 3.69 11.68
3/21/2021 9:00:00 PM 7.51 45.518 0.084 6.87 3.71 11.66
3/21/2021 9:15:00 PM 7.41 45.338 0.084 6.87 3.93 11.65
3/21/2021 9:30:00 PM 7.31 45.158 0.085 6.84 4.17 11.65
3/21/2021 9:45:00 PM 7.21 44.978 0.085 6.82 4.94 11.65
3/21/2021 10:00:00 PM 7.12 44.816 0.085 6.86 3.81 11.66
3/21/2021 10:15:00 PM 7.02 44.636 0.085 6.83 3.68 11.66
3/21/2021 10:30:00 PM 6.93 44.474 0.085 6.8 7.3 11.68
3/21/2021 10:45:00 PM 6.83 44.294 0.085 6.83 5.24 11.69
3/21/2021 11:00:00 PM 6.74 44.132 0.085 6.83 4.53 11.71
3/21/2021 11:15:00 PM 6.65 43.97 0.085 6.83 5.22 11.74
3/21/2021 11:30:00 PM 6.56 43.808 0.086 6.83 5.15 11.76
3/21/2021 11:45:00 PM 6.47 43.646 0.086 6.84 4.76 11.79
3/22/2021 12:00:00 AM 6.38 43.484 0.086 6.82 4.58 11.81
3/22/2021 12:15:00 AM 6.29 43.322 0.086 6.82 5.12 11.83
3/22/2021 12:30:00 AM 6.2 43.16 0.086 6.82 4.74 11.86
3/22/2021 12:45:00 AM 6.11 42.998 0.086 6.81 5.47 11.89
3/22/2021 1:00:00 AM 6.02 42.836 0.086 6.82 6.12 11.91
3/22/2021 1:15:00 AM 5.93 42.674 0.086 6.82 4.98 11.94
3/22/2021 1:30:00 AM 5.84 42.512 0.086 6.81 4.49 11.96
3/22/2021 1:45:00 AM 5.75 42.35 0.086 6.8 3.68 11.99
3/22/2021 2:00:00 AM 5.66 42.188 0.086 6.81 4.05 12.02
3/22/2021 2:15:00 AM 5.58 42.044 0.086 6.8 3.44 12.05
3/22/2021 2:30:00 AM 5.49 41.882 0.086 6.81 3.47 12.08
3/22/2021 2:45:00 AM 5.4 41.72 0.086 6.82 4.4 12.1
3/22/2021 3:00:00 AM 5.31 41.558 0.086 6.81 3.19 12.14
3/22/2021 3:15:00 AM 5.22 41.396 0.086 6.84 3.26 12.17
3/22/2021 3:30:00 AM 5.14 41.252 0.087 6.82 3.23 12.2
3/22/2021 3:45:00 AM 5.05 41.09 0.087 6.85 3.37 12.23
3/22/2021 4:00:00 AM 4.97 40.946 0.087 6.83 3.48 12.26
3/22/2021 4:15:00 AM 4.88 40.784 0.087 6.81 3.37 12.28
3/22/2021 4:30:00 AM 4.8 40.64 0.087 6.82 4.89 12.31
3/22/2021 4:45:00 AM 4.71 40.478 0.087 6.83 5.97 12.34
3/22/2021 5:00:00 AM 4.63 40.334 0.087 6.81 6.07 12.37
3/22/2021 5:15:00 AM 4.56 40.208 0.087 6.86 4.91 12.4
3/22/2021 5:30:00 AM 4.48 40.064 0.087 6.85 3.54 12.43
3/22/2021 5:45:00 AM 4.4 39.92 0.087 6.85 3.29 12.45
3/22/2021 6:00:00 AM 4.32 39.776 0.087 6.86 3.43 12.48
3/22/2021 6:15:00 AM 4.24 39.632 0.087 6.84 3.34 12.5
3/22/2021 6:30:00 AM 4.17 39.506 0.087 6.86 3.26 12.54
3/22/2021 6:45:00 AM 4.1 39.38 0.087 6.87 4.07 12.57
3/22/2021 7:00:00 AM 4.02 39.236 0.087 6.89 3.48 12.6
3/22/2021 7:15:00 AM 3.95 39.11 0.087 6.88 3.3 12.65
3/22/2021 7:30:00 AM 3.89 39.002 0.087 6.88 3.18 12.7
3/22/2021 7:45:00 AM 3.83 38.894 0.087 6.84 3.34 12.76
3/22/2021 8:00:00 AM 3.78 38.804 0.087 6.86 3.22 12.84
3/22/2021 8:15:00 AM 3.74 38.732 0.087 6.89 3.03 12.92
3/22/2021 8:30:00 AM 3.72 38.696 0.087 6.93 3.14 13
3/22/2021 8:45:00 AM 3.71 38.678 0.087 6.96 3.1 13.09
3/22/2021 9:00:00 AM 3.73 38.714 0.087 6.98 3.06 13.17
3/22/2021 9:15:00 AM 3.75 38.75 0.087 7.01 3.14 13.25
3/22/2021 9:30:00 AM 3.79 38.822 0.086 7.03 2.96 13.32
3/22/2021 9:45:00 AM 3.85 38.93 0.086 7.07 3.04 13.38
3/22/2021 10:00:00 AM 3.92 39.056 0.086 7.1 3.17 13.43
3/22/2021 10:15:00 AM 4.02 39.236 0.086 7.13 3.12 13.47
3/22/2021 10:30:00 AM 4.13 39.434 0.086 7.19 3.12 13.5
3/22/2021 10:45:00 AM 4.24 39.632 0.086 7.41 4.08 13.52
3/22/2021 11:00:00 AM 4.39 39.902 0.086 7.22 3.75 13.53
3/22/2021 11:15:00 AM 4.55 40.19 0.086 7.26 3.32 13.54
3/22/2021 11:30:00 AM 4.71 40.478 0.085 7.29 3.06 13.55
3/22/2021 11:45:00 AM 4.9 40.82 0.085 7.32 3.08 13.55
3/22/2021 12:00:00 PM 5.12 41.216 0.084 7.37 3.02 13.54
3/22/2021 12:15:00 PM 5.35 41.63 0.085 7.37 2.96 13.5
3/22/2021 12:30:00 PM 5.59 42.062 0.084 7.41 3.08 13.47
3/22/2021 12:45:00 PM 5.85 42.53 0.084 7.43 3.03 13.42
3/22/2021 1:00:00 PM 6.1 42.98 0.084 7.45 3.02 13.39
3/22/2021 1:15:00 PM 6.35 43.43 0.084 7.47 3.02 13.33
3/22/2021 1:30:00 PM 6.6 43.88 0.083 7.49 3.02 13.27
3/22/2021 1:45:00 PM 6.84 44.312 0.083 7.51 2.99 13.2
3/22/2021 2:00:00 PM 7.07 44.726 0.083 7.52 2.93 13.14
3/22/2021 2:15:00 PM 7.29 45.122 0.083 7.54 2.97 13.08
3/22/2021 2:30:00 PM 7.49 45.482 0.083 7.56 3.05 13.02
3/22/2021 2:45:00 PM 7.68 45.824 0.083 7.58 2.97 12.95
3/22/2021 3:00:00 PM 7.85 46.13 0.083 7.6 3.01 12.88
3/22/2021 3:15:00 PM 8.02 46.436 0.083 7.61 3.01 12.81
3/22/2021 3:30:00 PM 8.15 46.67 0.083 7.61 2.98 12.74
3/22/2021 3:45:00 PM 8.29 46.922 0.083 7.63 2.96 12.67
3/22/2021 4:00:00 PM 8.41 47.138 0.082 7.63 2.94 12.6
3/22/2021 4:15:00 PM 8.52 47.336 0.082 7.64 2.93 12.54
3/22/2021 4:30:00 PM 8.62 47.516 0.082 7.64 3.04 12.47
3/22/2021 4:45:00 PM 8.71 47.678 0.082 7.65 3.13 12.41
3/22/2021 5:00:00 PM 8.78 47.804 0.082 7.64 3.19 12.34
3/22/2021 5:15:00 PM 8.84 47.912 0.082 7.62 3.13 12.27
3/22/2021 5:30:00 PM 8.88 47.984 0.082 7.6 3.07 12.2
3/22/2021 5:45:00 PM 8.91 48.038 0.082 7.58 3.11 12.13
3/22/2021 6:00:00 PM 8.94 48.092 0.082 7.55 3.18 12.06
3/22/2021 6:15:00 PM 8.95 48.11 0.082 7.5 3.34 11.98
3/22/2021 6:30:00 PM 8.95 48.11 0.082 7.47 3.38 11.92
3/22/2021 6:45:00 PM 8.93 48.074 0.082 7.42 3.28 11.85
3/22/2021 7:00:00 PM 8.89 48.002 0.082 7.37 3.67 11.78
3/22/2021 7:15:00 PM 8.84 47.912 0.082 7.33 3.4 11.7
3/22/2021 7:30:00 PM 8.77 47.786 0.082 7.27 3.86 11.63
3/22/2021 7:45:00 PM 8.7 47.66 0.083 7.22 4.17 11.56
3/22/2021 8:00:00 PM 8.61 47.498 0.083 7.18 5.9 11.51
3/22/2021 8:15:00 PM 8.52 47.336 0.083 7.14 4.93 11.47
3/22/2021 8:30:00 PM 8.43 47.174 0.083 7.11 5.44 11.43
3/22/2021 8:45:00 PM 8.32 46.976 0.083 7.07 6.02 11.4
3/22/2021 9:00:00 PM 8.22 46.796 0.083 7.04 6.63 11.38
3/22/2021 9:15:00 PM 8.11 46.598 0.083 7.03 6.61 11.37
3/22/2021 9:30:00 PM 8 46.4 0.083 7.01 7.12 11.37
3/22/2021 9:45:00 PM 7.89 46.202 0.084 6.99 8.5 11.38
3/22/2021 10:00:00 PM 7.78 46.004 0.084 6.98 7.65 11.38
3/22/2021 10:15:00 PM 7.68 45.824 0.084 6.97 8.15 11.39
3/22/2021 10:30:00 PM 7.57 45.626 0.084 6.95 11.88 11.4
3/22/2021 10:45:00 PM 7.47 45.446 0.084 6.95 9.65 11.42
3/22/2021 11:00:00 PM 7.37 45.266 0.084 6.95 9.8 11.43
3/22/2021 11:15:00 PM 7.27 45.086 0.084 6.94 9.62 11.45
3/22/2021 11:30:00 PM 7.17 44.906 0.084 6.95 10.3 11.47
3/22/2021 11:45:00 PM 7.08 44.744 0.084 6.93 10.84 11.49
3/23/2021 12:00:00 AM 6.98 44.564 0.085 6.93 10.45 11.51
3/23/2021 12:15:00 AM 6.89 44.402 0.085 6.93 9.28 11.54
3/23/2021 12:30:00 AM 6.8 44.24 0.085 6.93 10.66 11.57
3/23/2021 12:45:00 AM 6.71 44.078 0.085 6.93 11.26 11.59
3/23/2021 1:00:00 AM 6.62 43.916 0.085 6.93 13.92 11.62
3/23/2021 1:15:00 AM 6.53 43.754 0.085 6.93 14.24 11.65
3/23/2021 1:30:00 AM 6.44 43.592 0.085 6.94 12.26 11.68
3/23/2021 1:45:00 AM 6.35 43.43 0.085 6.93 12.29 11.71
3/23/2021 2:00:00 AM 6.27 43.286 0.085 6.94 12.41 11.74
3/23/2021 2:15:00 AM 6.18 43.124 0.085 6.94 13.39 11.76
3/23/2021 2:30:00 AM 6.09 42.962 0.086 6.94 13.28 11.79
3/23/2021 2:45:00 AM 6.01 42.818 0.085 6.93 16.43 11.82
3/23/2021 3:00:00 AM 5.92 42.656 0.085 6.94 16.13 11.84
3/23/2021 3:15:00 AM 5.84 42.512 0.085 6.93 16.46 11.87
3/23/2021 3:30:00 AM 5.76 42.368 0.086 6.94 15.72 11.9
3/23/2021 3:45:00 AM 5.67 42.206 0.085 6.93 14.87 11.93
3/23/2021 4:00:00 AM 5.59 42.062 0.085 6.94 30.62 11.95
3/23/2021 4:15:00 AM 5.51 41.918 0.086 6.94 20.2 11.98
3/23/2021 4:30:00 AM 5.43 41.774 0.086 6.93 19.94 12.02
3/23/2021 4:45:00 AM 5.35 41.63 0.086 6.94 15.94 12.04
3/23/2021 5:00:00 AM 5.27 41.486 0.086 6.94 15.46 12.08
3/23/2021 5:15:00 AM 5.19 41.342 0.086 6.94 19.22 12.11
3/23/2021 5:30:00 AM 5.11 41.198 0.086 6.94 17.7 12.13
3/23/2021 5:45:00 AM 5.02 41.036 0.086 6.93 16.17 12.16
3/23/2021 6:00:00 AM 4.94 40.892 0.086 6.93 22.92 12.19
3/23/2021 6:15:00 AM 4.87 40.766 0.086 6.93 21.15 12.22
3/23/2021 6:30:00 AM 4.79 40.622 0.086 6.94 23.53 12.25
3/23/2021 6:45:00 AM 4.71 40.478 0.086 6.94 27.11 12.27
3/23/2021 7:00:00 AM 4.63 40.334 0.086 6.94 23.34 12.3
3/23/2021 7:15:00 AM 4.56 40.208 0.086 6.94 33.79 12.34
3/23/2021 7:30:00 AM 4.49 40.082 0.086 6.95 18.95 12.4
3/23/2021 7:45:00 AM 4.43 39.974 0.086 6.96 26.66 12.48
3/23/2021 8:00:00 AM 4.38 39.884 0.086 6.98 57.81 12.57
3/23/2021 8:15:00 AM 4.34 39.812 0.086 7 26.22 12.66
3/23/2021 8:30:00 AM 4.32 39.776 0.086 7.03 23.5 12.75
3/23/2021 8:45:00 AM 4.31 39.758 0.086 7.05 25.81 12.85
3/23/2021 9:00:00 AM 4.33 39.794 0.086 7.09 25.46 12.95
3/23/2021 9:15:00 AM 4.35 39.83 0.086 7.11 23.75 13.03
3/23/2021 9:30:00 AM 4.39 39.902 0.085 7.15 47.78 13.12
3/23/2021 9:45:00 AM 4.44 39.992 0.085 7.19 25.85 13.19
3/23/2021 10:00:00 AM 4.52 40.136 0.085 7.22 34.52 13.25
3/23/2021 10:15:00 AM 4.62 40.316 0.085 7.25 27.13 13.29
3/23/2021 10:30:00 AM 4.73 40.514 0.085 7.29 26.43 13.33
3/23/2021 10:45:00 AM 4.85 40.73 0.085 7.32 28.83 13.36
3/23/2021 11:00:00 AM 5 41 0.085 7.35 29.23 13.39
3/23/2021 11:15:00 AM 5.16 41.288 0.085 7.39 29.7 13.41
3/23/2021 11:30:00 AM 5.34 41.612 0.085 7.41 33.31 13.41
3/23/2021 11:45:00 AM 5.52 41.936 0.085 7.45 37.05 13.39
3/23/2021 12:00:00 PM 5.73 42.314 0.084 7.48 30.81 13.39
3/23/2021 12:15:00 PM 5.94 42.692 0.084 7.51 34.03 13.37
3/23/2021 12:30:00 PM 6.18 43.124 0.084 7.54 29.5 13.35
3/23/2021 12:45:00 PM 6.45 43.61 0.084 7.58 43.02 13.32
3/23/2021 1:00:00 PM 6.71 44.078 0.084 7.6 37.07 13.27
3/23/2021 1:15:00 PM 6.96 44.528 0.084 7.63 38.5 13.22
3/23/2021 1:30:00 PM 7.17 44.906 0.084 7.64 59.03 13.17
3/23/2021 1:45:00 PM 7.35 45.23 0.083 7.66 71.67 13.13
3/23/2021 2:00:00 PM 7.54 45.572 0.083 7.7 36.39 13.08
3/23/2021 2:15:00 PM 7.7 45.86 0.083 7.72 70.25 13.02
3/23/2021 2:30:00 PM 7.82 46.076 0.083 7.74 74.9 12.97
3/23/2021 2:45:00 PM 7.99 46.382 0.083 7.79 124.36 12.92
3/23/2021 3:00:00 PM 8.14 46.652 0.083 7.8 149.86 12.86
3/23/2021 3:15:00 PM 8.28 46.904 0.083 7.84 130.63 12.81
3/23/2021 3:30:00 PM 8.42 47.156 0.083 7.85 112.44 12.75
3/23/2021 3:45:00 PM 8.49 47.282 0.083 7.86 131.33 12.7
3/23/2021 4:00:00 PM 8.61 47.498 0.082 7.89 114.18 12.64
3/23/2021 4:15:00 PM 8.68 47.624 0.082 7.82 151.63 12.58
3/23/2021 4:30:00 PM 8.76 47.768 0.082 7.87 154.41 12.53
3/23/2021 4:45:00 PM 8.86 47.948 0.082 7.87 161.45 12.47
3/23/2021 5:00:00 PM 8.92 48.056 0.082 7.89 146.81 12.42
3/23/2021 5:15:00 PM 8.97 48.146 0.082 7.84 235.99 12.34
3/23/2021 5:30:00 PM 9.01 48.218 0.082 7.82 177.29 12.27
3/23/2021 5:45:00 PM 9.06 48.308 0.082 7.81 199.9 12.22
3/23/2021 6:00:00 PM 9.09 48.362 0.082 7.78 249.7 12.16
3/23/2021 6:15:00 PM 9.1 48.38 0.082 7.74 211.04 12.09
3/23/2021 6:30:00 PM 9.11 48.398 0.082 7.69 255.86 12.02
3/23/2021 6:45:00 PM 9.1 48.38 0.082 7.62 188.6 11.93
3/23/2021 7:00:00 PM 9.09 48.362 0.082 7.54 292.71 11.84
3/23/2021 7:15:00 PM 9.06 48.308 0.082 7.44 281.28 11.73
3/23/2021 7:30:00 PM 9.03 48.254 0.083 7.41 317.74 11.62
3/23/2021 7:45:00 PM 8.98 48.164 0.083 7.32 274.05 11.53
3/23/2021 8:00:00 PM 8.93 48.074 0.083 7.28 268.24 11.45
3/23/2021 8:15:00 PM 8.87 47.966 0.083 7.23 262.35 11.39
3/23/2021 8:30:00 PM 8.81 47.858 0.083 7.17 281.99 11.34
3/23/2021 8:45:00 PM 8.75 47.75 0.083 7.15 304 11.3
3/23/2021 9:00:00 PM 8.67 47.606 0.083 7.11 333.51 11.27
3/23/2021 9:15:00 PM 8.61 47.498 0.083 7.07 323.47 11.24
3/23/2021 9:30:00 PM 8.54 47.372 0.084 7.1 311.18 11.22
3/23/2021 9:45:00 PM 8.48 47.264 0.084 7.08 302.99 11.21
3/23/2021 10:00:00 PM 8.41 47.138 0.084 7.06 350.18 11.19
3/23/2021 10:15:00 PM 8.34 47.012 0.084 7.06 311.95 11.19
3/23/2021 10:30:00 PM 8.28 46.904 0.084 7.03 295.64 11.18
3/23/2021 10:45:00 PM 8.22 46.796 0.084 7.03 286.16 11.18
3/23/2021 11:00:00 PM 8.15 46.67 0.084 7.03 290.81 11.18
3/23/2021 11:15:00 PM 8.09 46.562 0.084 6.98 300.51 11.19
3/23/2021 11:30:00 PM 8.02 46.436 0.085 6.99 297.29 11.19
3/23/2021 11:45:00 PM 7.96 46.328 0.085 6.96 399.93 11.2
3/24/2021 12:00:00 AM 7.9 46.22 0.085 6.96 372.15 11.21
3/24/2021 12:15:00 AM 7.84 46.112 0.085 6.96 347.59 11.23
3/24/2021 12:30:00 AM 7.79 46.022 0.085 6.96 347.11 11.23
3/24/2021 12:45:00 AM 7.74 45.932 0.085 6.98 352.56 11.25
3/24/2021 1:00:00 AM 7.7 45.86 0.085 6.97 322.75 11.26
3/24/2021 1:15:00 AM 7.65 45.77 0.086 6.97 359.51 11.27
3/24/2021 1:30:00 AM 7.61 45.698 0.086 6.96 354.07 11.29
3/24/2021 1:45:00 AM 7.58 45.644 0.086 6.98 351.17 11.3
3/24/2021 2:00:00 AM 7.55 45.59 0.086 6.96 360.86 11.31
3/24/2021 2:15:00 AM 7.52 45.536 0.086 6.98 324.77 11.32
3/24/2021 2:30:00 AM 7.49 45.482 0.086 6.96 376.49 11.33
3/24/2021 2:45:00 AM 7.46 45.428 0.086 6.95 354.62 11.34
3/24/2021 3:00:00 AM 7.43 45.374 0.086 6.97 420.81 11.35
3/24/2021 3:15:00 AM 7.39 45.302 0.086 6.97 3.23 11.36
3/24/2021 3:30:00 AM 7.37 45.266 0.086 6.96 3.23 11.37
3/24/2021 3:45:00 AM 7.34 45.212 0.086 6.97 3.29 11.38
3/24/2021 4:00:00 AM 7.31 45.158 0.086 6.97 3.19 11.39
3/24/2021 4:15:00 AM 7.29 45.122 0.086 6.99 3.32 11.39
3/24/2021 4:30:00 AM 7.27 45.086 0.086 6.97 3.42 11.41
3/24/2021 4:45:00 AM 7.24 45.032 0.086 6.98 3.26 11.42
3/24/2021 5:00:00 AM 7.22 44.996 0.086 6.98 3.19 11.42
3/24/2021 5:15:00 AM 7.2 44.96 0.086 6.98 3.27 11.43
3/24/2021 5:30:00 AM 7.17 44.906 0.087 6.98 3.3 11.44
3/24/2021 5:45:00 AM 7.16 44.888 0.087 6.98 3.26 11.44
3/24/2021 6:00:00 AM 7.14 44.852 0.087 6.99 3.23 11.45
3/24/2021 6:15:00 AM 7.12 44.816 0.087 6.99 3.3 11.46
3/24/2021 6:30:00 AM 7.1 44.78 0.087 6.98 3.35 11.47
3/24/2021 6:45:00 AM 7.08 44.744 0.087 6.99 3.29 11.47
3/24/2021 7:00:00 AM 7.07 44.726 0.087 6.98 3.34 11.48
3/24/2021 7:15:00 AM 7.05 44.69 0.087 6.98 3.3 11.49
3/24/2021 7:30:00 AM 7.04 44.672 0.087 7 3.32 11.5
3/24/2021 7:45:00 AM 7.03 44.654 0.087 6.99 3.25 11.52
3/24/2021 8:00:00 AM 7.02 44.636 0.087 7.01 3.25 11.54
3/24/2021 8:15:00 AM 7.02 44.636 0.087 7.04 3.27 11.57
3/24/2021 8:30:00 AM 7.02 44.636 0.087 7.04 3.32 11.61
3/24/2021 8:45:00 AM 7.02 44.636 0.087 7.01 3.35 11.64
3/24/2021 9:00:00 AM 7.01 44.618 0.086 7.03 3.26 11.68
3/24/2021 9:15:00 AM 7.02 44.636 0.086 7.05 3.29 11.71
3/24/2021 9:30:00 AM 7.03 44.654 0.086 7.06 3.28 11.77
3/24/2021 9:45:00 AM 7.05 44.69 0.086 7.07 3.31 11.83
3/24/2021 10:00:00 AM 7.06 44.708 0.086 7.09 3.44 11.86
3/24/2021 10:15:00 AM 7.08 44.744 0.085 7.1 3.45 11.89
3/24/2021 10:30:00 AM 7.1 44.78 0.085 7.14 3.56 11.94
3/24/2021 10:45:00 AM 7.13 44.834 0.085 7.11 3.66 11.99
3/24/2021 11:00:00 AM 7.15 44.87 0.085 7.13 3.76 12.03
3/24/2021 11:15:00 AM 7.19 44.942 0.085 7.19 3.85 12.1
3/24/2021 11:30:00 AM 7.23 45.014 0.085 7.2 4.23 12.18
3/24/2021 11:45:00 AM 7.27 45.086 0.084 7.24 4.49 12.22
3/24/2021 12:00:00 PM 7.32 45.176 0.084 7.25 4.35 12.26
3/24/2021 12:15:00 PM 7.38 45.284 0.084 7.27 4.9 12.29
3/24/2021 12:30:00 PM 7.43 45.374 0.084 7.28 5.45 12.3
3/24/2021 12:45:00 PM 7.49 45.482 0.085 7.31 6.67 12.32
3/24/2021 1:00:00 PM 7.57 45.626 0.085 7.34 7.04 12.34
3/24/2021 1:15:00 PM 7.66 45.788 0.085 7.41 9.07 12.36
3/24/2021 1:30:00 PM 7.71 45.878 0.087 7.36 8.48 12.34
3/24/2021 1:45:00 PM 7.78 46.004 0.088 7.39 9.78 12.33
3/24/2021 2:00:00 PM 7.86 46.148 0.09 7.42 10.87 12.31
3/24/2021 2:15:00 PM 7.93 46.274 0.092 7.47 17.33 12.27
3/24/2021 2:30:00 PM 7.98 46.364 0.092 7.49 15.35 12.22
3/24/2021 2:45:00 PM 8.04 46.472 0.093 7.49 16.48 12.19
3/24/2021 3:00:00 PM 8.09 46.562 0.092 7.49 156.31 12.17
3/24/2021 3:15:00 PM 8.13 46.634 0.092 7.48 425.21 12.14
3/24/2021 3:30:00 PM 8.18 46.724 0.091 7.47 517.3 12.12
3/24/2021 3:45:00 PM 8.22 46.796 0.09 7.47 721.05 12.1
3/24/2021 4:00:00 PM 8.25 46.85 0.089 7.45 643.45 12.05
3/24/2021 4:15:00 PM 8.28 46.904 0.088 7.45 350.61 12
3/24/2021 4:30:00 PM 8.31 46.958 0.087 7.42 677.96 11.97
3/24/2021 4:45:00 PM 8.34 47.012 0.087 7.44 727.5 11.97
3/24/2021 5:00:00 PM 8.36 47.048 0.086 7.41 728.92 11.96
3/24/2021 5:15:00 PM 8.39 47.102 0.085 7.44 776.3 11.94
3/24/2021 5:30:00 PM 8.42 47.156 0.085 7.39 696.23 11.9
3/24/2021 5:45:00 PM 8.43 47.174 0.085 7.39 836.2 11.86
3/24/2021 6:00:00 PM 8.44 47.192 0.084 7.36 855.33 11.81
3/24/2021 6:15:00 PM 8.44 47.192 0.084 7.33 851.18 11.76
3/24/2021 6:30:00 PM 8.44 47.192 0.084 7.3 795.2 11.71
3/24/2021 6:45:00 PM 8.45 47.21 0.084 7.29 740.91 11.65
3/24/2021 7:00:00 PM 8.46 47.228 0.084 7.28 870.06 11.59
3/24/2021 7:15:00 PM 8.46 47.228 0.084 7.26 920.47 11.52
3/24/2021 7:30:00 PM 8.47 47.246 0.085 7.22 839.85 11.46
3/24/2021 7:45:00 PM 8.48 47.264 0.085 7.21 647.53 11.4
3/24/2021 8:00:00 PM 8.49 47.282 0.086 7.19 889.08 11.34
3/24/2021 8:15:00 PM 8.49 47.282 0.086 7.17 1567.03 11.29
3/24/2021 8:30:00 PM 8.5 47.3 0.087 7.15 863.54 11.25
3/24/2021 8:45:00 PM 8.51 47.318 0.087 7.14 875.64 11.22
3/24/2021 9:00:00 PM 8.51 47.318 0.087 7.14 135.77 11.18
3/24/2021 9:15:00 PM 8.51 47.318 0.087 7.13 140.49 11.16
3/24/2021 9:30:00 PM 8.51 47.318 0.087 7.12 170.35 11.14
3/24/2021 9:45:00 PM 8.5 47.3 0.087 7.09 180.88 11.12
3/24/2021 10:00:00 PM 8.5 47.3 0.087 7.09 223.73 11.11
3/24/2021 10:15:00 PM 8.5 47.3 0.086 7.09 187.54 11.1
3/24/2021 10:30:00 PM 8.49 47.282 0.086 7.08 167.32 11.1
3/24/2021 10:45:00 PM 8.48 47.264 0.086 7.06 197.07 11.09
3/24/2021 11:00:00 PM 8.47 47.246 0.086 7.05 214.32 11.09
3/24/2021 11:15:00 PM 8.46 47.228 0.086 7.05 229.86 11.09
3/24/2021 11:30:00 PM 8.44 47.192 0.086 7.04 221.2 11.09
3/24/2021 11:45:00 PM 8.42 47.156 0.086 7.03 231.59 11.09
3/25/2021 12:00:00 AM 8.41 47.138 0.086 7.03 251.68 11.09
3/25/2021 12:15:00 AM 8.4 47.12 0.086 7.03 236.19 11.09
3/25/2021 12:30:00 AM 8.38 47.084 0.086 7.02 283.26 11.1
3/25/2021 12:45:00 AM 8.37 47.066 0.086 7.02 264.2 11.09
3/25/2021 1:00:00 AM 8.35 47.03 0.086 7.02 263.02 11.1
3/25/2021 1:15:00 AM 8.34 47.012 0.086 6.99 296.27 11.1
3/25/2021 1:30:00 AM 8.33 46.994 0.086 7.01 1726.36 11.1
3/25/2021 1:45:00 AM 8.31 46.958 0.086 6.98 37.51 11.1
3/25/2021 2:00:00 AM 8.3 46.94 0.086 7 40.4 11.11
3/25/2021 2:15:00 AM 8.28 46.904 0.086 7 55.61 11.11
3/25/2021 2:30:00 AM 8.26 46.868 0.086 6.99 43.04 11.11
3/25/2021 2:45:00 AM 8.25 46.85 0.086 6.97 45.2 11.12
3/25/2021 3:00:00 AM 8.23 46.814 0.086 6.98 51.18 11.12
3/25/2021 3:15:00 AM 8.22 46.796 0.086 6.97 78.74 11.13
3/25/2021 3:30:00 AM 8.21 46.778 0.086 6.99 71.52 11.13
3/25/2021 3:45:00 AM 8.19 46.742 0.086 6.96 72.15 11.14
3/25/2021 4:00:00 AM 8.18 46.724 0.086 6.98 91.4 11.14
3/25/2021 4:15:00 AM 8.17 46.706 0.086 6.98 90.18 11.14
3/25/2021 4:30:00 AM 8.15 46.67 0.086 6.99 101.92 11.14
3/25/2021 4:45:00 AM 8.14 46.652 0.086 6.99 99.42 11.15
3/25/2021 5:00:00 AM 8.13 46.634 0.086 6.96 29.75 11.16
3/25/2021 5:15:00 AM 8.12 46.616 0.086 6.98 16.74 11.16
3/25/2021 5:30:00 AM 8.1 46.58 0.087 6.97 22.46 11.16
3/25/2021 5:45:00 AM 8.09 46.562 0.086 6.96 18.68 11.16
3/25/2021 6:00:00 AM 8.08 46.544 0.086 6.98 540.77 11.17
3/25/2021 6:15:00 AM 8.07 46.526 0.087 6.98 730.27 11.18
3/25/2021 6:30:00 AM 8.06 46.508 0.087 6.96 23.48 11.18
3/25/2021 6:45:00 AM 8.05 46.49 0.086 6.98 30.44 11.18
3/25/2021 7:00:00 AM 8.04 46.472 0.087 6.96 1805.69 11.19
3/25/2021 7:15:00 AM 8.03 46.454 0.087 6.98 1660.82 11.2
3/25/2021 7:30:00 AM 8.03 46.454 0.087 6.97 36.83 11.22
3/25/2021 7:45:00 AM 8.02 46.436 0.087 6.97 747.53 11.25
3/25/2021 8:00:00 AM 8.02 46.436 0.087 6.98 40.09 11.29
3/25/2021 8:15:00 AM 8.02 46.436 0.087 6.99 46 11.34
3/25/2021 8:30:00 AM 8.03 46.454 0.087 7.01 30.15 11.4
3/25/2021 8:45:00 AM 8.04 46.472 0.087 7.03 41.81 11.47
3/25/2021 9:00:00 AM 8.06 46.508 0.087 7.06 289.56 11.53
3/25/2021 9:15:00 AM 8.07 46.526 0.087 7.06 59.76 11.59
3/25/2021 9:30:00 AM 8.09 46.562 0.087 7.1 165.63 11.65
3/25/2021 9:45:00 AM 8.12 46.616 0.087 7.13 22.04 11.71
3/25/2021 10:00:00 AM 8.15 46.67 0.087 7.14 21.28 11.76
3/25/2021 10:15:00 AM 8.18 46.724 0.087 7.17 26.24 11.82
3/25/2021 10:30:00 AM 8.23 46.814 0.086 7.22 34.07 11.89
3/25/2021 10:45:00 AM 8.27 46.886 0.086 7.24 4.48 11.95
3/25/2021 11:00:00 AM 8.32 46.976 0.086 7.28 20.88 12.01
3/25/2021 11:15:00 AM 8.37 47.066 0.086 7.25 16.58 12.06
3/25/2021 11:30:00 AM 8.43 47.174 0.086 7.3 16.88 12.1
3/25/2021 11:45:00 AM 8.49 47.282 0.086 7.32 17.38 12.14
3/25/2021 12:00:00 PM 8.58 47.444 0.086 7.39 18.82 12.18
3/25/2021 12:15:00 PM 8.67 47.606 0.086 7.41 20.12 12.22
3/25/2021 12:30:00 PM 8.83 47.894 0.086 7.48 20.38 12.25
3/25/2021 12:45:00 PM 8.87 47.966 0.085 7.5 20.64 12.26
3/25/2021 1:00:00 PM 8.94 48.092 0.086 7.53 22.48 12.26
3/25/2021 1:15:00 PM 9.11 48.398 0.085 7.62 87.23 12.27
3/25/2021 1:30:00 PM 9.28 48.704 0.085 7.65 84.26 12.27
3/25/2021 1:45:00 PM 9.43 48.974 0.085 7.71 78.43 12.27
3/25/2021 2:00:00 PM 9.59 49.262 0.085 7.76 67.61 12.26
3/25/2021 2:15:00 PM 9.82 49.676 0.085 7.79 85.06 12.24
3/25/2021 2:30:00 PM 9.94 49.892 0.085 7.8 83.14 12.22
3/25/2021 2:45:00 PM 10.1 50.18 0.085 7.84 32.14 12.19
3/25/2021 3:00:00 PM 10.26 50.468 0.085 7.88 30.15 12.15
3/25/2021 3:15:00 PM 10.37 50.666 0.085 7.89 29.31 12.11
3/25/2021 3:30:00 PM 10.44 50.792 0.085 7.91 32.51 12.07
3/25/2021 3:45:00 PM 10.51 50.918 0.085 7.92 31.99 12.03
3/25/2021 4:00:00 PM 10.59 51.062 0.085 7.93 31.14 11.98
3/25/2021 4:15:00 PM 10.67 51.206 0.085 7.96 32.75 11.93
3/25/2021 4:30:00 PM 10.74 51.332 0.084 7.97 33.64 11.89
3/25/2021 4:45:00 PM 10.79 51.422 0.084 7.97 34.48 11.85
3/25/2021 5:00:00 PM 10.83 51.494 0.084 7.96 35.71 11.8
3/25/2021 5:15:00 PM 10.87 51.566 0.084 7.93 37.1 11.73
3/25/2021 5:30:00 PM 10.92 51.656 0.084 7.91 47.16 11.66
3/25/2021 5:45:00 PM 10.96 51.728 0.084 7.85 38.88 11.58
3/25/2021 6:00:00 PM 10.97 51.746 0.085 7.79 42.02 11.49
3/25/2021 6:15:00 PM 10.99 51.782 0.085 7.74 43.53 11.4
3/25/2021 6:30:00 PM 10.99 51.782 0.085 7.66 42.26 11.31
3/25/2021 6:45:00 PM 10.99 51.782 0.085 7.59 34.64 11.22
3/25/2021 7:00:00 PM 10.97 51.746 0.085 7.52 35.07 11.11
3/25/2021 7:15:00 PM 10.95 51.71 0.085 7.45 36.15 11.01
3/25/2021 7:30:00 PM 10.91 51.638 0.085 7.37 35.68 10.91
3/25/2021 7:45:00 PM 10.88 51.584 0.085 7.32 35.53 10.83
3/25/2021 8:00:00 PM 10.84 51.512 0.085 7.27 38.65 10.76
3/25/2021 8:15:00 PM 10.79 51.422 0.085 7.23 39.2 10.7
3/25/2021 8:30:00 PM 10.75 51.35 0.085 7.2 39.34 10.66
3/25/2021 8:45:00 PM 10.71 51.278 0.085 7.18 41.42 10.62
3/25/2021 9:00:00 PM 10.67 51.206 0.086 7.16 43.53 10.59
3/25/2021 9:15:00 PM 10.64 51.152 0.086 7.13 45.68 10.56
3/25/2021 9:30:00 PM 10.6 51.08 0.086 7.13 45.15 10.54
3/25/2021 9:45:00 PM 10.57 51.026 0.086 7.1 46.85 10.52
3/25/2021 10:00:00 PM 10.53 50.954 0.086 7.1 48.22 10.51
3/25/2021 10:15:00 PM 10.51 50.918 0.086 7.09 48 10.5
3/25/2021 10:30:00 PM 10.48 50.864 0.086 7.09 50.18 10.49
3/25/2021 10:45:00 PM 10.46 50.828 0.086 7.09 50.53 10.48
3/25/2021 11:00:00 PM 10.44 50.792 0.086 7.09 51.54 10.48
3/25/2021 11:15:00 PM 10.41 50.738 0.086 7.08 49.99 10.48
3/25/2021 11:30:00 PM 10.38 50.684 0.087 7.07 61.04 10.47
3/25/2021 11:45:00 PM 10.36 50.648 0.087 7.05 57.54 10.48
3/26/2021 12:00:00 AM 10.34 50.612 0.087 7.06 55.15 10.48
3/26/2021 12:15:00 AM 10.32 50.576 0.087 7.06 54.73 10.48
3/26/2021 12:30:00 AM 10.3 50.54 0.087 7.05 63.96 10.48
3/26/2021 12:45:00 AM 10.27 50.486 0.087 7.04 77.91 10.48
3/26/2021 1:00:00 AM 10.25 50.45 0.087 7.04 86.39 10.48
3/26/2021 1:15:00 AM 10.23 50.414 0.087 7.03 80.82 10.49
3/26/2021 1:30:00 AM 10.21 50.378 0.087 7.04 111.15 10.49
3/26/2021 1:45:00 AM 10.18 50.324 0.087 7.06 64.1 10.49
3/26/2021 2:00:00 AM 10.16 50.288 0.087 7.06 69.71 10.5
3/26/2021 2:15:00 AM 10.14 50.252 0.087 7.06 70.22 10.5
3/26/2021 2:30:00 AM 10.12 50.216 0.087 7.06 68.69 10.5
3/26/2021 2:45:00 AM 10.1 50.18 0.087 7.05 70.76 10.51
3/26/2021 3:00:00 AM 10.08 50.144 0.087 7.05 73 10.51
3/26/2021 3:15:00 AM 10.05 50.09 0.087 7.05 72 10.52
3/26/2021 3:30:00 AM 10.03 50.054 0.087 7.06 72.53 10.52
3/26/2021 3:45:00 AM 10.01 50.018 0.087 7.03 68.66 10.53
3/26/2021 4:00:00 AM 9.99 49.982 0.087 7.05 73.41 10.54
3/26/2021 4:15:00 AM 9.98 49.964 0.087 7.07 72.48 10.54
3/26/2021 4:30:00 AM 9.96 49.928 0.087 7.06 77.51 10.54
3/26/2021 4:45:00 AM 9.94 49.892 0.087 7.06 76.51 10.54
3/26/2021 5:00:00 AM 9.92 49.856 0.087 7.05 78.44 10.55
3/26/2021 5:15:00 AM 9.89 49.802 0.087 7.05 79.74 10.55
3/26/2021 5:30:00 AM 9.89 49.802 0.087 7.07 77.39 10.55
3/26/2021 5:45:00 AM 9.87 49.766 0.087 7.06 78.89 10.55
3/26/2021 6:00:00 AM 9.86 49.748 0.087 7.07 80.02 10.56
3/26/2021 6:15:00 AM 9.85 49.73 0.087 7.05 79.62 10.56
3/26/2021 6:30:00 AM 9.83 49.694 0.087 7.06 79.52 10.56
3/26/2021 6:45:00 AM 9.82 49.676 0.087 7.06 85.9 10.56
3/26/2021 7:00:00 AM 9.81 49.658 0.087 7.05 79.98 10.56
3/26/2021 7:15:00 AM 9.8 49.64 0.087 7.07 80.77 10.58
3/26/2021 7:30:00 AM 9.79 49.622 0.087 7.07 81.73 10.61
3/26/2021 7:45:00 AM 9.8 49.64 0.087 7.08 83.5 10.66
3/26/2021 8:00:00 AM 9.83 49.694 0.087 7.12 82.96 10.74
3/26/2021 8:15:00 AM 9.86 49.748 0.087 7.15 404.27 10.84
3/26/2021 8:30:00 AM 9.88 49.784 0.087 7.17 84.7 10.89
3/26/2021 8:45:00 AM 9.92 49.856 0.087 7.19 89.41 10.97
3/26/2021 9:00:00 AM 9.99 49.982 0.087 7.24 85.92 11.06
3/26/2021 9:15:00 AM 10.08 50.144 0.087 7.29 92.66 11.14
3/26/2021 9:30:00 AM 10.17 50.306 0.087 7.32 90.78 11.2
3/26/2021 9:45:00 AM 10.25 50.45 0.087 7.35 87.27 11.25
3/26/2021 10:00:00 AM 10.36 50.648 0.087 7.39 83.94 11.32
3/26/2021 10:15:00 AM 10.48 50.864 0.086 7.43 87.87 11.38
3/26/2021 10:30:00 AM 10.56 51.008 0.086 7.47 91.17 11.41
3/26/2021 10:45:00 AM 10.67 51.206 0.086 7.52 86.43 11.43
3/26/2021 11:00:00 AM 10.73 51.314 0.086 7.52 40.38 11.43
3/26/2021 11:15:00 AM 10.86 51.548 0.086 7.58 85.1 11.45
3/26/2021 11:30:00 AM 10.97 51.746 0.086 7.61 87.6 11.47
3/26/2021 11:45:00 AM 11.11 51.998 0.086 7.67 88.88 11.49
3/26/2021 12:00:00 PM 11.23 52.214 0.086 7.72 88.47 11.52
3/26/2021 12:15:00 PM 11.38 52.484 0.086 7.75 88.16 11.53
3/26/2021 12:30:00 PM 11.48 52.664 0.085 7.8 87.57 11.54
3/26/2021 12:45:00 PM 11.67 53.006 0.085 7.85 88.15 11.53
3/26/2021 1:00:00 PM 11.75 53.15 0.085 7.89 88.02 11.51
3/26/2021 1:15:00 PM 11.84 53.312 0.085 7.92 82.21 11.5
3/26/2021 1:30:00 PM 11.88 53.384 0.085 7.92 109.87 11.47
3/26/2021 1:45:00 PM 11.96 53.528 0.085 7.97 126.39 11.45
3/26/2021 2:00:00 PM 12.02 53.636 0.085 7.97 80.75 11.43
3/26/2021 2:15:00 PM 12.09 53.762 0.084 8.03 84.7 11.42
3/26/2021 2:30:00 PM 12.13 53.834 0.084 8.02 73.48 11.4
3/26/2021 2:45:00 PM 12.17 53.906 0.084 8.04 77.78 11.38
3/26/2021 3:00:00 PM 12.19 53.942 0.084 8.05 74.52 11.35
3/26/2021 3:15:00 PM 12.18 53.924 0.084 7.99 73.16 11.27
3/26/2021 3:30:00 PM 12.19 53.942 0.084 8 72.63 11.23
3/26/2021 3:45:00 PM 12.19 53.942 0.083 7.95 80.04 11.18
3/26/2021 4:00:00 PM 12.19 53.942 0.083 7.93 83.15 11.16
3/26/2021 4:15:00 PM 12.18 53.924 0.084 7.95 77.83 11.16
3/26/2021 4:30:00 PM 12.21 53.978 0.084 7.96 79.76 11.17
3/26/2021 4:45:00 PM 12.2 53.96 0.084 7.97 79.54 11.17
3/26/2021 5:00:00 PM 12.19 53.942 0.084 7.94 79.54 11.14
3/26/2021 5:15:00 PM 12.19 53.942 0.083 7.96 77.5 11.15
3/26/2021 5:30:00 PM 12.17 53.906 0.083 7.95 78.31 11.14
3/26/2021 5:45:00 PM 12.11 53.798 0.084 7.88 86.69 11.1
3/26/2021 6:00:00 PM 12.06 53.708 0.084 7.85 73 11.08
3/26/2021 6:15:00 PM 12 53.6 0.084 7.8 71.55 11.05
3/26/2021 6:30:00 PM 11.93 53.474 0.084 7.74 75.04 11
3/26/2021 6:45:00 PM 11.85 53.33 0.084 7.65 77.66 10.93
3/26/2021 7:00:00 PM 11.77 53.186 0.084 7.59 74.59 10.85
3/26/2021 7:15:00 PM 11.68 53.024 0.084 7.51 74.51 10.78
3/26/2021 7:30:00 PM 11.59 52.862 0.084 7.45 74.53 10.7
3/26/2021 7:45:00 PM 11.51 52.718 0.084 7.39 74.5 10.63
3/26/2021 8:00:00 PM 11.41 52.538 0.084 7.35 73.56 10.58
3/26/2021 8:15:00 PM 11.33 52.394 0.085 7.32 73.44 10.53
3/26/2021 8:30:00 PM 11.26 52.268 0.085 7.28 72.87 10.48
3/26/2021 8:45:00 PM 11.18 52.124 0.085 7.25 72.81 10.46
3/26/2021 9:00:00 PM 11.11 51.998 0.085 7.24 72.69 10.43
3/26/2021 9:15:00 PM 11.04 51.872 0.085 7.22 76.21 10.41
3/26/2021 9:30:00 PM 10.97 51.746 0.085 7.2 77.25 10.41
3/26/2021 9:45:00 PM 10.89 51.602 0.085 7.19 72.91 10.4
3/26/2021 10:00:00 PM 10.82 51.476 0.085 7.17 72.87 10.4
3/26/2021 10:15:00 PM 10.74 51.332 0.085 7.16 74.55 10.41
3/26/2021 10:30:00 PM 10.67 51.206 0.086 7.16 73.42 10.42
3/26/2021 10:45:00 PM 10.6 51.08 0.086 7.15 73.74 10.42
3/26/2021 11:00:00 PM 10.53 50.954 0.086 7.14 74.84 10.44
3/26/2021 11:15:00 PM 10.46 50.828 0.086 7.14 75.06 10.46
3/26/2021 11:30:00 PM 10.39 50.702 0.086 7.14 73.68 10.47
3/26/2021 11:45:00 PM 10.32 50.576 0.086 7.13 73.41 10.48
3/27/2021 12:00:00 AM 10.25 50.45 0.086 7.13 73.15 10.51
3/27/2021 12:15:00 AM 10.18 50.324 0.086 7.12 76 10.52
3/27/2021 12:30:00 AM 10.11 50.198 0.086 7.11 75.38 10.54
3/27/2021 12:45:00 AM 10.04 50.072 0.086 7.12 73.52 10.56
3/27/2021 1:00:00 AM 9.96 49.928 0.086 7.11 74.46 10.57
3/27/2021 1:15:00 AM 9.89 49.802 0.086 7.1 76.4 10.59
3/27/2021 1:30:00 AM 9.81 49.658 0.086 7.09 74.47 10.61
3/27/2021 1:45:00 AM 9.73 49.514 0.086 7.1 77.75 10.63
3/27/2021 2:00:00 AM 9.66 49.388 0.086 7.09 73.38 10.65
3/27/2021 2:15:00 AM 9.57 49.226 0.086 7.08 75.46 10.67
3/27/2021 2:30:00 AM 9.5 49.1 0.086 7.09 74.47 10.69
3/27/2021 2:45:00 AM 9.44 48.992 0.086 7.09 73.22 10.71
3/27/2021 3:00:00 AM 9.37 48.866 0.086 7.07 76.24 10.73
3/27/2021 3:15:00 AM 9.31 48.758 0.086 7.08 77.05 10.75
3/27/2021 3:30:00 AM 9.25 48.65 0.086 7.09 76.23 10.77
3/27/2021 3:45:00 AM 9.2 48.56 0.086 7.09 76.04 10.78
3/27/2021 4:00:00 AM 9.15 48.47 0.086 7.09 78.18 10.8
3/27/2021 4:15:00 AM 9.11 48.398 0.086 7.1 77.53 10.82
3/27/2021 4:30:00 AM 9.06 48.308 0.086 7.1 82.35 10.84
3/27/2021 4:45:00 AM 9.02 48.236 0.086 7.1 81.16 10.85
3/27/2021 5:00:00 AM 8.98 48.164 0.086 7.09 79.51 10.86
3/27/2021 5:15:00 AM 8.93 48.074 0.086 7.09 82.07 10.88
3/27/2021 5:30:00 AM 8.87 47.966 0.086 7.09 79.08 10.89
3/27/2021 5:45:00 AM 8.82 47.876 0.086 7.09 84.08 10.91
3/27/2021 6:00:00 AM 8.77 47.786 0.086 7.09 86.77 10.93
3/27/2021 6:15:00 AM 8.72 47.696 0.086 7.09 82.63 10.94
3/27/2021 6:30:00 AM 8.67 47.606 0.086 7.09 87.15 10.96
3/27/2021 6:45:00 AM 8.62 47.516 0.086 7.09 88.18 10.97
3/27/2021 7:00:00 AM 8.56 47.408 0.086 7.09 87.82 10.99
3/27/2021 7:15:00 AM 8.5 47.3 0.086 7.1 96.62 11.03
3/27/2021 7:30:00 AM 8.46 47.228 0.086 7.1 86.45 11.08
3/27/2021 7:45:00 AM 8.42 47.156 0.086 7.11 87.24 11.16
3/27/2021 8:00:00 AM 8.38 47.084 0.086 7.11 83.46 11.24
3/27/2021 8:15:00 AM 8.36 47.048 0.086 7.14 83.04 11.33
3/27/2021 8:30:00 AM 8.34 47.012 0.086 7.16 85.66 11.41
3/27/2021 8:45:00 AM 8.34 47.012 0.086 7.21 83.74 11.48
3/27/2021 9:00:00 AM 8.36 47.048 0.086 7.24 82.3 11.6
3/27/2021 9:15:00 AM 8.39 47.102 0.086 7.27 86.33 11.69
3/27/2021 9:30:00 AM 8.44 47.192 0.086 7.33 98.74 11.78
3/27/2021 9:45:00 AM 8.5 47.3 0.085 7.38 89.58 11.85
3/27/2021 10:00:00 AM 8.58 47.444 0.085 7.4 84.97 11.91
3/27/2021 10:15:00 AM 8.65 47.57 0.084 7.44 110.25 11.96
3/27/2021 10:30:00 AM 8.75 47.75 0.082 7.5 121.25 12.01
3/27/2021 10:45:00 AM 8.84 47.912 0.085 7.51 94.59 12.03
3/27/2021 11:00:00 AM 8.87 47.966 0.085 7.52 119.74 12.06
3/27/2021 11:15:00 AM 8.92 48.056 0.085 7.55 112.67 12.09
3/27/2021 11:30:00 AM 9.06 48.308 0.085 7.63 110.98 12.13
3/27/2021 11:45:00 AM 9.23 48.614 0.084 7.67 101.88 12.14
3/27/2021 12:00:00 PM 9.44 48.992 0.084 7.74 92.23 12.17
3/27/2021 12:15:00 PM 9.6 49.28 0.084 7.77 100.84 12.15
3/27/2021 12:30:00 PM 9.69 49.442 0.084 7.79 108.83 12.13
3/27/2021 12:45:00 PM 9.93 49.874 0.084 7.88 87.74 12.13
3/27/2021 1:00:00 PM 10.09 50.162 0.084 7.84 94.74 12.1
3/27/2021 1:15:00 PM 10.31 50.558 0.084 7.91 122.82 12.07
3/27/2021 1:30:00 PM 10.49 50.882 0.084 7.96 115.46 12.05
3/27/2021 1:45:00 PM 10.63 51.134 0.084 7.97 82.54 12
3/27/2021 2:00:00 PM 10.81 51.458 0.083 8.05 94.19 11.98
3/27/2021 2:15:00 PM 11.04 51.872 0.083 8.1 98.53 11.94
3/27/2021 2:30:00 PM 11.26 52.268 0.083 8.13 117.66 11.91
3/27/2021 2:45:00 PM 11.42 52.556 0.084 8.11 105.81 11.86
3/27/2021 3:00:00 PM 11.54 52.772 0.083 8.13 105.03 11.82
3/27/2021 3:15:00 PM 11.63 52.934 0.083 8.13 108.18 11.77
3/27/2021 3:30:00 PM 11.71 53.078 0.083 8.12 93.85 11.72
3/27/2021 3:45:00 PM 11.83 53.294 0.083 8.16 132.59 11.66
3/27/2021 4:00:00 PM 11.95 53.51 0.083 8.18 98.1 11.61
3/27/2021 4:15:00 PM 12.06 53.708 0.083 8.19 98.51 11.54
3/27/2021 4:30:00 PM 12.14 53.852 0.083 8.21 11.32 11.49
3/27/2021 4:45:00 PM 12.22 53.996 0.083 8.19 12.47 11.43
3/27/2021 5:00:00 PM 12.28 54.104 0.083 8.18 16.26 11.37
3/27/2021 5:15:00 PM 12.31 54.158 0.083 8.15 10.65 11.32
3/27/2021 5:30:00 PM 12.32 54.176 0.083 8.11 12.68 11.25
3/27/2021 5:45:00 PM 12.31 54.158 0.083 8.07 12.83 11.21
3/27/2021 6:00:00 PM 12.28 54.104 0.083 8.03 14.15 11.16
3/27/2021 6:15:00 PM 12.24 54.032 0.083 7.95 13.77 11.1
3/27/2021 6:30:00 PM 12.2 53.96 0.083 7.91 13.88 11.05
3/27/2021 6:45:00 PM 12.14 53.852 0.083 7.83 14.49 10.97
3/27/2021 7:00:00 PM 12.08 53.744 0.083 7.74 13.76 10.89
3/27/2021 7:15:00 PM 12.01 53.618 0.083 7.66 12.63 10.81
3/27/2021 7:30:00 PM 11.94 53.492 0.083 7.58 11.46 10.71
3/27/2021 7:45:00 PM 11.86 53.348 0.083 7.49 10.32 10.63
3/27/2021 8:00:00 PM 11.79 53.222 0.083 7.45 10.85 10.56
3/27/2021 8:15:00 PM 11.71 53.078 0.084 7.4 12.02 10.5
3/27/2021 8:30:00 PM 11.63 52.934 0.084 7.35 11.67 10.45
3/27/2021 8:45:00 PM 11.55 52.79 0.084 7.29 14.49 10.41
3/27/2021 9:00:00 PM 11.46 52.628 0.084 7.28 13.57 10.38
3/27/2021 9:15:00 PM 11.37 52.466 0.084 7.25 13.76 10.36
3/27/2021 9:30:00 PM 11.28 52.304 0.084 7.23 15.23 10.34
3/27/2021 9:45:00 PM 11.2 52.16 0.084 7.2 15.46 10.33
3/27/2021 10:00:00 PM 11.11 51.998 0.084 7.17 16.63 10.32
3/27/2021 10:15:00 PM 11.03 51.854 0.084 7.16 20.01 10.32
3/27/2021 10:30:00 PM 10.95 51.71 0.085 7.18 19.78 10.32
3/27/2021 10:45:00 PM 10.87 51.566 0.085 7.17 21.79 10.32
3/27/2021 11:00:00 PM 10.8 51.44 0.085 7.15 22.68 10.32
3/27/2021 11:15:00 PM 10.73 51.314 0.085 7.16 22.47 10.33
3/27/2021 11:30:00 PM 10.66 51.188 0.085 7.15 22.6 10.34
3/27/2021 11:45:00 PM 10.6 51.08 0.085 7.14 22.75 10.35
3/28/2021 12:00:00 AM 10.53 50.954 0.085 7.15 25.08 10.37
3/28/2021 12:15:00 AM 10.46 50.828 0.086 7.15 24.28 10.37
3/28/2021 12:30:00 AM 10.39 50.702 0.086 7.14 24.86 10.39
3/28/2021 12:45:00 AM 10.32 50.576 0.086 7.13 27.64 10.41
3/28/2021 1:00:00 AM 10.25 50.45 0.086 7.13 28.62 10.43
3/28/2021 1:15:00 AM 10.18 50.324 0.086 7.13 28.09 10.44
3/28/2021 1:30:00 AM 10.11 50.198 0.086 7.12 29.41 10.45
3/28/2021 1:45:00 AM 10.04 50.072 0.086 7.14 33 10.47
3/28/2021 2:00:00 AM 9.97 49.946 0.086 7.13 32.92 10.49
3/28/2021 2:15:00 AM 9.9 49.82 0.086 7.13 33.54 10.51
3/28/2021 2:30:00 AM 9.83 49.694 0.086 7.12 34.61 10.52
3/28/2021 2:45:00 AM 9.76 49.568 0.086 7.13 34.91 10.54
3/28/2021 3:00:00 AM 9.69 49.442 0.086 7.13 36.13 10.55
3/28/2021 3:15:00 AM 9.63 49.334 0.086 7.11 35.53 10.57
3/28/2021 3:30:00 AM 9.58 49.244 0.086 7.11 37.15 10.59
3/28/2021 3:45:00 AM 9.52 49.136 0.086 7.13 32.37 10.61
3/28/2021 4:00:00 AM 9.48 49.064 0.086 7.11 35.36 10.62
3/28/2021 4:15:00 AM 9.44 48.992 0.086 7.13 35.94 10.63
3/28/2021 4:30:00 AM 9.4 48.92 0.086 7.13 36.93 10.64
3/28/2021 4:45:00 AM 9.36 48.848 0.086 7.13 38.3 10.66
3/28/2021 5:00:00 AM 9.33 48.794 0.086 7.14 38 10.67
3/28/2021 5:15:00 AM 9.3 48.74 0.086 7.14 35.28 10.68
3/28/2021 5:30:00 AM 9.28 48.704 0.086 7.14 40.6 10.7
3/28/2021 5:45:00 AM 9.26 48.668 0.086 7.15 39.09 10.7
3/28/2021 6:00:00 AM 9.23 48.614 0.086 7.15 38.54 10.71
3/28/2021 6:15:00 AM 9.21 48.578 0.086 7.15 39.14 10.72
3/28/2021 6:30:00 AM 9.19 48.542 0.086 7.15 42.05 10.73
3/28/2021 6:45:00 AM 9.17 48.506 0.086 7.16 40.66 10.74
3/28/2021 7:00:00 AM 9.15 48.47 0.086 7.15 40.68 10.74
3/28/2021 7:15:00 AM 9.13 48.434 0.086 7.16 42.66 10.75
3/28/2021 7:30:00 AM 9.12 48.416 0.086 7.17 39.3 10.76
3/28/2021 7:45:00 AM 9.1 48.38 0.086 7.17 41.45 10.78
3/28/2021 8:00:00 AM 9.09 48.362 0.086 7.18 40.82 10.8
3/28/2021 8:15:00 AM 9.07 48.326 0.086 7.18 38.69 10.83
3/28/2021 8:30:00 AM 9.06 48.308 0.086 7.2 40.51 10.86
3/28/2021 8:45:00 AM 9.06 48.308 0.086 7.2 41.38 10.9
3/28/2021 9:00:00 AM 9.06 48.308 0.086 7.22 43.39 10.96
3/28/2021 9:15:00 AM 9.06 48.308 0.086 7.23 45.47 10.95
3/28/2021 9:30:00 AM 9.06 48.308 0.086 7.24 46.84 10.99
3/28/2021 9:45:00 AM 9.08 48.344 0.086 7.26 40.89 11.07
3/28/2021 10:00:00 AM 9.08 48.344 0.086 7.27 40.55 11.09
3/28/2021 10:15:00 AM 9.1 48.38 0.085 7.29 41.93 11.14
3/28/2021 10:30:00 AM 9.11 48.398 0.085 7.3 42.27 11.18
3/28/2021 10:45:00 AM 9.13 48.434 0.085 7.32 46.68 11.24
3/28/2021 11:00:00 AM 9.15 48.47 0.085 7.34 50.02 11.3
3/28/2021 11:15:00 AM 9.18 48.524 0.085 7.37 55.11 11.34
3/28/2021 11:30:00 AM 9.19 48.542 0.085 7.37 46 11.35
3/28/2021 11:45:00 AM 9.2 48.56 0.085 7.39 45.32 11.36
3/28/2021 12:00:00 PM 9.22 48.596 0.085 7.39 47.87 11.35
3/28/2021 12:15:00 PM 9.22 48.596 0.085 7.4 61.96 11.35
3/28/2021 12:30:00 PM 9.25 48.65 0.085 7.42 51.17 11.35
3/28/2021 12:45:00 PM 9.25 48.65 0.085 7.4 56.17 11.34
3/28/2021 1:00:00 PM 9.27 48.686 0.085 7.41 51.1 11.35
3/28/2021 1:15:00 PM 9.3 48.74 0.085 7.43 52.1 11.37
3/28/2021 1:30:00 PM 9.32 48.776 0.085 7.41 54.02 11.38
3/28/2021 1:45:00 PM 9.34 48.812 0.085 7.43 51.11 11.39
3/28/2021 2:00:00 PM 9.37 48.866 0.085 7.45 54.28 11.41
3/28/2021 2:15:00 PM 9.4 48.92 0.085 7.47 55.52 11.41
3/28/2021 2:30:00 PM 9.44 48.992 0.084 7.49 56.27 11.41
3/28/2021 2:45:00 PM 9.48 49.064 0.084 7.48 60.08 11.4
3/28/2021 3:00:00 PM 9.54 49.172 0.084 7.53 58.05 11.42
3/28/2021 3:15:00 PM 9.61 49.298 0.084 7.55 59.27 11.45
3/28/2021 3:30:00 PM 9.68 49.424 0.084 7.57 55.58 11.45
3/28/2021 3:45:00 PM 9.71 49.478 0.084 7.56 60.38 11.42
3/28/2021 4:00:00 PM 9.76 49.568 0.084 7.55 65.84 11.4
3/28/2021 4:15:00 PM 9.8 49.64 0.084 7.55 61.95 11.32
3/28/2021 4:30:00 PM 9.84 49.712 0.084 7.52 61.58 11.25
3/28/2021 4:45:00 PM 9.87 49.766 0.084 7.53 57.73 11.23
3/28/2021 5:00:00 PM 9.9 49.82 0.084 7.5 63.28 11.2
3/28/2021 5:15:00 PM 9.93 49.874 0.085 7.52 65.49 11.18
3/28/2021 5:30:00 PM 9.95 49.91 0.085 7.48 62.42 11.1
3/28/2021 5:45:00 PM 9.97 49.946 0.085 7.47 59.58 11.06
3/28/2021 6:00:00 PM 9.97 49.946 0.085 7.44 67.95 11
3/28/2021 6:15:00 PM 9.97 49.946 0.085 7.43 61.13 10.97
3/28/2021 6:30:00 PM 9.96 49.928 0.085 7.41 64.92 10.92
3/28/2021 6:45:00 PM 9.95 49.91 0.086 7.37 70.42 10.9
3/28/2021 7:00:00 PM 9.93 49.874 0.086 7.37 86.02 10.86
3/28/2021 7:15:00 PM 9.89 49.802 0.087 7.35 73.35 10.83
3/28/2021 7:30:00 PM 9.86 49.748 0.087 7.34 78.34 10.78
3/28/2021 7:45:00 PM 9.81 49.658 0.088 7.29 78.06 10.75
3/28/2021 8:00:00 PM 9.78 49.604 0.088 7.26 87.6 10.72
3/28/2021 8:15:00 PM 9.74 49.532 0.089 7.28 79.04 10.69
3/28/2021 8:30:00 PM 9.69 49.442 0.089 7.26 81.73 10.67
3/28/2021 8:45:00 PM 9.64 49.352 0.09 7.25 87.62 10.66
3/28/2021 9:00:00 PM 9.6 49.28 0.089 7.23 77.31 10.65
3/28/2021 9:15:00 PM 9.56 49.208 0.089 7.22 81.88 10.65
3/28/2021 9:30:00 PM 9.51 49.118 0.089 7.21 77.22 10.64
3/28/2021 9:45:00 PM 9.46 49.028 0.089 7.2 91.28 10.64
3/28/2021 10:00:00 PM 9.4 48.92 0.088 7.21 93.45 10.65
3/28/2021 10:15:00 PM 9.33 48.794 0.088 7.19 98.04 10.66
3/28/2021 10:30:00 PM 9.28 48.704 0.088 7.19 334.19 10.68
3/28/2021 10:45:00 PM 9.22 48.596 0.088 7.19 301 10.69
3/28/2021 11:00:00 PM 9.15 48.47 0.088 7.17 36.71 10.71
3/28/2021 11:15:00 PM 9.08 48.344 0.088 7.17 30.21 10.72
3/28/2021 11:30:00 PM 9.01 48.218 0.088 7.18 89.94 10.74
3/28/2021 11:45:00 PM 8.95 48.11 0.088 7.17 364.19 10.76
3/29/2021 12:00:00 AM 8.87 47.966 0.087 7.15 177.07 10.78
3/29/2021 12:15:00 AM 8.78 47.804 0.088 7.15 289.29 10.8
3/29/2021 12:30:00 AM 8.7 47.66 0.087 7.14 231.67 10.82
3/29/2021 12:45:00 AM 8.61 47.498 0.087 7.13 78.22 10.85
3/29/2021 1:00:00 AM 8.53 47.354 0.087 7.14 491.05 10.87
3/29/2021 1:15:00 AM 8.45 47.21 0.087 7.12 328.61 10.89
3/29/2021 1:30:00 AM 8.37 47.066 0.087 7.12 411.58 10.92
3/29/2021 1:45:00 AM 8.29 46.922 0.087 7.12 404.18 10.94
3/29/2021 2:00:00 AM 8.22 46.796 0.087 7.13 414.69 10.97
3/29/2021 2:15:00 AM 8.16 46.688 0.087 7.12 111.63 10.99
3/29/2021 2:30:00 AM 8.1 46.58 0.087 7.12 269.67 11.01
3/29/2021 2:45:00 AM 8.03 46.454 0.088 7.13 211.91 11.03
3/29/2021 3:00:00 AM 7.95 46.31 0.088 7.13 69.33 11.06
3/29/2021 3:15:00 AM 7.89 46.202 0.088 7.12 277.49 11.08
3/29/2021 3:30:00 AM 7.81 46.058 0.088 7.13 132.04 11.11
3/29/2021 3:45:00 AM 7.74 45.932 0.088 7.12 300.4 11.13
3/29/2021 4:00:00 AM 7.67 45.806 0.088 7.14 101.13 11.15
3/29/2021 4:15:00 AM 7.61 45.698 0.088 7.15 114.59 11.17
3/29/2021 4:30:00 AM 7.54 45.572 0.088 7.12 502.43 11.2
3/29/2021 4:45:00 AM 7.48 45.464 0.088 7.15 122.6 11.22
3/29/2021 5:00:00 AM 7.42 45.356 0.088 7.15 338.3 11.25
3/29/2021 5:15:00 AM 7.36 45.248 0.088 7.15 129.85 11.27
3/29/2021 5:30:00 AM 7.3 45.14 0.088 7.13 103.53 11.28
3/29/2021 5:45:00 AM 7.24 45.032 0.088 7.13 107.77 11.31
3/29/2021 6:00:00 AM 7.17 44.906 0.088 7.08 394.38 11.33
3/29/2021 6:15:00 AM 7.12 44.816 0.088 7.11 650.53 11.35
3/29/2021 6:30:00 AM 7.05 44.69 0.088 7.11 52 11.37
3/29/2021 6:45:00 AM 6.98 44.564 0.088 7.12 367.98 11.4
3/29/2021 7:00:00 AM 6.92 44.456 0.088 7.11 139.74 11.42
3/29/2021 7:15:00 AM 6.86 44.348 0.088 7.14 501.01 11.46
3/29/2021 7:30:00 AM 6.81 44.258 0.088 7.13 88.61 11.51
3/29/2021 7:45:00 AM 6.77 44.186 0.088 7.16 76.03 11.57
3/29/2021 8:00:00 AM 6.72 44.096 0.088 7.17 511.92 11.66
3/29/2021 8:15:00 AM 6.68 44.024 0.087 7.2 369.85 11.75
3/29/2021 8:30:00 AM 6.64 43.952 0.087 7.19 1552.54 11.83
3/29/2021 8:45:00 AM 6.63 43.934 0.087 7.25 70.66 11.93
3/29/2021 9:00:00 AM 6.61 43.898 0.087 7.26 85.23 12.02
3/29/2021 9:15:00 AM 6.6 43.88 0.087 7.28 92.6 12.11
3/29/2021 9:30:00 AM 6.59 43.862 0.087 7.31 90.71 12.16
3/29/2021 9:45:00 AM 6.6 43.88 0.087 7.33 78.1 12.24
3/29/2021 10:00:00 AM 6.61 43.898 0.087 7.36 95.04 12.3
3/29/2021 10:15:00 AM 6.64 43.952 0.087 7.4 85.71 12.36
3/29/2021 10:30:00 AM 6.66 43.988 0.087 7.41 92.07 12.43
3/29/2021 10:45:00 AM 6.79 44.222 0.087 7.51 91.72 12.47
3/29/2021 11:00:00 AM 6.82 44.276 0.087 7.46 86.83 12.49
3/29/2021 11:15:00 AM 6.92 44.456 0.087 7.54 89.01 12.54
3/29/2021 11:30:00 AM 7.07 44.726 0.086 7.59 98.83 12.58
3/29/2021 11:45:00 AM 7.21 44.978 0.086 7.61 84.78 12.57
3/29/2021 12:00:00 PM 7.39 45.302 0.086 7.66 92.78 12.6
3/29/2021 12:15:00 PM 7.53 45.554 0.086 7.64 82.26 12.57
3/29/2021 12:30:00 PM 7.78 46.004 0.086 7.75 91.77 12.57
3/29/2021 12:45:00 PM 8.01 46.418 0.086 7.75 89.26 12.53
3/29/2021 1:00:00 PM 8.2 46.76 0.086 7.83 175.08 12.51
3/29/2021 1:15:00 PM 8.39 47.102 0.086 7.84 197.99 12.48
3/29/2021 1:30:00 PM 8.57 47.426 0.086 7.85 184.57 12.45
3/29/2021 1:45:00 PM 8.72 47.696 0.086 7.89 185.56 12.42
3/29/2021 2:00:00 PM 8.9 48.02 0.085 7.9 264.25 12.39
3/29/2021 2:15:00 PM 9.03 48.254 0.085 7.9 200.63 12.34
3/29/2021 2:30:00 PM 9.18 48.524 0.085 7.9 211.54 12.3
3/29/2021 2:45:00 PM 9.26 48.668 0.091 7.6 3.25 12.28
3/29/2021 3:00:00 PM 9.35 48.83 0.09 7.56 2.04 12.28
3/29/2021 3:15:00 PM 9.45 49.01 0.09 7.55 2.09 12.24
3/29/2021 3:30:00 PM 9.55 49.19 0.09 7.55 1.88 12.18
3/29/2021 3:45:00 PM 9.64 49.352 0.09 7.54 1.84 12.12
3/29/2021 4:00:00 PM 9.73 49.514 0.09 7.53 2.01 12.06
3/29/2021 4:15:00 PM 9.8 49.64 0.09 7.52 1.98 12.01
3/29/2021 4:30:00 PM 9.85 49.73 0.09 7.51 2.07 11.95
3/29/2021 4:45:00 PM 9.91 49.838 0.09 7.5 1.91 11.89
3/29/2021 5:00:00 PM 9.95 49.91 0.09 7.5 2.04 11.83
3/29/2021 5:15:00 PM 9.97 49.946 0.09 7.45 1.9 11.75
3/29/2021 5:30:00 PM 9.98 49.964 0.09 7.45 1.93 11.69
3/29/2021 5:45:00 PM 9.99 49.982 0.09 7.42 1.91 11.63
3/29/2021 6:00:00 PM 9.98 49.964 0.09 7.37 2.05 11.57
3/29/2021 6:15:00 PM 9.95 49.91 0.09 7.33 2.03 11.5
3/29/2021 6:30:00 PM 9.92 49.856 0.09 7.29 1.88 11.45
3/29/2021 6:45:00 PM 9.87 49.766 0.09 7.28 1.86 11.4
3/29/2021 7:00:00 PM 9.79 49.622 0.091 7.24 1.84 11.34
3/29/2021 7:15:00 PM 9.71 49.478 0.091 7.18 1.94 11.3
3/29/2021 7:30:00 PM 9.61 49.298 0.091 7.16 2.03 11.25
3/29/2021 7:45:00 PM 9.5 49.1 0.091 7.12 1.89 11.2
3/29/2021 8:00:00 PM 9.39 48.902 0.091 7.09 2.01 11.17
3/29/2021 8:15:00 PM 9.27 48.686 0.091 7.06 1.97 11.14
3/29/2021 8:30:00 PM 9.15 48.47 0.091 7.03 1.9 11.12
3/29/2021 8:45:00 PM 9.02 48.236 0.091 6.98 2.25 11.1
3/29/2021 9:00:00 PM 8.9 48.02 0.092 6.98 1.96 11.1
3/29/2021 9:15:00 PM 8.78 47.804 0.092 6.97 2.06 11.1
3/29/2021 9:30:00 PM 8.65 47.57 0.092 6.92 2.36 11.1
3/29/2021 9:45:00 PM 8.53 47.354 0.092 6.9 2.12 11.11
3/29/2021 10:00:00 PM 8.41 47.138 0.092 6.9 2.2 11.13
3/29/2021 10:15:00 PM 8.3 46.94 0.092 6.89 2.02 11.15
3/29/2021 10:30:00 PM 8.18 46.724 0.092 6.89 2.03 11.16
3/29/2021 10:45:00 PM 8.07 46.526 0.092 6.86 2.07 11.18
3/29/2021 11:00:00 PM 7.95 46.31 0.093 6.86 1.98 11.21
3/29/2021 11:15:00 PM 7.84 46.112 0.093 6.88 2.09 11.23
3/29/2021 11:30:00 PM 7.74 45.932 0.093 6.86 2.16 11.25
3/29/2021 11:45:00 PM 7.64 45.752 0.093 6.87 2.14 11.28
3/30/2021 12:00:00 AM 7.54 45.572 0.093 6.87 2.2 11.3
3/30/2021 12:15:00 AM 7.44 45.392 0.093 6.85 2.02 11.33
3/30/2021 12:30:00 AM 7.35 45.23 0.093 6.85 2.11 11.36
3/30/2021 12:45:00 AM 7.26 45.068 0.093 6.86 2.16 11.38
3/30/2021 1:00:00 AM 7.17 44.906 0.093 6.86 2.27 11.42
3/30/2021 1:15:00 AM 7.08 44.744 0.093 6.86 2.26 11.44
3/30/2021 1:30:00 AM 7 44.6 0.093 6.86 1.95 11.47
3/30/2021 1:45:00 AM 6.91 44.438 0.093 6.86 2.13 11.5
3/30/2021 2:00:00 AM 6.82 44.276 0.094 6.85 2.14 11.52
3/30/2021 2:15:00 AM 6.73 44.114 0.094 6.84 1.96 11.55
3/30/2021 2:30:00 AM 6.65 43.97 0.094 6.84 1.98 11.58
3/30/2021 2:45:00 AM 6.56 43.808 0.094 6.85 2.1 11.61
3/30/2021 3:00:00 AM 6.47 43.646 0.094 6.85 1.96 11.64
3/30/2021 3:15:00 AM 6.39 43.502 0.094 6.86 2.68 11.67
3/30/2021 3:30:00 AM 6.3 43.34 0.094 6.86 2.1 11.69
3/30/2021 3:45:00 AM 6.22 43.196 0.094 6.86 1.92 11.72
3/30/2021 4:00:00 AM 6.13 43.034 0.094 6.85 2.03 11.75
3/30/2021 4:15:00 AM 6.05 42.89 0.094 6.85 2.06 11.78
3/30/2021 4:30:00 AM 5.97 42.746 0.094 6.85 2 11.8
3/30/2021 4:45:00 AM 5.89 42.602 0.094 6.87 1.96 11.83
3/30/2021 5:00:00 AM 5.82 42.476 0.094 6.86 1.96 11.86
3/30/2021 5:15:00 AM 5.74 42.332 0.094 6.86 1.98 11.89
3/30/2021 5:30:00 AM 5.67 42.206 0.094 6.87 2.02 11.91
3/30/2021 5:45:00 AM 5.59 42.062 0.094 6.86 1.99 11.94
3/30/2021 6:00:00 AM 5.51 41.918 0.094 6.86 2.03 11.97
3/30/2021 6:15:00 AM 5.44 41.792 0.094 6.87 2.32 12
3/30/2021 6:30:00 AM 5.37 41.666 0.094 6.86 2.13 12.02
3/30/2021 6:45:00 AM 5.3 41.54 0.094 6.84 1.9 12.05
3/30/2021 7:00:00 AM 5.23 41.414 0.094 6.86 2.04 12.08
3/30/2021 7:15:00 AM 5.17 41.306 0.094 6.85 1.89 12.13
3/30/2021 7:30:00 AM 5.11 41.198 0.094 6.89 1.97 12.2
3/30/2021 7:45:00 AM 5.06 41.108 0.094 6.9 2.04 12.26
3/30/2021 8:00:00 AM 5.03 41.054 0.094 6.92 1.84 12.34
3/30/2021 8:15:00 AM 5.01 41.018 0.094 6.91 1.9 12.42
3/30/2021 8:30:00 AM 5 41 0.094 6.95 1.92 12.51
3/30/2021 8:45:00 AM 5.01 41.018 0.093 6.97 1.83 12.59
3/30/2021 9:00:00 AM 5.05 41.09 0.093 7.01 1.88 12.66
3/30/2021 9:15:00 AM 5.1 41.18 0.093 7 1.79 12.74
3/30/2021 9:30:00 AM 5.17 41.306 0.093 7.04 1.75 12.79
3/30/2021 9:45:00 AM 5.26 41.468 0.093 7.08 1.83 12.84
3/30/2021 10:00:00 AM 5.37 41.666 0.093 7.11 1.78 12.88
3/30/2021 10:15:00 AM 5.49 41.882 0.093 7.14 1.73 12.91
3/30/2021 10:30:00 AM 5.63 42.134 0.093 7.16 1.72 12.93
3/30/2021 10:45:00 AM 5.77 42.386 0.093 7.17 1.84 12.94
3/30/2021 11:00:00 AM 5.95 42.71 0.093 7.2 1.85 12.95
3/30/2021 11:15:00 AM 6.12 43.016 0.093 7.22 1.96 12.96
3/30/2021 11:30:00 AM 6.32 43.376 0.092 7.25 1.76 12.95
3/30/2021 11:45:00 AM 6.55 43.79 0.092 7.27 1.76 12.93
3/30/2021 12:00:00 PM 6.8 44.24 0.092 7.29 1.62 12.91
3/30/2021 12:15:00 PM 7.08 44.744 0.092 7.31 1.64 12.88
3/30/2021 12:30:00 PM 7.35 45.23 0.092 7.34 1.56 12.84
3/30/2021 12:45:00 PM 7.64 45.752 0.092 7.36 1.55 12.8
3/30/2021 1:00:00 PM 7.92 46.256 0.091 7.38 1.5 12.74
3/30/2021 1:15:00 PM 8.21 46.778 0.091 7.4 1.57 12.69
3/30/2021 1:30:00 PM 8.48 47.264 0.091 7.41 1.57 12.63
3/30/2021 1:45:00 PM 8.73 47.714 0.091 7.44 1.58 12.57
3/30/2021 2:00:00 PM 8.99 48.182 0.091 7.45 1.63 12.5
3/30/2021 2:15:00 PM 9.21 48.578 0.091 7.47 1.65 12.44
3/30/2021 2:30:00 PM 9.44 48.992 0.091 7.48 1.66 12.38
3/30/2021 2:45:00 PM 9.63 49.334 0.091 7.49 1.56 12.31
3/30/2021 3:00:00 PM 9.81 49.658 0.091 7.5 1.62 12.24
3/30/2021 3:15:00 PM 9.97 49.946 0.091 7.51 1.53 12.17
3/30/2021 3:30:00 PM 10.13 50.234 0.09 7.52 1.54 12.1
3/30/2021 3:45:00 PM 10.25 50.45 0.09 7.53 1.56 12.03
3/30/2021 4:00:00 PM 10.37 50.666 0.09 7.53 1.49 11.96
3/30/2021 4:15:00 PM 10.46 50.828 0.09 7.53 1.54 11.89
3/30/2021 4:30:00 PM 10.56 51.008 0.09 7.51 1.61 11.82
3/30/2021 4:45:00 PM 10.65 51.17 0.09 7.51 1.55 11.75
3/30/2021 5:00:00 PM 10.71 51.278 0.09 7.5 1.57 11.67
3/30/2021 5:15:00 PM 10.75 51.35 0.09 7.49 1.6 11.6
3/30/2021 5:30:00 PM 10.85 51.53 0.09 7.47 1.73 11.56
3/30/2021 5:45:00 PM 10.88 51.584 0.09 7.45 1.58 11.5
3/30/2021 6:00:00 PM 10.9 51.62 0.09 7.43 1.8 11.42
3/30/2021 6:15:00 PM 10.92 51.656 0.09 7.39 1.73 11.36
3/30/2021 6:30:00 PM 10.92 51.656 0.09 7.38 1.52 11.29
3/30/2021 6:45:00 PM 10.92 51.656 0.09 7.32 1.67 11.23
3/30/2021 7:00:00 PM 10.89 51.602 0.09 7.31 1.71 11.15
3/30/2021 7:15:00 PM 10.84 51.512 0.09 7.26 1.61 11.07
3/30/2021 7:30:00 PM 10.79 51.422 0.091 7.22 1.77 10.99
3/30/2021 7:45:00 PM 10.73 51.314 0.091 7.17 2.17 10.92
3/30/2021 8:00:00 PM 10.67 51.206 0.091 7.14 1.82 10.86
3/30/2021 8:15:00 PM 10.6 51.08 0.091 7.09 1.73 10.81
3/30/2021 8:30:00 PM 10.52 50.936 0.091 7.08 1.71 10.76
3/30/2021 8:45:00 PM 10.44 50.792 0.091 7 1.9 10.73
3/30/2021 9:00:00 PM 10.36 50.648 0.091 7.03 1.96 10.71
3/30/2021 9:15:00 PM 10.28 50.504 0.091 6.98 1.9 10.69
3/30/2021 9:30:00 PM 10.19 50.342 0.091 6.96 1.88 10.68
3/30/2021 9:45:00 PM 10.11 50.198 0.091 6.95 1.86 10.67
3/30/2021 10:00:00 PM 10.02 50.036 0.092 6.94 2.03 10.67
3/30/2021 10:15:00 PM 9.94 49.892 0.092 6.95 2.1 10.68
3/30/2021 10:30:00 PM 9.86 49.748 0.092 6.92 1.87 10.69
3/30/2021 10:45:00 PM 9.78 49.604 0.092 6.87 1.77 10.69
3/30/2021 11:00:00 PM 9.71 49.478 0.092 6.89 2.04 10.7
3/30/2021 11:15:00 PM 9.64 49.352 0.092 6.89 1.96 10.71
3/30/2021 11:30:00 PM 9.58 49.244 0.092 6.89 1.89 10.72
3/30/2021 11:45:00 PM 9.51 49.118 0.092 6.87 1.94 10.74
3/31/2021 12:00:00 AM 9.44 48.992 0.092 6.88 2 10.75
3/31/2021 12:15:00 AM 9.37 48.866 0.092 6.89 1.85 10.76
3/31/2021 12:30:00 AM 9.31 48.758 0.092 6.89 1.78 10.78
3/31/2021 12:45:00 AM 9.24 48.632 0.093 6.86 1.92 10.79
3/31/2021 1:00:00 AM 9.17 48.506 0.093 6.87 2.14 10.81
3/31/2021 1:15:00 AM 9.11 48.398 0.093 6.87 1.7 10.83
3/31/2021 1:30:00 AM 9.04 48.272 0.093 6.88 1.96 10.84
3/31/2021 1:45:00 AM 8.98 48.164 0.093 6.85 1.9 10.85
3/31/2021 2:00:00 AM 8.91 48.038 0.093 6.87 1.88 10.87
3/31/2021 2:15:00 AM 8.85 47.93 0.093 6.87 1.81 10.89
3/31/2021 2:30:00 AM 8.78 47.804 0.093 6.86 1.79 10.91
3/31/2021 2:45:00 AM 8.72 47.696 0.093 6.87 1.94 10.92
3/31/2021 3:00:00 AM 8.65 47.57 0.093 6.86 1.81 10.94
3/31/2021 3:15:00 AM 8.59 47.462 0.093 6.86 2.07 10.96
3/31/2021 3:30:00 AM 8.52 47.336 0.093 6.87 1.85 10.98
3/31/2021 3:45:00 AM 8.46 47.228 0.093 6.88 1.94 11
3/31/2021 4:00:00 AM 8.4 47.12 0.093 6.87 1.87 11.02
3/31/2021 4:15:00 AM 8.34 47.012 0.093 6.87 1.96 11.03
3/31/2021 4:30:00 AM 8.28 46.904 0.093 6.85 1.88 11.05
3/31/2021 4:45:00 AM 8.22 46.796 0.093 6.85 1.87 11.07
3/31/2021 5:00:00 AM 8.16 46.688 0.093 6.86 1.72 11.08
3/31/2021 5:15:00 AM 8.11 46.598 0.093 6.86 1.79 11.1
3/31/2021 5:30:00 AM 8.06 46.508 0.093 6.88 1.8 11.12
3/31/2021 5:45:00 AM 8.01 46.418 0.093 6.87 1.69 11.13
3/31/2021 6:00:00 AM 7.97 46.346 0.093 6.86 1.89 11.14
3/31/2021 6:15:00 AM 7.93 46.274 0.093 6.86 1.76 11.15
3/31/2021 6:30:00 AM 7.89 46.202 0.093 6.85 1.92 11.17
3/31/2021 6:45:00 AM 7.85 46.13 0.093 6.88 2.1 11.18
3/31/2021 7:00:00 AM 7.82 46.076 0.093 6.88 1.96 11.2
3/31/2021 7:15:00 AM 7.79 46.022 0.093 6.87 1.94 11.23
3/31/2021 7:30:00 AM 7.77 45.986 0.093 6.89 1.87 11.28
3/31/2021 7:45:00 AM 7.75 45.95 0.093 6.92 1.8 11.35
3/31/2021 8:00:00 AM 7.75 45.95 0.093 6.91 1.87 11.43
3/31/2021 8:15:00 AM 7.75 45.95 0.093 6.95 1.72 11.52
3/31/2021 8:30:00 AM 7.77 45.986 0.093 6.99 1.71 11.61
3/31/2021 8:45:00 AM 7.8 46.04 0.093 7.01 1.71 11.7
3/31/2021 9:00:00 AM 7.83 46.094 0.093 7.04 1.73 11.77
3/31/2021 9:15:00 AM 7.86 46.148 0.093 7.05 1.7 11.82
3/31/2021 9:30:00 AM 7.9 46.22 0.093 7.1 1.68 11.87
3/31/2021 9:45:00 AM 7.97 46.346 0.092 7.1 1.72 11.94
3/31/2021 10:00:00 AM 8.02 46.436 0.092 7.13 1.64 11.98
3/31/2021 10:15:00 AM 8.08 46.544 0.092 7.17 1.65 12.01
3/31/2021 10:30:00 AM 8.12 46.616 0.092 7.2 1.68 12.02
3/31/2021 10:45:00 AM 8.18 46.724 0.092 7.2 1.62 12.04
3/31/2021 11:00:00 AM 8.24 46.832 0.092 7.22 1.74 12.05
3/31/2021 11:15:00 AM 8.29 46.922 0.092 7.24 1.65 12.05
3/31/2021 11:30:00 AM 8.32 46.976 0.092 7.26 1.69 12.03
3/31/2021 11:45:00 AM 8.35 47.03 0.092 7.25 1.74 11.97
3/31/2021 12:00:00 PM 8.39 47.102